<?xml version="1.0" encoding="UTF-8" standalone="no" ?>
<gpx xmlns="http://www.topografix.com/GPX/1/1" creator="MapSource 6.16.3" version="1.1" xmlns:xsi="http://www.w3.org/2001/XMLSchema-instance" xsi:schemaLocation="http://www.topografix.com/GPX/1/1 http://www.topografix.com/GPX/1/1/gpx.xsd">

  <metadata>
    <link href="http://www.garmin.com">
      <text>Garmin International</text>
    </link>
    <time>2016-09-07T05:30:15Z</time>
    <bounds maxlat="44.326722621917725" maxlon="11.431660735979676" minlat="44.197483062744141" minlon="11.358790397644043"/>
  </metadata>

  <trk>
    <name>ACTIVE LOG</name>
    <trkseg>
      <trkpt lat="44.323619809001684" lon="11.404766058549285">
        <ele>199</ele>
        <time>1989-12-31T00:00:00Z</time>
      </trkpt>
      <trkpt lat="44.323661802336574" lon="11.404849961400032">
        <ele>199</ele>
        <time>1989-12-31T00:00:00Z</time>
      </trkpt>
      <trkpt lat="44.323804378509521" lon="11.404752731323242">
        <ele>199</ele>
        <time>2003-12-08T08:36:03Z</time>
      </trkpt>
      <trkpt lat="44.324212074279785" lon="11.404645359143615">
        <ele>198</ele>
        <time>2003-12-08T08:36:16Z</time>
      </trkpt>
      <trkpt lat="44.324963092803955" lon="11.404495239257813">
        <ele>198</ele>
        <time>2003-12-08T08:36:34Z</time>
      </trkpt>
      <trkpt lat="44.325606822967529" lon="11.404688358306885">
        <ele>199</ele>
        <time>2003-12-08T08:36:50Z</time>
      </trkpt>
      <trkpt lat="44.325907230377197" lon="11.405031681060791">
        <ele>200</ele>
        <time>2003-12-08T08:37:02Z</time>
      </trkpt>
      <trkpt lat="44.32607889175415" lon="11.405417919158936">
        <ele>203</ele>
        <time>2003-12-08T08:37:13Z</time>
      </trkpt>
      <trkpt lat="44.32633638381958" lon="11.405739784240723">
        <ele>206</ele>
        <time>2003-12-08T08:37:27Z</time>
      </trkpt>
      <trkpt lat="44.326486587524414" lon="11.406147480010986">
        <ele>209</ele>
        <time>2003-12-08T08:37:43Z</time>
      </trkpt>
      <trkpt lat="44.32659387588501" lon="11.406512260437012">
        <ele>213</ele>
        <time>2003-12-08T08:37:57Z</time>
      </trkpt>
      <trkpt lat="44.326701164245605" lon="11.406898498535156">
        <ele>215</ele>
        <time>2003-12-08T08:38:11Z</time>
      </trkpt>
      <trkpt lat="44.326701164245605" lon="11.407284736633301">
        <ele>219</ele>
        <time>2003-12-08T08:38:25Z</time>
      </trkpt>
      <trkpt lat="44.326722621917725" lon="11.407756805419922">
        <ele>222</ele>
        <time>2003-12-08T08:38:43Z</time>
      </trkpt>
      <trkpt lat="44.326550960540771" lon="11.408250331878662">
        <ele>225</ele>
        <time>2003-12-08T08:39:01Z</time>
      </trkpt>
      <trkpt lat="44.326443672180176" lon="11.40880823135376">
        <ele>229</ele>
        <time>2003-12-08T08:39:21Z</time>
      </trkpt>
      <trkpt lat="44.326250636950135" lon="11.409280300140381">
        <ele>232</ele>
        <time>2003-12-08T08:39:43Z</time>
      </trkpt>
      <trkpt lat="44.326207637786865" lon="11.409301841631532">
        <ele>234</ele>
        <time>2003-12-08T08:39:47Z</time>
      </trkpt>
      <trkpt lat="44.326164722442627" lon="11.409451961517334">
        <ele>235</ele>
        <time>2003-12-08T08:39:55Z</time>
      </trkpt>
      <trkpt lat="44.326207637786865" lon="11.409001434221864">
        <ele>238</ele>
        <time>2003-12-08T08:40:09Z</time>
      </trkpt>
      <trkpt lat="44.326207637786865" lon="11.408507823944092">
        <ele>241</ele>
        <time>2003-12-08T08:40:26Z</time>
      </trkpt>
      <trkpt lat="44.326207637786865" lon="11.408078670501709">
        <ele>244</ele>
        <time>2003-12-08T08:40:40Z</time>
      </trkpt>
      <trkpt lat="44.326207637786865" lon="11.407713890075684">
        <ele>248</ele>
        <time>2003-12-08T08:40:54Z</time>
      </trkpt>
      <trkpt lat="44.326121807098389" lon="11.407327735796571">
        <ele>251</ele>
        <time>2003-12-08T08:41:10Z</time>
      </trkpt>
      <trkpt lat="44.325842941179872" lon="11.407005786895752">
        <ele>254</ele>
        <time>2003-12-08T08:41:30Z</time>
      </trkpt>
      <trkpt lat="44.325392162427306" lon="11.407005786895752">
        <ele>257</ele>
        <time>2003-12-08T08:41:53Z</time>
      </trkpt>
      <trkpt lat="44.324984634295106" lon="11.407005786895752">
        <ele>260</ele>
        <time>2003-12-08T08:42:13Z</time>
      </trkpt>
      <trkpt lat="44.324533939361572" lon="11.406898498535156">
        <ele>264</ele>
        <time>2003-12-08T08:42:33Z</time>
      </trkpt>
      <trkpt lat="44.324362277984619" lon="11.406941413879395">
        <ele>265</ele>
        <time>2003-12-08T08:42:41Z</time>
      </trkpt>
      <trkpt lat="44.324190616607666" lon="11.406984329223633">
        <ele>268</ele>
        <time>2003-12-08T08:42:50Z</time>
      </trkpt>
      <trkpt lat="44.323933124542236" lon="11.406920040026307">
        <ele>271</ele>
        <time>2003-12-08T08:43:03Z</time>
      </trkpt>
      <trkpt lat="44.323740005493164" lon="11.406619464978576">
        <ele>274</ele>
        <time>2003-12-08T08:43:20Z</time>
      </trkpt>
      <trkpt lat="44.323654174804688" lon="11.406512260437012">
        <ele>275</ele>
        <time>2003-12-08T08:43:26Z</time>
      </trkpt>
      <trkpt lat="44.323546886444092" lon="11.406533718109131">
        <ele>276</ele>
        <time>2003-12-08T08:43:32Z</time>
      </trkpt>
      <trkpt lat="44.323525428771973" lon="11.40655517578125">
        <ele>277</ele>
        <time>2003-12-08T08:43:34Z</time>
      </trkpt>
      <trkpt lat="44.323568260297179" lon="11.406683921813965">
        <ele>279</ele>
        <time>2003-12-08T08:43:40Z</time>
      </trkpt>
      <trkpt lat="44.323761463165283" lon="11.407091617584229">
        <ele>282</ele>
        <time>2003-12-08T08:44:01Z</time>
      </trkpt>
      <trkpt lat="44.32384729385376" lon="11.407349109649658">
        <ele>285</ele>
        <time>2003-12-08T08:44:11Z</time>
      </trkpt>
      <trkpt lat="44.323825836181641" lon="11.407392024993896">
        <ele>286</ele>
        <time>2003-12-08T08:44:13Z</time>
      </trkpt>
      <trkpt lat="44.323761463165283" lon="11.407370567321777">
        <ele>287</ele>
        <time>2003-12-08T08:44:17Z</time>
      </trkpt>
      <trkpt lat="44.323654174804688" lon="11.407113075256348">
        <ele>289</ele>
        <time>2003-12-08T08:44:31Z</time>
      </trkpt>
      <trkpt lat="44.323482513427734" lon="11.406941413879395">
        <ele>292</ele>
        <time>2003-12-08T08:44:44Z</time>
      </trkpt>
      <trkpt lat="44.32335376739502" lon="11.406920040026307">
        <ele>293</ele>
        <time>2003-12-08T08:44:51Z</time>
      </trkpt>
      <trkpt lat="44.323053359985352" lon="11.407027160748839">
        <ele>297</ele>
        <time>2003-12-08T08:45:08Z</time>
      </trkpt>
      <trkpt lat="44.322795867919922" lon="11.407070159912109">
        <ele>300</ele>
        <time>2003-12-08T08:46:51Z</time>
      </trkpt>
      <trkpt lat="44.322753036394715" lon="11.407370567321777">
        <ele>302</ele>
        <time>2003-12-08T08:47:05Z</time>
      </trkpt>
      <trkpt lat="44.322774410247803" lon="11.407628059387207">
        <ele>305</ele>
        <time>2003-12-08T08:47:15Z</time>
      </trkpt>
      <trkpt lat="44.322795867919922" lon="11.408078670501709">
        <ele>309</ele>
        <time>2003-12-08T08:47:33Z</time>
      </trkpt>
      <trkpt lat="44.322774410247803" lon="11.408379077911377">
        <ele>313</ele>
        <time>2003-12-08T08:47:45Z</time>
      </trkpt>
      <trkpt lat="44.322710037231445" lon="11.408658027648926">
        <ele>315</ele>
        <time>2003-12-08T08:47:58Z</time>
      </trkpt>
      <trkpt lat="44.322667121887207" lon="11.409087181091309">
        <ele>319</ele>
        <time>2003-12-08T08:48:16Z</time>
      </trkpt>
      <trkpt lat="44.322516918182373" lon="11.409473419189453">
        <ele>322</ele>
        <time>2003-12-08T08:48:34Z</time>
      </trkpt>
      <trkpt lat="44.322409629821777" lon="11.409773826599121">
        <ele>326</ele>
        <time>2003-12-08T08:48:49Z</time>
      </trkpt>
      <trkpt lat="44.322302341461182" lon="11.410117065533996">
        <ele>329</ele>
        <time>2003-12-08T08:49:06Z</time>
      </trkpt>
      <trkpt lat="44.32208776473999" lon="11.410460472106934">
        <ele>333</ele>
        <time>2003-12-08T08:49:25Z</time>
      </trkpt>
      <trkpt lat="44.321765899658203" lon="11.410589218139648">
        <ele>336</ele>
        <time>2003-12-08T08:49:43Z</time>
      </trkpt>
      <trkpt lat="44.321444034576416" lon="11.410503387451172">
        <ele>339</ele>
        <time>2003-12-08T08:50:00Z</time>
      </trkpt>
      <trkpt lat="44.321208000183105" lon="11.410224437713623">
        <ele>342</ele>
        <time>2003-12-08T08:50:17Z</time>
      </trkpt>
      <trkpt lat="44.320993423461914" lon="11.409924030303955">
        <ele>346</ele>
        <time>2003-12-08T08:50:34Z</time>
      </trkpt>
      <trkpt lat="44.320693016052246" lon="11.409859741106629">
        <ele>349</ele>
        <time>2003-12-08T08:50:50Z</time>
      </trkpt>
      <trkpt lat="44.320456981658936" lon="11.409645080566406">
        <ele>352</ele>
        <time>2003-12-08T08:51:06Z</time>
      </trkpt>
      <trkpt lat="44.32034969329834" lon="11.409387588500977">
        <ele>355</ele>
        <time>2003-12-08T08:51:18Z</time>
      </trkpt>
      <trkpt lat="44.320178031921387" lon="11.409065723419189">
        <ele>358</ele>
        <time>2003-12-08T08:51:35Z</time>
      </trkpt>
      <trkpt lat="44.319963539019227" lon="11.408915519714355">
        <ele>362</ele>
        <time>2003-12-08T08:51:48Z</time>
      </trkpt>
      <trkpt lat="44.319620132446289" lon="11.408936977386475">
        <ele>365</ele>
        <time>2003-12-08T08:52:08Z</time>
      </trkpt>
      <trkpt lat="44.31934118270874" lon="11.409001434221864">
        <ele>368</ele>
        <time>2003-12-08T08:52:22Z</time>
      </trkpt>
      <trkpt lat="44.319212436676025" lon="11.40925875864923">
        <ele>372</ele>
        <time>2003-12-08T08:52:34Z</time>
      </trkpt>
      <trkpt lat="44.319019317626953" lon="11.409645080566406">
        <ele>375</ele>
        <time>2003-12-08T08:52:52Z</time>
      </trkpt>
      <trkpt lat="44.318890571594238" lon="11.409859741106629">
        <ele>378</ele>
        <time>2003-12-08T08:53:02Z</time>
      </trkpt>
      <trkpt lat="44.318804740905762" lon="11.410417640581727">
        <ele>380</ele>
        <time>2003-12-08T08:53:23Z</time>
      </trkpt>
      <trkpt lat="44.318718910217285" lon="11.410825336351991">
        <ele>383</ele>
        <time>2003-12-08T08:53:39Z</time>
      </trkpt>
      <trkpt lat="44.318504333496094" lon="11.410911083221436">
        <ele>385</ele>
        <time>2003-12-08T08:53:52Z</time>
      </trkpt>
      <trkpt lat="44.318225383758545" lon="11.410632133483887">
        <ele>388</ele>
        <time>2003-12-08T08:54:09Z</time>
      </trkpt>
      <trkpt lat="44.317989265546203" lon="11.4103102684021">
        <ele>391</ele>
        <time>2003-12-08T08:54:26Z</time>
      </trkpt>
      <trkpt lat="44.317946434020996" lon="11.410267436876893">
        <ele>392</ele>
        <time>2003-12-08T08:54:28Z</time>
      </trkpt>
      <trkpt lat="44.317796230316162" lon="11.410095691680908">
        <ele>394</ele>
        <time>2003-12-08T08:54:41Z</time>
      </trkpt>
      <trkpt lat="44.317452907562256" lon="11.410374641418457">
        <ele>398</ele>
        <time>2003-12-08T08:55:01Z</time>
      </trkpt>
      <trkpt lat="44.317238330841064" lon="11.410889625549316">
        <ele>401</ele>
        <time>2003-12-08T08:55:20Z</time>
      </trkpt>
      <trkpt lat="44.317302703857422" lon="11.411426067352295">
        <ele>404</ele>
        <time>2003-12-08T08:55:35Z</time>
      </trkpt>
      <trkpt lat="44.317324161529541" lon="11.412069797515869">
        <ele>408</ele>
        <time>2003-12-08T08:55:55Z</time>
      </trkpt>
      <trkpt lat="44.317388534545898" lon="11.412584781646729">
        <ele>411</ele>
        <time>2003-12-08T08:56:12Z</time>
      </trkpt>
      <trkpt lat="44.317495822906494" lon="11.413078308105469">
        <ele>414</ele>
        <time>2003-12-08T08:56:28Z</time>
      </trkpt>
      <trkpt lat="44.317710399627686" lon="11.41355037689209">
        <ele>417</ele>
        <time>2003-12-08T08:56:45Z</time>
      </trkpt>
      <trkpt lat="44.317839061841369" lon="11.414129734039307">
        <ele>420</ele>
        <time>2003-12-08T08:57:04Z</time>
      </trkpt>
      <trkpt lat="44.318118095397949" lon="11.41430139541626">
        <ele>422</ele>
        <time>2003-12-08T08:57:18Z</time>
      </trkpt>
      <trkpt lat="44.318461418151855" lon="11.414151191711426">
        <ele>425</ele>
        <time>2003-12-08T08:57:33Z</time>
      </trkpt>
      <trkpt lat="44.318890571594238" lon="11.414065361022949">
        <ele>428</ele>
        <time>2003-12-08T08:57:49Z</time>
      </trkpt>
      <trkpt lat="44.319298267364502" lon="11.414279937744141">
        <ele>432</ele>
        <time>2003-12-08T08:58:06Z</time>
      </trkpt>
      <trkpt lat="44.319641590118408" lon="11.414945125579834">
        <ele>435</ele>
        <time>2003-12-08T08:58:27Z</time>
      </trkpt>
      <trkpt lat="44.319727420806885" lon="11.415674686431885">
        <ele>438</ele>
        <time>2003-12-08T08:58:46Z</time>
      </trkpt>
      <trkpt lat="44.320027828216553" lon="11.415932178497314">
        <ele>441</ele>
        <time>2003-12-08T08:59:00Z</time>
      </trkpt>
      <trkpt lat="44.320414066314697" lon="11.416018009185791">
        <ele>444</ele>
        <time>2003-12-08T08:59:15Z</time>
      </trkpt>
      <trkpt lat="44.320929134264588" lon="11.416211128234863">
        <ele>445</ele>
        <time>2003-12-08T08:59:35Z</time>
      </trkpt>
      <trkpt lat="44.321444034576416" lon="11.416425704956055">
        <ele>447</ele>
        <time>2003-12-08T08:59:55Z</time>
      </trkpt>
      <trkpt lat="44.32159423828125" lon="11.417005062103271">
        <ele>449</ele>
        <time>2003-12-08T09:00:09Z</time>
      </trkpt>
      <trkpt lat="44.321486866101623" lon="11.417906284332275">
        <ele>452</ele>
        <time>2003-12-08T09:00:28Z</time>
      </trkpt>
      <trkpt lat="44.321379661560059" lon="11.418614387512207">
        <ele>455</ele>
        <time>2003-12-08T09:00:43Z</time>
      </trkpt>
      <trkpt lat="44.321379661560059" lon="11.418657302856445">
        <ele>456</ele>
        <time>2003-12-08T09:00:44Z</time>
      </trkpt>
      <trkpt lat="44.321336662396789" lon="11.418871879577637">
        <ele>457</ele>
        <time>2003-12-08T09:00:49Z</time>
      </trkpt>
      <trkpt lat="44.321186458691955" lon="11.419601440429688">
        <ele>460</ele>
        <time>2003-12-08T09:01:08Z</time>
      </trkpt>
      <trkpt lat="44.321165084838867" lon="11.42003059387207">
        <ele>463</ele>
        <time>2003-12-08T09:01:22Z</time>
      </trkpt>
      <trkpt lat="44.321186458691955" lon="11.420309459790587">
        <ele>465</ele>
        <time>2003-12-08T09:01:30Z</time>
      </trkpt>
      <trkpt lat="44.321272373199463" lon="11.420567035675049">
        <ele>468</ele>
        <time>2003-12-08T09:01:40Z</time>
      </trkpt>
      <trkpt lat="44.321272373199463" lon="11.420610034838319">
        <ele>468</ele>
        <time>2003-12-08T09:01:41Z</time>
      </trkpt>
      <trkpt lat="44.321422576904297" lon="11.420824527740479">
        <ele>471</ele>
        <time>2003-12-08T09:01:53Z</time>
      </trkpt>
      <trkpt lat="44.321422576904297" lon="11.4212965965271">
        <ele>475</ele>
        <time>2003-12-08T09:02:12Z</time>
      </trkpt>
      <trkpt lat="44.321336662396789" lon="11.421661376953125">
        <ele>478</ele>
        <time>2003-12-08T09:02:28Z</time>
      </trkpt>
      <trkpt lat="44.321465492248535" lon="11.422026241198182">
        <ele>480</ele>
        <time>2003-12-08T09:02:45Z</time>
      </trkpt>
      <trkpt lat="44.321744358167052" lon="11.422326564788818">
        <ele>483</ele>
        <time>2003-12-08T09:03:05Z</time>
      </trkpt>
      <trkpt lat="44.322109222412109" lon="11.422326564788818">
        <ele>486</ele>
        <time>2003-12-08T09:03:24Z</time>
      </trkpt>
      <trkpt lat="44.322366714477539" lon="11.422262191772461">
        <ele>489</ele>
        <time>2003-12-08T09:03:38Z</time>
      </trkpt>
      <trkpt lat="44.322624206542969" lon="11.422197818756104">
        <ele>493</ele>
        <time>2003-12-08T09:03:53Z</time>
      </trkpt>
      <trkpt lat="44.322967529296875" lon="11.422240734100342">
        <ele>496</ele>
        <time>2003-12-08T09:04:12Z</time>
      </trkpt>
      <trkpt lat="44.322988986968994" lon="11.422262191772461">
        <ele>497</ele>
        <time>2003-12-08T09:04:14Z</time>
      </trkpt>
      <trkpt lat="44.323031902313232" lon="11.422519683837891">
        <ele>499</ele>
        <time>2003-12-08T09:04:25Z</time>
      </trkpt>
      <trkpt lat="44.322924613952637" lon="11.422991836443543">
        <ele>501</ele>
        <time>2003-12-08T09:04:43Z</time>
      </trkpt>
      <trkpt lat="44.322774410247803" lon="11.423614025115967">
        <ele>504</ele>
        <time>2003-12-08T09:05:06Z</time>
      </trkpt>
      <trkpt lat="44.32258129119873" lon="11.423807060346007">
        <ele>508</ele>
        <time>2003-12-08T09:05:18Z</time>
      </trkpt>
      <trkpt lat="44.322559833526611" lon="11.423828601837158">
        <ele>508</ele>
        <time>2003-12-08T09:05:19Z</time>
      </trkpt>
      <trkpt lat="44.322388172149658" lon="11.424000263214111">
        <ele>511</ele>
        <time>2003-12-08T09:05:30Z</time>
      </trkpt>
      <trkpt lat="44.322323799133301" lon="11.424107635393739">
        <ele>512</ele>
        <time>2003-12-08T09:05:35Z</time>
      </trkpt>
      <trkpt lat="44.322345340624452" lon="11.424257839098573">
        <ele>515</ele>
        <time>2003-12-08T09:05:42Z</time>
      </trkpt>
      <trkpt lat="44.322409629821777" lon="11.424515163525939">
        <ele>518</ele>
        <time>2003-12-08T09:05:54Z</time>
      </trkpt>
      <trkpt lat="44.322474002838135" lon="11.424729824066162">
        <ele>522</ele>
        <time>2003-12-08T09:06:05Z</time>
      </trkpt>
      <trkpt lat="44.322688579559326" lon="11.424901485443115">
        <ele>525</ele>
        <time>2003-12-08T09:06:18Z</time>
      </trkpt>
      <trkpt lat="44.322924613952637" lon="11.425116062164307">
        <ele>525</ele>
        <time>2003-12-08T09:06:31Z</time>
      </trkpt>
      <trkpt lat="44.323182106018066" lon="11.425738334655762">
        <ele>526</ele>
        <time>2003-12-08T09:06:49Z</time>
      </trkpt>
      <trkpt lat="44.323160564526916" lon="11.426339065656066">
        <ele>527</ele>
        <time>2003-12-08T09:07:04Z</time>
      </trkpt>
      <trkpt lat="44.32309627532959" lon="11.426596641540527">
        <ele>527</ele>
        <time>2003-12-08T09:07:11Z</time>
      </trkpt>
      <trkpt lat="44.322731494903564" lon="11.426918506622314">
        <ele>523</ele>
        <time>2003-12-08T09:07:19Z</time>
      </trkpt>
      <trkpt lat="44.322538375854492" lon="11.427133083343506">
        <ele>519</ele>
        <time>2003-12-08T09:07:23Z</time>
      </trkpt>
      <trkpt lat="44.322302341461182" lon="11.427476406097412">
        <ele>517</ele>
        <time>2003-12-08T09:07:27Z</time>
      </trkpt>
      <trkpt lat="44.32208776473999" lon="11.427819728851318">
        <ele>513</ele>
        <time>2003-12-08T09:07:30Z</time>
      </trkpt>
      <trkpt lat="44.322023391723633" lon="11.427927017211914">
        <ele>513</ele>
        <time>2003-12-08T09:07:31Z</time>
      </trkpt>
      <trkpt lat="44.321722984313965" lon="11.428592205047607">
        <ele>513</ele>
        <time>2003-12-08T09:07:38Z</time>
      </trkpt>
      <trkpt lat="44.321658611297607" lon="11.428806781768799">
        <ele>516</ele>
        <time>2003-12-08T09:07:45Z</time>
      </trkpt>
      <trkpt lat="44.32159423828125" lon="11.429107189178467">
        <ele>520</ele>
        <time>2003-12-08T09:07:57Z</time>
      </trkpt>
      <trkpt lat="44.32159423828125" lon="11.429150104522705">
        <ele>520</ele>
        <time>2003-12-08T09:07:58Z</time>
      </trkpt>
      <trkpt lat="44.321572780609131" lon="11.429257392883301">
        <ele>523</ele>
        <time>2003-12-08T09:08:03Z</time>
      </trkpt>
      <trkpt lat="44.321529865264893" lon="11.429386138916016">
        <ele>525</ele>
        <time>2003-12-08T09:08:08Z</time>
      </trkpt>
      <trkpt lat="44.321529865264893" lon="11.429708003997803">
        <ele>528</ele>
        <time>2003-12-08T09:08:23Z</time>
      </trkpt>
      <trkpt lat="44.32159423828125" lon="11.430008411407471">
        <ele>531</ele>
        <time>2003-12-08T09:08:36Z</time>
      </trkpt>
      <trkpt lat="44.321744358167052" lon="11.430416107177734">
        <ele>535</ele>
        <time>2003-12-08T09:08:57Z</time>
      </trkpt>
      <trkpt lat="44.321658611297607" lon="11.430823802947998">
        <ele>537</ele>
        <time>2003-12-08T09:09:11Z</time>
      </trkpt>
      <trkpt lat="44.321444034576416" lon="11.430952465161681">
        <ele>540</ele>
        <time>2003-12-08T09:09:27Z</time>
      </trkpt>
      <trkpt lat="44.321250915527344" lon="11.430931091308594">
        <ele>543</ele>
        <time>2003-12-08T09:09:38Z</time>
      </trkpt>
      <trkpt lat="44.320821762084961" lon="11.431188583374023">
        <ele>545</ele>
        <time>2003-12-08T09:09:59Z</time>
      </trkpt>
      <trkpt lat="44.320456981658936" lon="11.431317329406738">
        <ele>546</ele>
        <time>2003-12-08T09:10:13Z</time>
      </trkpt>
      <trkpt lat="44.320135116577148" lon="11.431553363800049">
        <ele>549</ele>
        <time>2003-12-08T09:10:27Z</time>
      </trkpt>
      <trkpt lat="44.32009220123291" lon="11.431596279144287">
        <ele>550</ele>
        <time>2003-12-08T09:10:29Z</time>
      </trkpt>
      <trkpt lat="44.319748878479004" lon="11.431660735979676">
        <ele>552</ele>
        <time>2003-12-08T09:10:44Z</time>
      </trkpt>
      <trkpt lat="44.319233894348145" lon="11.431360160931945">
        <ele>554</ele>
        <time>2003-12-08T09:11:03Z</time>
      </trkpt>
      <trkpt lat="44.318740367889404" lon="11.431059837341309">
        <ele>554</ele>
        <time>2003-12-08T09:11:18Z</time>
      </trkpt>
      <trkpt lat="44.318697536364198" lon="11.430974006652832">
        <ele>554</ele>
        <time>2003-12-08T09:11:20Z</time>
      </trkpt>
      <trkpt lat="44.31859016418457" lon="11.430416107177734">
        <ele>550</ele>
        <time>2003-12-08T09:11:26Z</time>
      </trkpt>
      <trkpt lat="44.31859016418457" lon="11.429815292358398">
        <ele>546</ele>
        <time>2003-12-08T09:11:30Z</time>
      </trkpt>
      <trkpt lat="44.31859016418457" lon="11.429536258801818">
        <ele>544</ele>
        <time>2003-12-08T09:11:32Z</time>
      </trkpt>
      <trkpt lat="44.318418502807617" lon="11.429064273834229">
        <ele>543</ele>
        <time>2003-12-08T09:11:37Z</time>
      </trkpt>
      <trkpt lat="44.31809663772583" lon="11.428656578063965">
        <ele>543</ele>
        <time>2003-12-08T09:11:44Z</time>
      </trkpt>
      <trkpt lat="44.317731941118836" lon="11.42831333912909">
        <ele>540</ele>
        <time>2003-12-08T09:11:53Z</time>
      </trkpt>
      <trkpt lat="44.317495822906494" lon="11.428163135424256">
        <ele>538</ele>
        <time>2003-12-08T09:11:57Z</time>
      </trkpt>
      <trkpt lat="44.31710958480835" lon="11.427884101867676">
        <ele>536</ele>
        <time>2003-12-08T09:12:02Z</time>
      </trkpt>
      <trkpt lat="44.316937923431396" lon="11.427626609802246">
        <ele>537</ele>
        <time>2003-12-08T09:12:10Z</time>
      </trkpt>
      <trkpt lat="44.316787719726563" lon="11.427454864606261">
        <ele>538</ele>
        <time>2003-12-08T09:12:24Z</time>
      </trkpt>
      <trkpt lat="44.316787719726563" lon="11.427454864606261">
        <ele>539</ele>
        <time>2003-12-08T09:13:14Z</time>
      </trkpt>
      <trkpt lat="44.316787719726563" lon="11.427454864606261">
        <ele>539</ele>
        <time>2003-12-08T09:13:16Z</time>
      </trkpt>
      <trkpt lat="44.316422939300537" lon="11.427090167999268">
        <ele>539</ele>
        <time>2003-12-08T09:13:31Z</time>
      </trkpt>
      <trkpt lat="44.316186904907227" lon="11.426854133605957">
        <ele>538</ele>
        <time>2003-12-08T09:13:37Z</time>
      </trkpt>
      <trkpt lat="44.315650463104248" lon="11.426446437835693">
        <ele>541</ele>
        <time>2003-12-08T09:13:53Z</time>
      </trkpt>
      <trkpt lat="44.315521717071533" lon="11.426360607147217">
        <ele>541</ele>
        <time>2003-12-08T09:13:57Z</time>
      </trkpt>
      <trkpt lat="44.315199935808778" lon="11.426231861114502">
        <ele>538</ele>
        <time>2003-12-08T09:14:02Z</time>
      </trkpt>
      <trkpt lat="44.314877986907959" lon="11.426210403442383">
        <ele>536</ele>
        <time>2003-12-08T09:14:06Z</time>
      </trkpt>
      <trkpt lat="44.31459903717041" lon="11.426317691802979">
        <ele>532</ele>
        <time>2003-12-08T09:14:09Z</time>
      </trkpt>
      <trkpt lat="44.314470291137695" lon="11.426446437835693">
        <ele>527</ele>
        <time>2003-12-08T09:14:11Z</time>
      </trkpt>
      <trkpt lat="44.314405918121338" lon="11.426510810852051">
        <ele>525</ele>
        <time>2003-12-08T09:14:12Z</time>
      </trkpt>
      <trkpt lat="44.314041137695313" lon="11.426596641540527">
        <ele>519</ele>
        <time>2003-12-08T09:14:15Z</time>
      </trkpt>
      <trkpt lat="44.313912391662598" lon="11.426703929901123">
        <ele>517</ele>
        <time>2003-12-08T09:14:17Z</time>
      </trkpt>
      <trkpt lat="44.313268661499023" lon="11.426961421966553">
        <ele>513</ele>
        <time>2003-12-08T09:14:23Z</time>
      </trkpt>
      <trkpt lat="44.31286096572876" lon="11.42702579498291">
        <ele>511</ele>
        <time>2003-12-08T09:14:27Z</time>
      </trkpt>
      <trkpt lat="44.312689304351807" lon="11.427154541015625">
        <ele>510</ele>
        <time>2003-12-08T09:14:29Z</time>
      </trkpt>
      <trkpt lat="44.3123459815979" lon="11.427583694458008">
        <ele>506</ele>
        <time>2003-12-08T09:14:35Z</time>
      </trkpt>
      <trkpt lat="44.312238693237305" lon="11.427626609802246">
        <ele>506</ele>
        <time>2003-12-08T09:14:36Z</time>
      </trkpt>
      <trkpt lat="44.311637878417969" lon="11.427497863769531">
        <ele>501</ele>
        <time>2003-12-08T09:14:42Z</time>
      </trkpt>
      <trkpt lat="44.311251640319824" lon="11.427261829376221">
        <ele>499</ele>
        <time>2003-12-08T09:14:46Z</time>
      </trkpt>
      <trkpt lat="44.311037063598633" lon="11.426832675933838">
        <ele>498</ele>
        <time>2003-12-08T09:14:50Z</time>
      </trkpt>
      <trkpt lat="44.311037063598633" lon="11.426382064819336">
        <ele>499</ele>
        <time>2003-12-08T09:14:59Z</time>
      </trkpt>
      <trkpt lat="44.311037063598633" lon="11.426167488098145">
        <ele>501</ele>
        <time>2003-12-08T09:15:06Z</time>
      </trkpt>
      <trkpt lat="44.311015605926514" lon="11.4260817412287">
        <ele>502</ele>
        <time>2003-12-08T09:15:09Z</time>
      </trkpt>
      <trkpt lat="44.310929775238037" lon="11.425845623016357">
        <ele>506</ele>
        <time>2003-12-08T09:15:18Z</time>
      </trkpt>
      <trkpt lat="44.310779571533203" lon="11.425588130950928">
        <ele>509</ele>
        <time>2003-12-08T09:15:29Z</time>
      </trkpt>
      <trkpt lat="44.310457706451416" lon="11.425137519836426">
        <ele>513</ele>
        <time>2003-12-08T09:15:49Z</time>
      </trkpt>
      <trkpt lat="44.310135841369629" lon="11.424708366394043">
        <ele>516</ele>
        <time>2003-12-08T09:16:06Z</time>
      </trkpt>
      <trkpt lat="44.309899806976318" lon="11.424493789672852">
        <ele>520</ele>
        <time>2003-12-08T09:16:20Z</time>
      </trkpt>
      <trkpt lat="44.309728061780334" lon="11.424386501312256">
        <ele>523</ele>
        <time>2003-12-08T09:16:31Z</time>
      </trkpt>
      <trkpt lat="44.309620941057801" lon="11.424407958984375">
        <ele>522</ele>
        <time>2003-12-08T09:16:35Z</time>
      </trkpt>
      <trkpt lat="44.309492111206055" lon="11.424643993377686">
        <ele>519</ele>
        <time>2003-12-08T09:16:39Z</time>
      </trkpt>
      <trkpt lat="44.30932036601007" lon="11.424965858459473">
        <ele>515</ele>
        <time>2003-12-08T09:16:42Z</time>
      </trkpt>
      <trkpt lat="44.309277534484863" lon="11.425073063001037">
        <ele>515</ele>
        <time>2003-12-08T09:16:43Z</time>
      </trkpt>
      <trkpt lat="44.309063041582704" lon="11.425437927246094">
        <ele>513</ele>
        <time>2003-12-08T09:16:46Z</time>
      </trkpt>
      <trkpt lat="44.3088698387146" lon="11.425781333819032">
        <ele>510</ele>
        <time>2003-12-08T09:16:49Z</time>
      </trkpt>
      <trkpt lat="44.308719635009766" lon="11.426017284393311">
        <ele>508</ele>
        <time>2003-12-08T09:16:51Z</time>
      </trkpt>
      <trkpt lat="44.308397769927979" lon="11.426382064819336">
        <ele>506</ele>
        <time>2003-12-08T09:16:55Z</time>
      </trkpt>
      <trkpt lat="44.308247566223145" lon="11.426510810852051">
        <ele>504</ele>
        <time>2003-12-08T09:16:57Z</time>
      </trkpt>
      <trkpt lat="44.307818412780762" lon="11.426832675933838">
        <ele>502</ele>
        <time>2003-12-08T09:17:03Z</time>
      </trkpt>
      <trkpt lat="44.307754039764404" lon="11.426875591278076">
        <ele>502</ele>
        <time>2003-12-08T09:17:04Z</time>
      </trkpt>
      <trkpt lat="44.307174682617188" lon="11.427068710327148">
        <ele>504</ele>
        <time>2003-12-08T09:17:16Z</time>
      </trkpt>
      <trkpt lat="44.306917190551758" lon="11.427090167999268">
        <ele>507</ele>
        <time>2003-12-08T09:17:24Z</time>
      </trkpt>
      <trkpt lat="44.306294918060303" lon="11.427111625671387">
        <ele>508</ele>
        <time>2003-12-08T09:17:42Z</time>
      </trkpt>
      <trkpt lat="44.306252002716064" lon="11.427111625671387">
        <ele>508</ele>
        <time>2003-12-08T09:17:43Z</time>
      </trkpt>
      <trkpt lat="44.306080341339111" lon="11.42702579498291">
        <ele>509</ele>
        <time>2003-12-08T09:17:47Z</time>
      </trkpt>
      <trkpt lat="44.305908679962158" lon="11.426896965131164">
        <ele>512</ele>
        <time>2003-12-08T09:17:52Z</time>
      </trkpt>
      <trkpt lat="44.305436611175537" lon="11.426639640703797">
        <ele>513</ele>
        <time>2003-12-08T09:18:09Z</time>
      </trkpt>
      <trkpt lat="44.305329322814941" lon="11.426618099212646">
        <ele>513</ele>
        <time>2003-12-08T09:18:12Z</time>
      </trkpt>
      <trkpt lat="44.305093288421631" lon="11.426575183868408">
        <ele>513</ele>
        <time>2003-12-08T09:18:17Z</time>
      </trkpt>
      <trkpt lat="44.304921627044678" lon="11.42653226852417">
        <ele>513</ele>
        <time>2003-12-08T09:18:21Z</time>
      </trkpt>
      <trkpt lat="44.304814338684082" lon="11.426446437835693">
        <ele>513</ele>
        <time>2003-12-08T09:18:24Z</time>
      </trkpt>
      <trkpt lat="44.304535388946533" lon="11.426146030426025">
        <ele>516</ele>
        <time>2003-12-08T09:18:35Z</time>
      </trkpt>
      <trkpt lat="44.304428100585937" lon="11.426038658246398">
        <ele>519</ele>
        <time>2003-12-08T09:18:42Z</time>
      </trkpt>
      <trkpt lat="44.303741538897157" lon="11.425974369049072">
        <ele>518</ele>
        <time>2003-12-08T09:18:59Z</time>
      </trkpt>
      <trkpt lat="44.303440963849425" lon="11.426017284393311">
        <ele>513</ele>
        <time>2003-12-08T09:19:03Z</time>
      </trkpt>
      <trkpt lat="44.30335521697998" lon="11.426038658246398">
        <ele>512</ele>
        <time>2003-12-08T09:19:04Z</time>
      </trkpt>
      <trkpt lat="44.303097724914551" lon="11.425845623016357">
        <ele>507</ele>
        <time>2003-12-08T09:19:08Z</time>
      </trkpt>
      <trkpt lat="44.302883064374328" lon="11.425652503967285">
        <ele>500</ele>
        <time>2003-12-08T09:19:12Z</time>
      </trkpt>
      <trkpt lat="44.302690029144287" lon="11.425502300262451">
        <ele>497</ele>
        <time>2003-12-08T09:19:15Z</time>
      </trkpt>
      <trkpt lat="44.302625739946961" lon="11.425437927246094">
        <ele>495</ele>
        <time>2003-12-08T09:19:16Z</time>
      </trkpt>
      <trkpt lat="44.30232516489923" lon="11.42528772354126">
        <ele>491</ele>
        <time>2003-12-08T09:19:19Z</time>
      </trkpt>
      <trkpt lat="44.301960468292236" lon="11.425180435180664">
        <ele>486</ele>
        <time>2003-12-08T09:19:22Z</time>
      </trkpt>
      <trkpt lat="44.301617061719298" lon="11.425094604492188">
        <ele>483</ele>
        <time>2003-12-08T09:19:25Z</time>
      </trkpt>
      <trkpt lat="44.301252365112305" lon="11.425180435180664">
        <ele>478</ele>
        <time>2003-12-08T09:19:29Z</time>
      </trkpt>
      <trkpt lat="44.301059162244201" lon="11.425223434343934">
        <ele>475</ele>
        <time>2003-12-08T09:19:32Z</time>
      </trkpt>
      <trkpt lat="44.300780296325684" lon="11.425158977508545">
        <ele>471</ele>
        <time>2003-12-08T09:19:35Z</time>
      </trkpt>
      <trkpt lat="44.300544261932373" lon="11.425094604492188">
        <ele>467</ele>
        <time>2003-12-08T09:19:37Z</time>
      </trkpt>
      <trkpt lat="44.300050735473633" lon="11.424944400787354">
        <ele>463</ele>
        <time>2003-12-08T09:19:41Z</time>
      </trkpt>
      <trkpt lat="44.299407005310059" lon="11.424751281738281">
        <ele>463</ele>
        <time>2003-12-08T09:19:48Z</time>
      </trkpt>
      <trkpt lat="44.298956394195557" lon="11.42479419708252">
        <ele>465</ele>
        <time>2003-12-08T09:19:59Z</time>
      </trkpt>
      <trkpt lat="44.298462867736816" lon="11.424665534868836">
        <ele>466</ele>
        <time>2003-12-08T09:20:18Z</time>
      </trkpt>
      <trkpt lat="44.297947883605957" lon="11.424751281738281">
        <ele>468</ele>
        <time>2003-12-08T09:20:36Z</time>
      </trkpt>
      <trkpt lat="44.297475814819336" lon="11.424987316131592">
        <ele>471</ele>
        <time>2003-12-08T09:20:53Z</time>
      </trkpt>
      <trkpt lat="44.297454440966249" lon="11.424987316131592">
        <ele>471</ele>
        <time>2003-12-08T09:20:54Z</time>
      </trkpt>
      <trkpt lat="44.297239780426025" lon="11.424922859296203">
        <ele>474</ele>
        <time>2003-12-08T09:21:02Z</time>
      </trkpt>
      <trkpt lat="44.297218322753906" lon="11.424944400787354">
        <ele>475</ele>
        <time>2003-12-08T09:21:04Z</time>
      </trkpt>
      <trkpt lat="44.297153865918517" lon="11.425073063001037">
        <ele>478</ele>
        <time>2003-12-08T09:21:13Z</time>
      </trkpt>
      <trkpt lat="44.297046661376953" lon="11.425459384918213">
        <ele>481</ele>
        <time>2003-12-08T09:21:29Z</time>
      </trkpt>
      <trkpt lat="44.296810626983643" lon="11.425738334655762">
        <ele>485</ele>
        <time>2003-12-08T09:21:47Z</time>
      </trkpt>
      <trkpt lat="44.29638147354126" lon="11.425888538360596">
        <ele>487</ele>
        <time>2003-12-08T09:22:08Z</time>
      </trkpt>
      <trkpt lat="44.296252727508545" lon="11.425909996032715">
        <ele>488</ele>
        <time>2003-12-08T09:22:13Z</time>
      </trkpt>
      <trkpt lat="44.295995235443115" lon="11.425952911376953">
        <ele>489</ele>
        <time>2003-12-08T09:22:29Z</time>
      </trkpt>
      <trkpt lat="44.295995235443115" lon="11.425952911376953">
        <ele>489</ele>
        <time>2003-12-08T09:22:43Z</time>
      </trkpt>
      <trkpt lat="44.295887863263488" lon="11.425974369049072">
        <ele>490</ele>
        <time>2003-12-08T09:24:19Z</time>
      </trkpt>
      <trkpt lat="44.295566082000732" lon="11.4260817412287">
        <ele>489</ele>
        <time>2003-12-08T09:24:32Z</time>
      </trkpt>
      <trkpt lat="44.294965267181396" lon="11.426146030426025">
        <ele>488</ele>
        <time>2003-12-08T09:24:48Z</time>
      </trkpt>
      <trkpt lat="44.294579029083252" lon="11.426253318786621">
        <ele>492</ele>
        <time>2003-12-08T09:25:03Z</time>
      </trkpt>
      <trkpt lat="44.294557571411133" lon="11.426253318786621">
        <ele>492</ele>
        <time>2003-12-08T09:25:05Z</time>
      </trkpt>
      <trkpt lat="44.294407367706299" lon="11.426682472229004">
        <ele>495</ele>
        <time>2003-12-08T09:25:21Z</time>
      </trkpt>
      <trkpt lat="44.294300079345703" lon="11.426961421966553">
        <ele>498</ele>
        <time>2003-12-08T09:25:32Z</time>
      </trkpt>
      <trkpt lat="44.294063961133361" lon="11.427476406097412">
        <ele>500</ele>
        <time>2003-12-08T09:25:53Z</time>
      </trkpt>
      <trkpt lat="44.293720722198486" lon="11.427755439653993">
        <ele>500</ele>
        <time>2003-12-08T09:26:04Z</time>
      </trkpt>
      <trkpt lat="44.293398940935731" lon="11.427969932556152">
        <ele>499</ele>
        <time>2003-12-08T09:26:11Z</time>
      </trkpt>
      <trkpt lat="44.293313026428223" lon="11.42803430557251">
        <ele>499</ele>
        <time>2003-12-08T09:26:13Z</time>
      </trkpt>
      <trkpt lat="44.293034076690674" lon="11.428141593933105">
        <ele>498</ele>
        <time>2003-12-08T09:26:19Z</time>
      </trkpt>
      <trkpt lat="44.292819499969482" lon="11.428120136260986">
        <ele>497</ele>
        <time>2003-12-08T09:26:23Z</time>
      </trkpt>
      <trkpt lat="44.292411804199219" lon="11.427991390228271">
        <ele>494</ele>
        <time>2003-12-08T09:26:29Z</time>
      </trkpt>
      <trkpt lat="44.292132938280702" lon="11.427690982818604">
        <ele>492</ele>
        <time>2003-12-08T09:26:34Z</time>
      </trkpt>
      <trkpt lat="44.291853904724121" lon="11.427347660064697">
        <ele>492</ele>
        <time>2003-12-08T09:26:40Z</time>
      </trkpt>
      <trkpt lat="44.291617870330811" lon="11.427261829376221">
        <ele>491</ele>
        <time>2003-12-08T09:26:45Z</time>
      </trkpt>
      <trkpt lat="44.291317462921143" lon="11.427326202392578">
        <ele>490</ele>
        <time>2003-12-08T09:26:59Z</time>
      </trkpt>
      <trkpt lat="44.291274463757873" lon="11.427347660064697">
        <ele>490</ele>
        <time>2003-12-08T09:27:27Z</time>
      </trkpt>
      <trkpt lat="44.290995597839355" lon="11.427712440490723">
        <ele>490</ele>
        <time>2003-12-08T09:27:40Z</time>
      </trkpt>
      <trkpt lat="44.290909767150879" lon="11.427733898162842">
        <ele>490</ele>
        <time>2003-12-08T09:27:42Z</time>
      </trkpt>
      <trkpt lat="44.290437698364258" lon="11.42754077911377">
        <ele>489</ele>
        <time>2003-12-08T09:27:54Z</time>
      </trkpt>
      <trkpt lat="44.290287494659424" lon="11.427648067474365">
        <ele>489</ele>
        <time>2003-12-08T09:27:59Z</time>
      </trkpt>
      <trkpt lat="44.289987087249756" lon="11.427948474884033">
        <ele>491</ele>
        <time>2003-12-08T09:28:08Z</time>
      </trkpt>
      <trkpt lat="44.289858341217041" lon="11.427991390228271">
        <ele>494</ele>
        <time>2003-12-08T09:28:11Z</time>
      </trkpt>
      <trkpt lat="44.289708137512207" lon="11.428055763244629">
        <ele>497</ele>
        <time>2003-12-08T09:28:16Z</time>
      </trkpt>
      <trkpt lat="44.289407730102539" lon="11.428141593933105">
        <ele>500</ele>
        <time>2003-12-08T09:28:29Z</time>
      </trkpt>
      <trkpt lat="44.289150238037109" lon="11.428012764081359">
        <ele>503</ele>
        <time>2003-12-08T09:28:40Z</time>
      </trkpt>
      <trkpt lat="44.28912878036499" lon="11.428012764081359">
        <ele>503</ele>
        <time>2003-12-08T09:28:41Z</time>
      </trkpt>
      <trkpt lat="44.288957118988037" lon="11.427927017211914">
        <ele>506</ele>
        <time>2003-12-08T09:28:49Z</time>
      </trkpt>
      <trkpt lat="44.288806915283203" lon="11.42777681350708">
        <ele>506</ele>
        <time>2003-12-08T09:28:59Z</time>
      </trkpt>
      <trkpt lat="44.288656711578369" lon="11.427240371704102">
        <ele>502</ele>
        <time>2003-12-08T09:29:06Z</time>
      </trkpt>
      <trkpt lat="44.288527965545654" lon="11.427090167999268">
        <ele>500</ele>
        <time>2003-12-08T09:29:08Z</time>
      </trkpt>
      <trkpt lat="44.28814172744751" lon="11.426703929901123">
        <ele>500</ele>
        <time>2003-12-08T09:29:14Z</time>
      </trkpt>
      <trkpt lat="44.287991523742676" lon="11.426661014556885">
        <ele>501</ele>
        <time>2003-12-08T09:29:19Z</time>
      </trkpt>
      <trkpt lat="44.287519538775086" lon="11.426682472229004">
        <ele>502</ele>
        <time>2003-12-08T09:29:35Z</time>
      </trkpt>
      <trkpt lat="44.287025928497314" lon="11.426725387573242">
        <ele>503</ele>
        <time>2003-12-08T09:29:49Z</time>
      </trkpt>
      <trkpt lat="44.287004470825195" lon="11.426703929901123">
        <ele>503</ele>
        <time>2003-12-08T09:29:50Z</time>
      </trkpt>
      <trkpt lat="44.28687572479248" lon="11.426575183868408">
        <ele>503</ele>
        <time>2003-12-08T09:29:54Z</time>
      </trkpt>
      <trkpt lat="44.286661064252257" lon="11.426317691802979">
        <ele>503</ele>
        <time>2003-12-08T09:30:00Z</time>
      </trkpt>
      <trkpt lat="44.286038875579834" lon="11.4260817412287">
        <ele>506</ele>
        <time>2003-12-08T09:30:17Z</time>
      </trkpt>
      <trkpt lat="44.285373687744141" lon="11.425845623016357">
        <ele>507</ele>
        <time>2003-12-08T09:30:38Z</time>
      </trkpt>
      <trkpt lat="44.285309314727783" lon="11.425824165344238">
        <ele>507</ele>
        <time>2003-12-08T09:30:40Z</time>
      </trkpt>
      <trkpt lat="44.285180568695068" lon="11.425974369049072">
        <ele>507</ele>
        <time>2003-12-08T09:30:44Z</time>
      </trkpt>
      <trkpt lat="44.284944534301758" lon="11.426210403442383">
        <ele>509</ele>
        <time>2003-12-08T09:30:52Z</time>
      </trkpt>
      <trkpt lat="44.28483716212213" lon="11.426210403442383">
        <ele>511</ele>
        <time>2003-12-08T09:30:56Z</time>
      </trkpt>
      <trkpt lat="44.284686958417296" lon="11.426167488098145">
        <ele>514</ele>
        <time>2003-12-08T09:31:03Z</time>
      </trkpt>
      <trkpt lat="44.28464412689209" lon="11.426124572753906">
        <ele>514</ele>
        <time>2003-12-08T09:31:07Z</time>
      </trkpt>
      <trkpt lat="44.284558296203613" lon="11.425931537523866">
        <ele>518</ele>
        <time>2003-12-08T09:31:18Z</time>
      </trkpt>
      <trkpt lat="44.284558296203613" lon="11.425909996032715">
        <ele>519</ele>
        <time>2003-12-08T09:31:20Z</time>
      </trkpt>
      <trkpt lat="44.284601211547852" lon="11.425824165344238">
        <ele>521</ele>
        <time>2003-12-08T09:31:26Z</time>
      </trkpt>
      <trkpt lat="44.284772872924805" lon="11.425416469573975">
        <ele>522</ele>
        <time>2003-12-08T09:31:41Z</time>
      </trkpt>
      <trkpt lat="44.285116195678711" lon="11.425008773803711">
        <ele>525</ele>
        <time>2003-12-08T09:31:59Z</time>
      </trkpt>
      <trkpt lat="44.285480976104736" lon="11.424880027770996">
        <ele>529</ele>
        <time>2003-12-08T09:32:16Z</time>
      </trkpt>
      <trkpt lat="44.285888671875" lon="11.424837112426758">
        <ele>532</ele>
        <time>2003-12-08T09:32:33Z</time>
      </trkpt>
      <trkpt lat="44.286210536956787" lon="11.424472332000732">
        <ele>536</ele>
        <time>2003-12-08T09:32:51Z</time>
      </trkpt>
      <trkpt lat="44.286253536120057" lon="11.424322128295898">
        <ele>537</ele>
        <time>2003-12-08T09:32:56Z</time>
      </trkpt>
      <trkpt lat="44.286167621612549" lon="11.424300670623779">
        <ele>537</ele>
        <time>2003-12-08T09:33:02Z</time>
      </trkpt>
      <trkpt lat="44.285802841186523" lon="11.424407958984375">
        <ele>538</ele>
        <time>2003-12-08T09:33:18Z</time>
      </trkpt>
      <trkpt lat="44.285416603088379" lon="11.424450874328613">
        <ele>536</ele>
        <time>2003-12-08T09:33:32Z</time>
      </trkpt>
      <trkpt lat="44.2848801612854" lon="11.424472332000732">
        <ele>539</ele>
        <time>2003-12-08T09:34:50Z</time>
      </trkpt>
      <trkpt lat="44.2848801612854" lon="11.424322128295898">
        <ele>535</ele>
        <time>2003-12-08T09:34:56Z</time>
      </trkpt>
      <trkpt lat="44.284708499908447" lon="11.424193382263184">
        <ele>534</ele>
        <time>2003-12-08T09:34:59Z</time>
      </trkpt>
      <trkpt lat="44.284129058942199" lon="11.423892974853516">
        <ele>529</ele>
        <time>2003-12-08T09:35:07Z</time>
      </trkpt>
      <trkpt lat="44.283936023712158" lon="11.423892974853516">
        <ele>527</ele>
        <time>2003-12-08T09:35:11Z</time>
      </trkpt>
      <trkpt lat="44.28389310836792" lon="11.423871517181396">
        <ele>527</ele>
        <time>2003-12-08T09:35:12Z</time>
      </trkpt>
      <trkpt lat="44.283699989318848" lon="11.423742771148682">
        <ele>525</ele>
        <time>2003-12-08T09:35:17Z</time>
      </trkpt>
      <trkpt lat="44.283442497253418" lon="11.423571109771729">
        <ele>525</ele>
        <time>2003-12-08T09:35:33Z</time>
      </trkpt>
      <trkpt lat="44.283185005187988" lon="11.423377990722656">
        <ele>522</ele>
        <time>2003-12-08T09:35:45Z</time>
      </trkpt>
      <trkpt lat="44.282798767089844" lon="11.422884464263916">
        <ele>520</ele>
        <time>2003-12-08T09:36:10Z</time>
      </trkpt>
      <trkpt lat="44.282755935564637" lon="11.422734260559082">
        <ele>520</ele>
        <time>2003-12-08T09:36:30Z</time>
      </trkpt>
      <trkpt lat="44.282369613647461" lon="11.422133361920714">
        <ele>523</ele>
        <time>2003-12-08T09:36:40Z</time>
      </trkpt>
      <trkpt lat="44.282069206237793" lon="11.421704292297363">
        <ele>522</ele>
        <time>2003-12-08T09:36:59Z</time>
      </trkpt>
      <trkpt lat="44.281876087188721" lon="11.421575462445617">
        <ele>520</ele>
        <time>2003-12-08T09:37:09Z</time>
      </trkpt>
      <trkpt lat="44.281854629516602" lon="11.421575462445617">
        <ele>520</ele>
        <time>2003-12-08T09:37:10Z</time>
      </trkpt>
      <trkpt lat="44.281597137451172" lon="11.421489715576172">
        <ele>518</ele>
        <time>2003-12-08T09:37:23Z</time>
      </trkpt>
      <trkpt lat="44.281318187713623" lon="11.421446800231934">
        <ele>514</ele>
        <time>2003-12-08T09:37:31Z</time>
      </trkpt>
      <trkpt lat="44.281275272369385" lon="11.421446800231934">
        <ele>514</ele>
        <time>2003-12-08T09:37:32Z</time>
      </trkpt>
      <trkpt lat="44.280974864959717" lon="11.421339511871338">
        <ele>512</ele>
        <time>2003-12-08T09:37:41Z</time>
      </trkpt>
      <trkpt lat="44.280867576599121" lon="11.42127513885498">
        <ele>510</ele>
        <time>2003-12-08T09:37:44Z</time>
      </trkpt>
      <trkpt lat="44.280803203582764" lon="11.421253681182861">
        <ele>508</ele>
        <time>2003-12-08T09:37:46Z</time>
      </trkpt>
      <trkpt lat="44.280781662091613" lon="11.421232223510742">
        <ele>508</ele>
        <time>2003-12-08T09:37:47Z</time>
      </trkpt>
      <trkpt lat="44.280331134796143" lon="11.42131813801825">
        <ele>507</ele>
        <time>2003-12-08T09:38:00Z</time>
      </trkpt>
      <trkpt lat="44.280073558911681" lon="11.421210765838623">
        <ele>505</ele>
        <time>2003-12-08T09:38:10Z</time>
      </trkpt>
      <trkpt lat="44.279837608337402" lon="11.421103477478027">
        <ele>506</ele>
        <time>2003-12-08T09:38:22Z</time>
      </trkpt>
      <trkpt lat="44.279708862304688" lon="11.420953273773193">
        <ele>510</ele>
        <time>2003-12-08T09:38:37Z</time>
      </trkpt>
      <trkpt lat="44.27964448928833" lon="11.420888900756836">
        <ele>510</ele>
        <time>2003-12-08T09:38:55Z</time>
      </trkpt>
      <trkpt lat="44.279472827911377" lon="11.420910358428955">
        <ele>513</ele>
        <time>2003-12-08T09:39:08Z</time>
      </trkpt>
      <trkpt lat="44.2793869972229" lon="11.420953273773193">
        <ele>516</ele>
        <time>2003-12-08T09:39:22Z</time>
      </trkpt>
      <trkpt lat="44.279344081878662" lon="11.420953273773193">
        <ele>516</ele>
        <time>2003-12-08T09:39:29Z</time>
      </trkpt>
      <trkpt lat="44.279301166534424" lon="11.420974731445313">
        <ele>517</ele>
        <time>2003-12-08T09:39:35Z</time>
      </trkpt>
      <trkpt lat="44.279129505157471" lon="11.420953273773193">
        <ele>517</ele>
        <time>2003-12-08T09:39:51Z</time>
      </trkpt>
      <trkpt lat="44.27915096282959" lon="11.420717239379883">
        <ele>519</ele>
        <time>2003-12-08T09:40:11Z</time>
      </trkpt>
      <trkpt lat="44.27915096282959" lon="11.420717239379883">
        <ele>519</ele>
        <time>2003-12-08T09:40:12Z</time>
      </trkpt>
      <trkpt lat="44.279172420501709" lon="11.42054557800293">
        <ele>521</ele>
        <time>2003-12-08T09:40:28Z</time>
      </trkpt>
      <trkpt lat="44.279172420501709" lon="11.420481204986572">
        <ele>523</ele>
        <time>2003-12-08T09:40:34Z</time>
      </trkpt>
      <trkpt lat="44.27915096282959" lon="11.420309459790587">
        <ele>525</ele>
        <time>2003-12-08T09:40:48Z</time>
      </trkpt>
      <trkpt lat="44.279065132141113" lon="11.420159339904785">
        <ele>529</ele>
        <time>2003-12-08T09:41:06Z</time>
      </trkpt>
      <trkpt lat="44.278979301452637" lon="11.420137882232666">
        <ele>532</ele>
        <time>2003-12-08T09:41:21Z</time>
      </trkpt>
      <trkpt lat="44.27889347076416" lon="11.420180797576904">
        <ele>535</ele>
        <time>2003-12-08T09:41:36Z</time>
      </trkpt>
      <trkpt lat="44.278829097747803" lon="11.420223712921143">
        <ele>536</ele>
        <time>2003-12-08T09:41:44Z</time>
      </trkpt>
      <trkpt lat="44.278743267059326" lon="11.420245170593262">
        <ele>539</ele>
        <time>2003-12-08T09:41:55Z</time>
      </trkpt>
      <trkpt lat="44.27863597869873" lon="11.4202880859375">
        <ele>541</ele>
        <time>2003-12-08T09:42:11Z</time>
      </trkpt>
      <trkpt lat="44.278614521026611" lon="11.420266628265381">
        <ele>542</ele>
        <time>2003-12-08T09:42:16Z</time>
      </trkpt>
      <trkpt lat="44.278614521026611" lon="11.420245170593262">
        <ele>543</ele>
        <time>2003-12-08T09:42:18Z</time>
      </trkpt>
      <trkpt lat="44.278571605682373" lon="11.420223712921143">
        <ele>544</ele>
        <time>2003-12-08T09:42:23Z</time>
      </trkpt>
      <trkpt lat="44.278442859649658" lon="11.4202880859375">
        <ele>544</ele>
        <time>2003-12-08T09:42:37Z</time>
      </trkpt>
      <trkpt lat="44.278442859649658" lon="11.420309459790587">
        <ele>544</ele>
        <time>2003-12-08T09:42:38Z</time>
      </trkpt>
      <trkpt lat="44.278399860486388" lon="11.420309459790587">
        <ele>544</ele>
        <time>2003-12-08T09:42:50Z</time>
      </trkpt>
      <trkpt lat="44.278335571289063" lon="11.420245170593262">
        <ele>546</ele>
        <time>2003-12-08T09:42:59Z</time>
      </trkpt>
      <trkpt lat="44.278271198272705" lon="11.420202339068055">
        <ele>547</ele>
        <time>2003-12-08T09:43:13Z</time>
      </trkpt>
      <trkpt lat="44.278228282928467" lon="11.420202339068055">
        <ele>548</ele>
        <time>2003-12-08T09:43:18Z</time>
      </trkpt>
      <trkpt lat="44.278099536895752" lon="11.420245170593262">
        <ele>550</ele>
        <time>2003-12-08T09:43:33Z</time>
      </trkpt>
      <trkpt lat="44.278099536895752" lon="11.420223712921143">
        <ele>550</ele>
        <time>2003-12-08T09:43:47Z</time>
      </trkpt>
      <trkpt lat="44.278099536895752" lon="11.420180797576904">
        <ele>551</ele>
        <time>2003-12-08T09:43:53Z</time>
      </trkpt>
      <trkpt lat="44.277992164716125" lon="11.420116424560547">
        <ele>554</ele>
        <time>2003-12-08T09:44:09Z</time>
      </trkpt>
      <trkpt lat="44.277992164716125" lon="11.420116424560547">
        <ele>554</ele>
        <time>2003-12-08T09:44:10Z</time>
      </trkpt>
      <trkpt lat="44.277970790863037" lon="11.419987678527832">
        <ele>558</ele>
        <time>2003-12-08T09:44:31Z</time>
      </trkpt>
      <trkpt lat="44.277970790863037" lon="11.419880390167236">
        <ele>561</ele>
        <time>2003-12-08T09:44:47Z</time>
      </trkpt>
      <trkpt lat="44.277927875518799" lon="11.419837474822998">
        <ele>562</ele>
        <time>2003-12-08T09:45:02Z</time>
      </trkpt>
      <trkpt lat="44.27790641784668" lon="11.419730186462402">
        <ele>565</ele>
        <time>2003-12-08T09:45:16Z</time>
      </trkpt>
      <trkpt lat="44.277863502502441" lon="11.419687271118164">
        <ele>565</ele>
        <time>2003-12-08T09:45:20Z</time>
      </trkpt>
      <trkpt lat="44.277841961011291" lon="11.419665813446045">
        <ele>567</ele>
        <time>2003-12-08T09:45:38Z</time>
      </trkpt>
      <trkpt lat="44.277777671813965" lon="11.419687271118164">
        <ele>567</ele>
        <time>2003-12-08T09:46:12Z</time>
      </trkpt>
      <trkpt lat="44.277713298797607" lon="11.419622898101807">
        <ele>571</ele>
        <time>2003-12-08T09:46:22Z</time>
      </trkpt>
      <trkpt lat="44.27764892578125" lon="11.419601440429688">
        <ele>571</ele>
        <time>2003-12-08T09:46:36Z</time>
      </trkpt>
      <trkpt lat="44.27764892578125" lon="11.419622898101807">
        <ele>571</ele>
        <time>2003-12-08T09:46:47Z</time>
      </trkpt>
      <trkpt lat="44.277477264404297" lon="11.419601440429688">
        <ele>572</ele>
        <time>2003-12-08T09:47:00Z</time>
      </trkpt>
      <trkpt lat="44.277241230010986" lon="11.419687271118164">
        <ele>576</ele>
        <time>2003-12-08T09:47:15Z</time>
      </trkpt>
      <trkpt lat="44.277048110961914" lon="11.419601440429688">
        <ele>579</ele>
        <time>2003-12-08T09:47:28Z</time>
      </trkpt>
      <trkpt lat="44.277026737108827" lon="11.419601440429688">
        <ele>580</ele>
        <time>2003-12-08T09:47:30Z</time>
      </trkpt>
      <trkpt lat="44.27689790725708" lon="11.419665813446045">
        <ele>583</ele>
        <time>2003-12-08T09:47:39Z</time>
      </trkpt>
      <trkpt lat="44.276597499847412" lon="11.419858932495117">
        <ele>585</ele>
        <time>2003-12-08T09:47:59Z</time>
      </trkpt>
      <trkpt lat="44.276275634765625" lon="11.420094966888428">
        <ele>584</ele>
        <time>2003-12-08T09:48:14Z</time>
      </trkpt>
      <trkpt lat="44.275910938158631" lon="11.420416831970215">
        <ele>584</ele>
        <time>2003-12-08T09:48:32Z</time>
      </trkpt>
      <trkpt lat="44.275717735290527" lon="11.420481204986572">
        <ele>587</ele>
        <time>2003-12-08T09:48:39Z</time>
      </trkpt>
      <trkpt lat="44.2756103631109" lon="11.42054557800293">
        <ele>588</ele>
        <time>2003-12-08T09:48:43Z</time>
      </trkpt>
      <trkpt lat="44.275331497192383" lon="11.420953273773193">
        <ele>591</ele>
        <time>2003-12-08T09:48:59Z</time>
      </trkpt>
      <trkpt lat="44.274923801422119" lon="11.4212965965271">
        <ele>594</ele>
        <time>2003-12-08T09:49:18Z</time>
      </trkpt>
      <trkpt lat="44.274666309356689" lon="11.421360969543457">
        <ele>594</ele>
        <time>2003-12-08T09:49:29Z</time>
      </trkpt>
      <trkpt lat="44.274344360455871" lon="11.42153263092041">
        <ele>595</ele>
        <time>2003-12-08T09:49:44Z</time>
      </trkpt>
      <trkpt lat="44.274215698242188" lon="11.422069072723389">
        <ele>595</ele>
        <time>2003-12-08T09:49:54Z</time>
      </trkpt>
      <trkpt lat="44.273786460980773" lon="11.422111988067627">
        <ele>594</ele>
        <time>2003-12-08T09:50:02Z</time>
      </trkpt>
      <trkpt lat="44.273486137390137" lon="11.422026241198182">
        <ele>593</ele>
        <time>2003-12-08T09:50:14Z</time>
      </trkpt>
      <trkpt lat="44.273464679718018" lon="11.422004699707031">
        <ele>593</ele>
        <time>2003-12-08T09:50:16Z</time>
      </trkpt>
      <trkpt lat="44.273056983947754" lon="11.42198315821588">
        <ele>594</ele>
        <time>2003-12-08T09:50:32Z</time>
      </trkpt>
      <trkpt lat="44.272499084472656" lon="11.422004699707031">
        <ele>595</ele>
        <time>2003-12-08T09:50:52Z</time>
      </trkpt>
      <trkpt lat="44.271984100341797" lon="11.422090530395508">
        <ele>597</ele>
        <time>2003-12-08T09:51:09Z</time>
      </trkpt>
      <trkpt lat="44.271254539489746" lon="11.422176361083984">
        <ele>598</ele>
        <time>2003-12-08T09:51:29Z</time>
      </trkpt>
      <trkpt lat="44.270589435473084" lon="11.422176361083984">
        <ele>600</ele>
        <time>2003-12-08T09:51:47Z</time>
      </trkpt>
      <trkpt lat="44.270224571228027" lon="11.422305107116699">
        <ele>603</ele>
        <time>2003-12-08T09:51:59Z</time>
      </trkpt>
      <trkpt lat="44.270181739702821" lon="11.422326564788818">
        <ele>605</ele>
        <time>2003-12-08T09:52:08Z</time>
      </trkpt>
      <trkpt lat="44.270181739702821" lon="11.422326564788818">
        <ele>604</ele>
        <time>2003-12-08T09:52:10Z</time>
      </trkpt>
      <trkpt lat="44.270031535997987" lon="11.42198315821588">
        <ele>605</ele>
        <time>2003-12-08T09:52:15Z</time>
      </trkpt>
      <trkpt lat="44.269881164655089" lon="11.422004699707031">
        <ele>607</ele>
        <time>2003-12-08T09:52:32Z</time>
      </trkpt>
      <trkpt lat="44.269495010375977" lon="11.422004699707031">
        <ele>609</ele>
        <time>2003-12-08T09:52:50Z</time>
      </trkpt>
      <trkpt lat="44.269301891326904" lon="11.422197818756104">
        <ele>612</ele>
        <time>2003-12-08T09:53:05Z</time>
      </trkpt>
      <trkpt lat="44.269237518310547" lon="11.422176361083984">
        <ele>612</ele>
        <time>2003-12-08T09:53:08Z</time>
      </trkpt>
      <trkpt lat="44.269022941589355" lon="11.422133361920714">
        <ele>612</ele>
        <time>2003-12-08T09:53:20Z</time>
      </trkpt>
      <trkpt lat="44.268743991851807" lon="11.422176361083984">
        <ele>613</ele>
        <time>2003-12-08T09:53:33Z</time>
      </trkpt>
      <trkpt lat="44.268379211425781" lon="11.422240734100342">
        <ele>612</ele>
        <time>2003-12-08T09:53:47Z</time>
      </trkpt>
      <trkpt lat="44.268143177032471" lon="11.422369480133057">
        <ele>611</ele>
        <time>2003-12-08T09:53:59Z</time>
      </trkpt>
      <trkpt lat="44.267907058820128" lon="11.422498226165771">
        <ele>610</ele>
        <time>2003-12-08T09:54:12Z</time>
      </trkpt>
      <trkpt lat="44.267799938097596" lon="11.42254114151001">
        <ele>609</ele>
        <time>2003-12-08T09:54:19Z</time>
      </trkpt>
      <trkpt lat="44.267606735229492" lon="11.422841465100646">
        <ele>609</ele>
        <time>2003-12-08T09:54:36Z</time>
      </trkpt>
      <trkpt lat="44.267349159345031" lon="11.423142040148377">
        <ele>607</ele>
        <time>2003-12-08T09:54:54Z</time>
      </trkpt>
      <trkpt lat="44.267113208770752" lon="11.423399364575744">
        <ele>609</ele>
        <time>2003-12-08T09:55:11Z</time>
      </trkpt>
      <trkpt lat="44.266705513000488" lon="11.423614025115967">
        <ele>611</ele>
        <time>2003-12-08T09:55:31Z</time>
      </trkpt>
      <trkpt lat="44.26640510559082" lon="11.423721313476562">
        <ele>614</ele>
        <time>2003-12-08T09:55:45Z</time>
      </trkpt>
      <trkpt lat="44.266061782836914" lon="11.423764228820801">
        <ele>617</ele>
        <time>2003-12-08T09:55:58Z</time>
      </trkpt>
      <trkpt lat="44.265611171722412" lon="11.423807060346007">
        <ele>620</ele>
        <time>2003-12-08T09:56:15Z</time>
      </trkpt>
      <trkpt lat="44.265224933624268" lon="11.423828601837158">
        <ele>624</ele>
        <time>2003-12-08T09:56:29Z</time>
      </trkpt>
      <trkpt lat="44.264688491821289" lon="11.423871517181396">
        <ele>627</ele>
        <time>2003-12-08T09:56:49Z</time>
      </trkpt>
      <trkpt lat="44.264087677001953" lon="11.423871517181396">
        <ele>628</ele>
        <time>2003-12-08T09:57:11Z</time>
      </trkpt>
      <trkpt lat="44.263594234362245" lon="11.423935890197754">
        <ele>632</ele>
        <time>2003-12-08T09:57:28Z</time>
      </trkpt>
      <trkpt lat="44.263186538591981" lon="11.42402172088623">
        <ele>635</ele>
        <time>2003-12-08T09:57:43Z</time>
      </trkpt>
      <trkpt lat="44.262950420379639" lon="11.424086093902588">
        <ele>638</ele>
        <time>2003-12-08T09:57:55Z</time>
      </trkpt>
      <trkpt lat="44.262607097625732" lon="11.424214839935303">
        <ele>641</ele>
        <time>2003-12-08T09:58:10Z</time>
      </trkpt>
      <trkpt lat="44.262478435412049" lon="11.424236297607422">
        <ele>643</ele>
        <time>2003-12-08T09:58:16Z</time>
      </trkpt>
      <trkpt lat="44.262135028839111" lon="11.424064636230469">
        <ele>646</ele>
        <time>2003-12-08T09:58:34Z</time>
      </trkpt>
      <trkpt lat="44.261877536773682" lon="11.423764228820801">
        <ele>649</ele>
        <time>2003-12-08T09:58:50Z</time>
      </trkpt>
      <trkpt lat="44.26161996088922" lon="11.423506736755371">
        <ele>652</ele>
        <time>2003-12-08T09:59:05Z</time>
      </trkpt>
      <trkpt lat="44.261276721954346" lon="11.42324916087091">
        <ele>656</ele>
        <time>2003-12-08T09:59:23Z</time>
      </trkpt>
      <trkpt lat="44.260933399200439" lon="11.42303466796875">
        <ele>658</ele>
        <time>2003-12-08T09:59:40Z</time>
      </trkpt>
      <trkpt lat="44.260547161102295" lon="11.422863006591797">
        <ele>662</ele>
        <time>2003-12-08T09:59:59Z</time>
      </trkpt>
      <trkpt lat="44.260289669036865" lon="11.422841465100646">
        <ele>665</ele>
        <time>2003-12-08T10:00:12Z</time>
      </trkpt>
      <trkpt lat="44.260053634643555" lon="11.422863006591797">
        <ele>668</ele>
        <time>2003-12-08T10:00:24Z</time>
      </trkpt>
      <trkpt lat="44.259603023529053" lon="11.422884464263916">
        <ele>671</ele>
        <time>2003-12-08T10:00:46Z</time>
      </trkpt>
      <trkpt lat="44.25917387008667" lon="11.422863006591797">
        <ele>674</ele>
        <time>2003-12-08T10:01:07Z</time>
      </trkpt>
      <trkpt lat="44.258594512939453" lon="11.422841465100646">
        <ele>677</ele>
        <time>2003-12-08T10:01:29Z</time>
      </trkpt>
      <trkpt lat="44.257972240447998" lon="11.422884464263916">
        <ele>680</ele>
        <time>2003-12-08T10:01:50Z</time>
      </trkpt>
      <trkpt lat="44.257543087005615" lon="11.422905921936035">
        <ele>683</ele>
        <time>2003-12-08T10:02:06Z</time>
      </trkpt>
      <trkpt lat="44.257092475891113" lon="11.422820091247559">
        <ele>686</ele>
        <time>2003-12-08T10:02:25Z</time>
      </trkpt>
      <trkpt lat="44.256513118743896" lon="11.422626972198486">
        <ele>689</ele>
        <time>2003-12-08T10:02:48Z</time>
      </trkpt>
      <trkpt lat="44.256126880645752" lon="11.422948837280273">
        <ele>693</ele>
        <time>2003-12-08T10:03:04Z</time>
      </trkpt>
      <trkpt lat="44.255847930908203" lon="11.423270702362061">
        <ele>695</ele>
        <time>2003-12-08T10:03:18Z</time>
      </trkpt>
      <trkpt lat="44.255547523498535" lon="11.423335075378418">
        <ele>698</ele>
        <time>2003-12-08T10:03:32Z</time>
      </trkpt>
      <trkpt lat="44.255290031433105" lon="11.423335075378418">
        <ele>701</ele>
        <time>2003-12-08T10:03:44Z</time>
      </trkpt>
      <trkpt lat="44.255032539367676" lon="11.423485279083252">
        <ele>703</ele>
        <time>2003-12-08T10:03:58Z</time>
      </trkpt>
      <trkpt lat="44.254774963483214" lon="11.423807060346007">
        <ele>706</ele>
        <time>2003-12-08T10:04:14Z</time>
      </trkpt>
      <trkpt lat="44.254517639055848" lon="11.424107635393739">
        <ele>710</ele>
        <time>2003-12-08T10:04:29Z</time>
      </trkpt>
      <trkpt lat="44.254324436187744" lon="11.424343585968018">
        <ele>712</ele>
        <time>2003-12-08T10:04:40Z</time>
      </trkpt>
      <trkpt lat="44.254045486450195" lon="11.424708366394043">
        <ele>716</ele>
        <time>2003-12-08T10:04:58Z</time>
      </trkpt>
      <trkpt lat="44.253702163696289" lon="11.425073063001037">
        <ele>719</ele>
        <time>2003-12-08T10:05:18Z</time>
      </trkpt>
      <trkpt lat="44.25342321395874" lon="11.425266265869141">
        <ele>722</ele>
        <time>2003-12-08T10:05:34Z</time>
      </trkpt>
      <trkpt lat="44.25318717956543" lon="11.425395011901855">
        <ele>724</ele>
        <time>2003-12-08T10:05:48Z</time>
      </trkpt>
      <trkpt lat="44.253101265057921" lon="11.425437927246094">
        <ele>725</ele>
        <time>2003-12-08T10:06:01Z</time>
      </trkpt>
      <trkpt lat="44.253101265057921" lon="11.425437927246094">
        <ele>724</ele>
        <time>2003-12-08T10:06:45Z</time>
      </trkpt>
      <trkpt lat="44.253101265057921" lon="11.425566673278809">
        <ele>726</ele>
        <time>2003-12-08T10:06:56Z</time>
      </trkpt>
      <trkpt lat="44.253101265057921" lon="11.425566673278809">
        <ele>726</ele>
        <time>2003-12-08T10:06:59Z</time>
      </trkpt>
      <trkpt lat="44.252994060516357" lon="11.425824165344238">
        <ele>728</ele>
        <time>2003-12-08T10:07:15Z</time>
      </trkpt>
      <trkpt lat="44.25267219543457" lon="11.426060199737549">
        <ele>730</ele>
        <time>2003-12-08T10:07:34Z</time>
      </trkpt>
      <trkpt lat="44.252350330352783" lon="11.426103115081787">
        <ele>734</ele>
        <time>2003-12-08T10:07:51Z</time>
      </trkpt>
      <trkpt lat="44.251985466107726" lon="11.426231861114502">
        <ele>736</ele>
        <time>2003-12-08T10:08:11Z</time>
      </trkpt>
      <trkpt lat="44.251599311828613" lon="11.426553726196289">
        <ele>737</ele>
        <time>2003-12-08T10:08:29Z</time>
      </trkpt>
      <trkpt lat="44.251320362091064" lon="11.426896965131164">
        <ele>740</ele>
        <time>2003-12-08T10:08:45Z</time>
      </trkpt>
      <trkpt lat="44.250998497009277" lon="11.427154541015625">
        <ele>743</ele>
        <time>2003-12-08T10:09:03Z</time>
      </trkpt>
      <trkpt lat="44.250762462615967" lon="11.427454864606261">
        <ele>746</ele>
        <time>2003-12-08T10:09:19Z</time>
      </trkpt>
      <trkpt lat="44.250590801239014" lon="11.427733898162842">
        <ele>749</ele>
        <time>2003-12-08T10:09:35Z</time>
      </trkpt>
      <trkpt lat="44.250311935320497" lon="11.427712440490723">
        <ele>751</ele>
        <time>2003-12-08T10:09:50Z</time>
      </trkpt>
      <trkpt lat="44.250011360272765" lon="11.427733898162842">
        <ele>753</ele>
        <time>2003-12-08T10:10:07Z</time>
      </trkpt>
      <trkpt lat="44.24968957901001" lon="11.427755439653993">
        <ele>757</ele>
        <time>2003-12-08T10:10:23Z</time>
      </trkpt>
      <trkpt lat="44.249389171600342" lon="11.42777681350708">
        <ele>756</ele>
        <time>2003-12-08T10:10:36Z</time>
      </trkpt>
      <trkpt lat="44.249196136370301" lon="11.427841186523438">
        <ele>755</ele>
        <time>2003-12-08T10:10:40Z</time>
      </trkpt>
      <trkpt lat="44.248981475830078" lon="11.427884101867676">
        <ele>753</ele>
        <time>2003-12-08T10:10:44Z</time>
      </trkpt>
      <trkpt lat="44.2484450340271" lon="11.427862560376525">
        <ele>750</ele>
        <time>2003-12-08T10:10:52Z</time>
      </trkpt>
      <trkpt lat="44.248337661847472" lon="11.42777681350708">
        <ele>749</ele>
        <time>2003-12-08T10:10:54Z</time>
      </trkpt>
      <trkpt lat="44.248015880584717" lon="11.427197540178895">
        <ele>747</ele>
        <time>2003-12-08T10:11:01Z</time>
      </trkpt>
      <trkpt lat="44.247887134552002" lon="11.426854133605957">
        <ele>745</ele>
        <time>2003-12-08T10:11:05Z</time>
      </trkpt>
      <trkpt lat="44.247608184814453" lon="11.426661014556885">
        <ele>746</ele>
        <time>2003-12-08T10:11:13Z</time>
      </trkpt>
      <trkpt lat="44.247071659192443" lon="11.426403522491455">
        <ele>748</ele>
        <time>2003-12-08T10:11:31Z</time>
      </trkpt>
      <trkpt lat="44.246749877929688" lon="11.426231861114502">
        <ele>751</ele>
        <time>2003-12-08T10:11:42Z</time>
      </trkpt>
      <trkpt lat="44.246234893798828" lon="11.426103115081787">
        <ele>754</ele>
        <time>2003-12-08T10:11:59Z</time>
      </trkpt>
      <trkpt lat="44.245784282684326" lon="11.426060199737549">
        <ele>755</ele>
        <time>2003-12-08T10:12:13Z</time>
      </trkpt>
      <trkpt lat="44.245569705963135" lon="11.426060199737549">
        <ele>754</ele>
        <time>2003-12-08T10:12:18Z</time>
      </trkpt>
      <trkpt lat="44.245419502258301" lon="11.426038658246398">
        <ele>755</ele>
        <time>2003-12-08T10:12:22Z</time>
      </trkpt>
      <trkpt lat="44.245312213897705" lon="11.426038658246398">
        <ele>754</ele>
        <time>2003-12-08T10:12:24Z</time>
      </trkpt>
      <trkpt lat="44.245140636339784" lon="11.426017284393311">
        <ele>755</ele>
        <time>2003-12-08T10:12:28Z</time>
      </trkpt>
      <trkpt lat="44.244303703308105" lon="11.425845623016357">
        <ele>751</ele>
        <time>2003-12-08T10:12:42Z</time>
      </trkpt>
      <trkpt lat="44.243617141619325" lon="11.425652503967285">
        <ele>750</ele>
        <time>2003-12-08T10:12:52Z</time>
      </trkpt>
      <trkpt lat="44.243295192718506" lon="11.425566673278809">
        <ele>748</ele>
        <time>2003-12-08T10:12:57Z</time>
      </trkpt>
      <trkpt lat="44.243037700653076" lon="11.425502300262451">
        <ele>748</ele>
        <time>2003-12-08T10:13:01Z</time>
      </trkpt>
      <trkpt lat="44.242780208587646" lon="11.425395011901855">
        <ele>747</ele>
        <time>2003-12-08T10:13:06Z</time>
      </trkpt>
      <trkpt lat="44.242587089538574" lon="11.425244808197021">
        <ele>747</ele>
        <time>2003-12-08T10:13:10Z</time>
      </trkpt>
      <trkpt lat="44.242415428161621" lon="11.42503023147583">
        <ele>747</ele>
        <time>2003-12-08T10:13:15Z</time>
      </trkpt>
      <trkpt lat="44.242286682128906" lon="11.42481573857367">
        <ele>748</ele>
        <time>2003-12-08T10:13:20Z</time>
      </trkpt>
      <trkpt lat="44.241857528686523" lon="11.424343585968018">
        <ele>748</ele>
        <time>2003-12-08T10:13:34Z</time>
      </trkpt>
      <trkpt lat="44.241643035784364" lon="11.424150466918945">
        <ele>748</ele>
        <time>2003-12-08T10:13:39Z</time>
      </trkpt>
      <trkpt lat="44.241106510162354" lon="11.423742771148682">
        <ele>744</ele>
        <time>2003-12-08T10:13:49Z</time>
      </trkpt>
      <trkpt lat="44.240655899047852" lon="11.423377990722656">
        <ele>744</ele>
        <time>2003-12-08T10:14:03Z</time>
      </trkpt>
      <trkpt lat="44.240291118621826" lon="11.422820091247559">
        <ele>747</ele>
        <time>2003-12-08T10:14:21Z</time>
      </trkpt>
      <trkpt lat="44.239990711212158" lon="11.422219276428223">
        <ele>748</ele>
        <time>2003-12-08T10:14:37Z</time>
      </trkpt>
      <trkpt lat="44.239583015441895" lon="11.421575462445617">
        <ele>749</ele>
        <time>2003-12-08T10:14:55Z</time>
      </trkpt>
      <trkpt lat="44.239368438720703" lon="11.421446800231934">
        <ele>749</ele>
        <time>2003-12-08T10:15:00Z</time>
      </trkpt>
      <trkpt lat="44.238703334704041" lon="11.421339511871338">
        <ele>747</ele>
        <time>2003-12-08T10:15:15Z</time>
      </trkpt>
      <trkpt lat="44.23820972442627" lon="11.421360969543457">
        <ele>748</ele>
        <time>2003-12-08T10:15:27Z</time>
      </trkpt>
      <trkpt lat="44.237651824951172" lon="11.4212965965271">
        <ele>750</ele>
        <time>2003-12-08T10:15:43Z</time>
      </trkpt>
      <trkpt lat="44.237351417541504" lon="11.42103910446167">
        <ele>754</ele>
        <time>2003-12-08T10:15:58Z</time>
      </trkpt>
      <trkpt lat="44.237051010131836" lon="11.42078161239624">
        <ele>754</ele>
        <time>2003-12-08T10:16:14Z</time>
      </trkpt>
      <trkpt lat="44.236857891082764" lon="11.420695781707764">
        <ele>758</ele>
        <time>2003-12-08T10:16:27Z</time>
      </trkpt>
      <trkpt lat="44.236578941345215" lon="11.420760238543153">
        <ele>760</ele>
        <time>2003-12-08T10:16:44Z</time>
      </trkpt>
      <trkpt lat="44.236364364624023" lon="11.420738697052002">
        <ele>764</ele>
        <time>2003-12-08T10:16:58Z</time>
      </trkpt>
      <trkpt lat="44.236149787902832" lon="11.420717239379883">
        <ele>767</ele>
        <time>2003-12-08T10:17:12Z</time>
      </trkpt>
      <trkpt lat="44.235892295837402" lon="11.420524120330811">
        <ele>770</ele>
        <time>2003-12-08T10:17:31Z</time>
      </trkpt>
      <trkpt lat="44.235656261444092" lon="11.420395374298096">
        <ele>773</ele>
        <time>2003-12-08T10:17:47Z</time>
      </trkpt>
      <trkpt lat="44.235484600067139" lon="11.420352458953857">
        <ele>776</ele>
        <time>2003-12-08T10:17:58Z</time>
      </trkpt>
      <trkpt lat="44.235291481018066" lon="11.420309459790587">
        <ele>779</ele>
        <time>2003-12-08T10:18:10Z</time>
      </trkpt>
      <trkpt lat="44.235141277313232" lon="11.420137882232666">
        <ele>782</ele>
        <time>2003-12-08T10:18:22Z</time>
      </trkpt>
      <trkpt lat="44.235098361968994" lon="11.420009136199951">
        <ele>781</ele>
        <time>2003-12-08T10:18:25Z</time>
      </trkpt>
      <trkpt lat="44.235055362805724" lon="11.419923305511475">
        <ele>781</ele>
        <time>2003-12-08T10:18:27Z</time>
      </trkpt>
      <trkpt lat="44.234991073608398" lon="11.419601440429688">
        <ele>781</ele>
        <time>2003-12-08T10:18:33Z</time>
      </trkpt>
      <trkpt lat="44.23494815826416" lon="11.419386863708496">
        <ele>780</ele>
        <time>2003-12-08T10:18:37Z</time>
      </trkpt>
      <trkpt lat="44.234883785247803" lon="11.419129371643066">
        <ele>779</ele>
        <time>2003-12-08T10:18:41Z</time>
      </trkpt>
      <trkpt lat="44.234862327575684" lon="11.419000625610352">
        <ele>778</ele>
        <time>2003-12-08T10:18:43Z</time>
      </trkpt>
      <trkpt lat="44.23471212387085" lon="11.418399810791016">
        <ele>776</ele>
        <time>2003-12-08T10:18:51Z</time>
      </trkpt>
      <trkpt lat="44.234476089477539" lon="11.417906284332275">
        <ele>777</ele>
        <time>2003-12-08T10:19:00Z</time>
      </trkpt>
      <trkpt lat="44.234282970428467" lon="11.417434215545654">
        <ele>777</ele>
        <time>2003-12-08T10:19:09Z</time>
      </trkpt>
      <trkpt lat="44.234154224395752" lon="11.417219638824463">
        <ele>779</ele>
        <time>2003-12-08T10:19:15Z</time>
      </trkpt>
      <trkpt lat="44.233832359313965" lon="11.41679048538208">
        <ele>781</ele>
        <time>2003-12-08T10:19:29Z</time>
      </trkpt>
      <trkpt lat="44.233532035723329" lon="11.415910720825195">
        <ele>779</ele>
        <time>2003-12-08T10:19:45Z</time>
      </trkpt>
      <trkpt lat="44.233510494232178" lon="11.41554594039917">
        <ele>780</ele>
        <time>2003-12-08T10:19:50Z</time>
      </trkpt>
      <trkpt lat="44.233510494232178" lon="11.415395736694336">
        <ele>779</ele>
        <time>2003-12-08T10:19:52Z</time>
      </trkpt>
      <trkpt lat="44.233360290527344" lon="11.414730465039611">
        <ele>781</ele>
        <time>2003-12-08T10:20:06Z</time>
      </trkpt>
      <trkpt lat="44.233081340789795" lon="11.414258480072021">
        <ele>783</ele>
        <time>2003-12-08T10:20:22Z</time>
      </trkpt>
      <trkpt lat="44.232974136248231" lon="11.414151191711426">
        <ele>783</ele>
        <time>2003-12-08T10:20:25Z</time>
      </trkpt>
      <trkpt lat="44.232523441314697" lon="11.413636207580566">
        <ele>785</ele>
        <time>2003-12-08T10:20:41Z</time>
      </trkpt>
      <trkpt lat="44.232501983642578" lon="11.413614666089416">
        <ele>785</ele>
        <time>2003-12-08T10:20:42Z</time>
      </trkpt>
      <trkpt lat="44.232265865430236" lon="11.413528919219971">
        <ele>788</ele>
        <time>2003-12-08T10:20:51Z</time>
      </trkpt>
      <trkpt lat="44.231858337298036" lon="11.413378715515137">
        <ele>790</ele>
        <time>2003-12-08T10:21:08Z</time>
      </trkpt>
      <trkpt lat="44.231600761413574" lon="11.41329288482666">
        <ele>786</ele>
        <time>2003-12-08T10:21:12Z</time>
      </trkpt>
      <trkpt lat="44.231257438659668" lon="11.412906562909484">
        <ele>784</ele>
        <time>2003-12-08T10:21:17Z</time>
      </trkpt>
      <trkpt lat="44.230656623840332" lon="11.412456035614014">
        <ele>781</ele>
        <time>2003-12-08T10:21:26Z</time>
      </trkpt>
      <trkpt lat="44.230334758758545" lon="11.412198459729552">
        <ele>779</ele>
        <time>2003-12-08T10:21:32Z</time>
      </trkpt>
      <trkpt lat="44.230077266693115" lon="11.411898136138916">
        <ele>781</ele>
        <time>2003-12-08T10:21:38Z</time>
      </trkpt>
      <trkpt lat="44.229798316955566" lon="11.411769390106201">
        <ele>782</ele>
        <time>2003-12-08T10:21:44Z</time>
      </trkpt>
      <trkpt lat="44.229433536529541" lon="11.411597728729248">
        <ele>785</ele>
        <time>2003-12-08T10:21:54Z</time>
      </trkpt>
      <trkpt lat="44.229240417480469" lon="11.411426067352295">
        <ele>786</ele>
        <time>2003-12-08T10:22:01Z</time>
      </trkpt>
      <trkpt lat="44.22896146774292" lon="11.411147117614746">
        <ele>791</ele>
        <time>2003-12-08T10:22:16Z</time>
      </trkpt>
      <trkpt lat="44.228940010070801" lon="11.411147117614746">
        <ele>791</ele>
        <time>2003-12-08T10:22:17Z</time>
      </trkpt>
      <trkpt lat="44.228789806365967" lon="11.410889625549316">
        <ele>794</ele>
        <time>2003-12-08T10:22:29Z</time>
      </trkpt>
      <trkpt lat="44.22870397567749" lon="11.410481929779053">
        <ele>798</ele>
        <time>2003-12-08T10:22:44Z</time>
      </trkpt>
      <trkpt lat="44.22870397567749" lon="11.410460472106934">
        <ele>798</ele>
        <time>2003-12-08T10:22:45Z</time>
      </trkpt>
      <trkpt lat="44.228682518005371" lon="11.409988403320313">
        <ele>801</ele>
        <time>2003-12-08T10:22:57Z</time>
      </trkpt>
      <trkpt lat="44.228553771972656" lon="11.409559166058898">
        <ele>801</ele>
        <time>2003-12-08T10:23:09Z</time>
      </trkpt>
      <trkpt lat="44.228403568267822" lon="11.409408962354064">
        <ele>799</ele>
        <time>2003-12-08T10:23:13Z</time>
      </trkpt>
      <trkpt lat="44.228253364562988" lon="11.409323215484619">
        <ele>798</ele>
        <time>2003-12-08T10:23:16Z</time>
      </trkpt>
      <trkpt lat="44.228103160858154" lon="11.409087181091309">
        <ele>797</ele>
        <time>2003-12-08T10:23:19Z</time>
      </trkpt>
      <trkpt lat="44.228060161694884" lon="11.409001434221864">
        <ele>797</ele>
        <time>2003-12-08T10:23:20Z</time>
      </trkpt>
      <trkpt lat="44.22771692276001" lon="11.40831470489502">
        <ele>792</ele>
        <time>2003-12-08T10:23:29Z</time>
      </trkpt>
      <trkpt lat="44.227674007415771" lon="11.408228874206543">
        <ele>791</ele>
        <time>2003-12-08T10:23:37Z</time>
      </trkpt>
      <trkpt lat="44.227545261383057" lon="11.407992839813232">
        <ele>792</ele>
        <time>2003-12-08T10:23:50Z</time>
      </trkpt>
      <trkpt lat="44.22720193862915" lon="11.407628059387207">
        <ele>792</ele>
        <time>2003-12-08T10:24:05Z</time>
      </trkpt>
      <trkpt lat="44.227094734087586" lon="11.40754222869873">
        <ele>792</ele>
        <time>2003-12-08T10:24:08Z</time>
      </trkpt>
      <trkpt lat="44.226729869842529" lon="11.407263278961182">
        <ele>792</ele>
        <time>2003-12-08T10:24:18Z</time>
      </trkpt>
      <trkpt lat="44.226665496826172" lon="11.407005786895752">
        <ele>793</ele>
        <time>2003-12-08T10:24:23Z</time>
      </trkpt>
      <trkpt lat="44.226515293121338" lon="11.406340599060059">
        <ele>796</ele>
        <time>2003-12-08T10:24:38Z</time>
      </trkpt>
      <trkpt lat="44.226386463269591" lon="11.405675411224365">
        <ele>798</ele>
        <time>2003-12-08T10:24:54Z</time>
      </trkpt>
      <trkpt lat="44.226322174072266" lon="11.405224800109863">
        <ele>796</ele>
        <time>2003-12-08T10:25:07Z</time>
      </trkpt>
      <trkpt lat="44.226300716400146" lon="11.40505313873291">
        <ele>796</ele>
        <time>2003-12-08T10:25:14Z</time>
      </trkpt>
      <trkpt lat="44.226236259564757" lon="11.404709815979004">
        <ele>796</ele>
        <time>2003-12-08T10:25:25Z</time>
      </trkpt>
      <trkpt lat="44.226171970367432" lon="11.404259204864502">
        <ele>798</ele>
        <time>2003-12-08T10:25:38Z</time>
      </trkpt>
      <trkpt lat="44.226107597351074" lon="11.403722763061523">
        <ele>801</ele>
        <time>2003-12-08T10:25:51Z</time>
      </trkpt>
      <trkpt lat="44.225893020629883" lon="11.403229236602783">
        <ele>801</ele>
        <time>2003-12-08T10:26:03Z</time>
      </trkpt>
      <trkpt lat="44.225699901580811" lon="11.402950286865234">
        <ele>803</ele>
        <time>2003-12-08T10:26:14Z</time>
      </trkpt>
      <trkpt lat="44.225528240203857" lon="11.402628421783447">
        <ele>805</ele>
        <time>2003-12-08T10:26:26Z</time>
      </trkpt>
      <trkpt lat="44.225227832794189" lon="11.40204906463623">
        <ele>808</ele>
        <time>2003-12-08T10:26:45Z</time>
      </trkpt>
      <trkpt lat="44.225034713745117" lon="11.401619911193848">
        <ele>808</ele>
        <time>2003-12-08T10:26:57Z</time>
      </trkpt>
      <trkpt lat="44.224884510040283" lon="11.400933265686035">
        <ele>810</ele>
        <time>2003-12-08T10:27:14Z</time>
      </trkpt>
      <trkpt lat="44.224884510040283" lon="11.400911808013916">
        <ele>810</ele>
        <time>2003-12-08T10:27:15Z</time>
      </trkpt>
      <trkpt lat="44.22497034072876" lon="11.40056848526001">
        <ele>811</ele>
        <time>2003-12-08T10:27:25Z</time>
      </trkpt>
      <trkpt lat="44.224991798400879" lon="11.400525569915771">
        <ele>811</ele>
        <time>2003-12-08T10:27:26Z</time>
      </trkpt>
      <trkpt lat="44.225077629089355" lon="11.400010585784912">
        <ele>811</ele>
        <time>2003-12-08T10:27:39Z</time>
      </trkpt>
      <trkpt lat="44.225292205810547" lon="11.399688720703125">
        <ele>811</ele>
        <time>2003-12-08T10:27:50Z</time>
      </trkpt>
      <trkpt lat="44.225335121154785" lon="11.399409770965576">
        <ele>811</ele>
        <time>2003-12-08T10:28:00Z</time>
      </trkpt>
      <trkpt lat="44.22520637512207" lon="11.398980617523193">
        <ele>813</ele>
        <time>2003-12-08T10:28:12Z</time>
      </trkpt>
      <trkpt lat="44.225163459777832" lon="11.398701667785645">
        <ele>815</ele>
        <time>2003-12-08T10:28:24Z</time>
      </trkpt>
      <trkpt lat="44.225142002105713" lon="11.398680210113525">
        <ele>816</ele>
        <time>2003-12-08T10:28:26Z</time>
      </trkpt>
      <trkpt lat="44.225056171417236" lon="11.398637294769287">
        <ele>815</ele>
        <time>2003-12-08T10:28:30Z</time>
      </trkpt>
      <trkpt lat="44.224691390991211" lon="11.398422718048096">
        <ele>817</ele>
        <time>2003-12-08T10:28:44Z</time>
      </trkpt>
      <trkpt lat="44.224348068237305" lon="11.398358261212707">
        <ele>817</ele>
        <time>2003-12-08T10:28:57Z</time>
      </trkpt>
      <trkpt lat="44.223897540941834" lon="11.398444175720215">
        <ele>820</ele>
        <time>2003-12-08T10:29:13Z</time>
      </trkpt>
      <trkpt lat="44.223361015319824" lon="11.398422718048096">
        <ele>822</ele>
        <time>2003-12-08T10:29:28Z</time>
      </trkpt>
      <trkpt lat="44.223103523254395" lon="11.398508464917541">
        <ele>823</ele>
        <time>2003-12-08T10:29:37Z</time>
      </trkpt>
      <trkpt lat="44.222738659009337" lon="11.398766040802002">
        <ele>825</ele>
        <time>2003-12-08T10:29:51Z</time>
      </trkpt>
      <trkpt lat="44.222652912139893" lon="11.398873329162598">
        <ele>823</ele>
        <time>2003-12-08T10:34:47Z</time>
      </trkpt>
      <trkpt lat="44.222481334581971" lon="11.398894786834717">
        <ele>823</ele>
        <time>2003-12-08T10:34:53Z</time>
      </trkpt>
      <trkpt lat="44.222116470336914" lon="11.398723125457764">
        <ele>822</ele>
        <time>2003-12-08T10:35:00Z</time>
      </trkpt>
      <trkpt lat="44.221901893615723" lon="11.398530006408691">
        <ele>822</ele>
        <time>2003-12-08T10:35:06Z</time>
      </trkpt>
      <trkpt lat="44.221537113189697" lon="11.398208141326904">
        <ele>823</ele>
        <time>2003-12-08T10:35:21Z</time>
      </trkpt>
      <trkpt lat="44.221258163452148" lon="11.397886276245117">
        <ele>824</ele>
        <time>2003-12-08T10:35:39Z</time>
      </trkpt>
      <trkpt lat="44.220914840698242" lon="11.397478580474854">
        <ele>822</ele>
        <time>2003-12-08T10:35:48Z</time>
      </trkpt>
      <trkpt lat="44.220764636993408" lon="11.3973069190979">
        <ele>821</ele>
        <time>2003-12-08T10:35:51Z</time>
      </trkpt>
      <trkpt lat="44.220571517944336" lon="11.396856307983398">
        <ele>820</ele>
        <time>2003-12-08T10:36:00Z</time>
      </trkpt>
      <trkpt lat="44.220292568206787" lon="11.396191120147705">
        <ele>820</ele>
        <time>2003-12-08T10:36:13Z</time>
      </trkpt>
      <trkpt lat="44.220249736681581" lon="11.396040916442871">
        <ele>819</ele>
        <time>2003-12-08T10:36:21Z</time>
      </trkpt>
      <trkpt lat="44.220206737518311" lon="11.395761966705322">
        <ele>820</ele>
        <time>2003-12-08T10:36:32Z</time>
      </trkpt>
      <trkpt lat="44.220185279846191" lon="11.395590305328369">
        <ele>820</ele>
        <time>2003-12-08T10:36:38Z</time>
      </trkpt>
      <trkpt lat="44.220056533813477" lon="11.394946575164795">
        <ele>820</ele>
        <time>2003-12-08T10:36:52Z</time>
      </trkpt>
      <trkpt lat="44.219970703125" lon="11.394710540771484">
        <ele>821</ele>
        <time>2003-12-08T10:36:57Z</time>
      </trkpt>
      <trkpt lat="44.219820499420166" lon="11.394495964050293">
        <ele>818</ele>
        <time>2003-12-08T10:37:02Z</time>
      </trkpt>
      <trkpt lat="44.219434261322021" lon="11.394367218017578">
        <ele>815</ele>
        <time>2003-12-08T10:37:09Z</time>
      </trkpt>
      <trkpt lat="44.219305515289307" lon="11.394367218017578">
        <ele>815</ele>
        <time>2003-12-08T10:37:12Z</time>
      </trkpt>
      <trkpt lat="44.218919277191162" lon="11.394345760345459">
        <ele>820</ele>
        <time>2003-12-08T10:37:23Z</time>
      </trkpt>
      <trkpt lat="44.218618869781494" lon="11.394345760345459">
        <ele>822</ele>
        <time>2003-12-08T10:37:35Z</time>
      </trkpt>
      <trkpt lat="44.218404293060303" lon="11.394495964050293">
        <ele>825</ele>
        <time>2003-12-08T10:37:46Z</time>
      </trkpt>
      <trkpt lat="44.218382835388184" lon="11.394495964050293">
        <ele>825</ele>
        <time>2003-12-08T10:37:47Z</time>
      </trkpt>
      <trkpt lat="44.218168258666992" lon="11.394753539934754">
        <ele>829</ele>
        <time>2003-12-08T10:38:02Z</time>
      </trkpt>
      <trkpt lat="44.218103885650635" lon="11.394796371459961">
        <ele>831</ele>
        <time>2003-12-08T10:38:08Z</time>
      </trkpt>
      <trkpt lat="44.217953681945801" lon="11.39481782913208">
        <ele>834</ele>
        <time>2003-12-08T10:38:23Z</time>
      </trkpt>
      <trkpt lat="44.217653274536133" lon="11.39481782913208">
        <ele>836</ele>
        <time>2003-12-08T10:38:43Z</time>
      </trkpt>
      <trkpt lat="44.217310035601258" lon="11.394689083099365">
        <ele>839</ele>
        <time>2003-12-08T10:39:03Z</time>
      </trkpt>
      <trkpt lat="44.216988086700439" lon="11.394452964887023">
        <ele>841</ele>
        <time>2003-12-08T10:39:20Z</time>
      </trkpt>
      <trkpt lat="44.216623306274414" lon="11.394109725952148">
        <ele>844</ele>
        <time>2003-12-08T10:39:35Z</time>
      </trkpt>
      <trkpt lat="44.216430187225342" lon="11.393873691558838">
        <ele>848</ele>
        <time>2003-12-08T10:39:47Z</time>
      </trkpt>
      <trkpt lat="44.21621561050415" lon="11.393594741821289">
        <ele>850</ele>
        <time>2003-12-08T10:40:03Z</time>
      </trkpt>
      <trkpt lat="44.215936660766602" lon="11.393208503723145">
        <ele>854</ele>
        <time>2003-12-08T10:40:22Z</time>
      </trkpt>
      <trkpt lat="44.21572208404541" lon="11.392693519592285">
        <ele>857</ele>
        <time>2003-12-08T10:40:38Z</time>
      </trkpt>
      <trkpt lat="44.215400218963623" lon="11.392199993133545">
        <ele>858</ele>
        <time>2003-12-08T10:40:52Z</time>
      </trkpt>
      <trkpt lat="44.214863777160645" lon="11.391727924346924">
        <ele>857</ele>
        <time>2003-12-08T10:41:07Z</time>
      </trkpt>
      <trkpt lat="44.21473503112793" lon="11.391599178314209">
        <ele>857</ele>
        <time>2003-12-08T10:41:10Z</time>
      </trkpt>
      <trkpt lat="44.214434623718262" lon="11.391384601593018">
        <ele>858</ele>
        <time>2003-12-08T10:41:17Z</time>
      </trkpt>
      <trkpt lat="44.214069759473205" lon="11.391363060101867">
        <ele>861</ele>
        <time>2003-12-08T10:41:28Z</time>
      </trkpt>
      <trkpt lat="44.213855266571045" lon="11.39132022857666">
        <ele>865</ele>
        <time>2003-12-08T10:41:38Z</time>
      </trkpt>
      <trkpt lat="44.213833808898926" lon="11.39132022857666">
        <ele>865</ele>
        <time>2003-12-08T10:41:39Z</time>
      </trkpt>
      <trkpt lat="44.21372652053833" lon="11.391298770904541">
        <ele>867</ele>
        <time>2003-12-08T10:41:45Z</time>
      </trkpt>
      <trkpt lat="44.213683605194092" lon="11.391277313232422">
        <ele>869</ele>
        <time>2003-12-08T10:41:48Z</time>
      </trkpt>
      <trkpt lat="44.213340282440186" lon="11.391148567199707">
        <ele>870</ele>
        <time>2003-12-08T10:42:05Z</time>
      </trkpt>
      <trkpt lat="44.212911128997803" lon="11.390698039904237">
        <ele>873</ele>
        <time>2003-12-08T10:42:21Z</time>
      </trkpt>
      <trkpt lat="44.21273946762085" lon="11.390483379364014">
        <ele>873</ele>
        <time>2003-12-08T10:42:30Z</time>
      </trkpt>
      <trkpt lat="44.21248197555542" lon="11.390182971954346">
        <ele>874</ele>
        <time>2003-12-08T10:42:42Z</time>
      </trkpt>
      <trkpt lat="44.212138736620545" lon="11.389861106872559">
        <ele>875</ele>
        <time>2003-12-08T10:42:57Z</time>
      </trkpt>
      <trkpt lat="44.211795330047607" lon="11.389517784118652">
        <ele>876</ele>
        <time>2003-12-08T10:43:13Z</time>
      </trkpt>
      <trkpt lat="44.211537837982178" lon="11.38928166590631">
        <ele>876</ele>
        <time>2003-12-08T10:43:25Z</time>
      </trkpt>
      <trkpt lat="44.211516380310059" lon="11.389260292053223">
        <ele>874</ele>
        <time>2003-12-08T10:43:39Z</time>
      </trkpt>
      <trkpt lat="44.211065769195557" lon="11.38883113861084">
        <ele>872</ele>
        <time>2003-12-08T10:43:46Z</time>
      </trkpt>
      <trkpt lat="44.210786819458008" lon="11.388444900512695">
        <ele>871</ele>
        <time>2003-12-08T10:43:58Z</time>
      </trkpt>
      <trkpt lat="44.21048641204834" lon="11.388230323791504">
        <ele>870</ele>
        <time>2003-12-08T10:44:02Z</time>
      </trkpt>
      <trkpt lat="44.210507869720459" lon="11.388230323791504">
        <ele>863</ele>
        <time>2003-12-08T11:00:15Z</time>
      </trkpt>
      <trkpt lat="44.210636615753174" lon="11.388230323791504">
        <ele>861</ele>
        <time>2003-12-08T11:00:10Z</time>
      </trkpt>
      <trkpt lat="44.210700988769531" lon="11.388230323791504">
        <ele>863</ele>
        <time>2003-12-08T11:01:18Z</time>
      </trkpt>
      <trkpt lat="44.211001396179199" lon="11.38808012008667">
        <ele>860</ele>
        <time>2003-12-08T11:01:26Z</time>
      </trkpt>
      <trkpt lat="44.211173141375184" lon="11.387972831726074">
        <ele>856</ele>
        <time>2003-12-08T11:01:29Z</time>
      </trkpt>
      <trkpt lat="44.211258888244629" lon="11.387929916381836">
        <ele>854</ele>
        <time>2003-12-08T11:01:31Z</time>
      </trkpt>
      <trkpt lat="44.211280262097716" lon="11.387736797332764">
        <ele>852</ele>
        <time>2003-12-08T11:01:36Z</time>
      </trkpt>
      <trkpt lat="44.210829734802246" lon="11.387565135955811">
        <ele>848</ele>
        <time>2003-12-08T11:01:42Z</time>
      </trkpt>
      <trkpt lat="44.210786819458008" lon="11.387286186218262">
        <ele>844</ele>
        <time>2003-12-08T11:01:47Z</time>
      </trkpt>
      <trkpt lat="44.210958480834961" lon="11.387264728546143">
        <ele>842</ele>
        <time>2003-12-08T11:01:50Z</time>
      </trkpt>
      <trkpt lat="44.211130058392882" lon="11.387178897857666">
        <ele>841</ele>
        <time>2003-12-08T11:01:53Z</time>
      </trkpt>
      <trkpt lat="44.211173141375184" lon="11.387114524841309">
        <ele>838</ele>
        <time>2003-12-08T11:01:54Z</time>
      </trkpt>
      <trkpt lat="44.211301803588867" lon="11.386921405792236">
        <ele>837</ele>
        <time>2003-12-08T11:01:57Z</time>
      </trkpt>
      <trkpt lat="44.211387634277344" lon="11.38683557510376">
        <ele>836</ele>
        <time>2003-12-08T11:01:59Z</time>
      </trkpt>
      <trkpt lat="44.211666584014893" lon="11.386556625366211">
        <ele>832</ele>
        <time>2003-12-08T11:02:04Z</time>
      </trkpt>
      <trkpt lat="44.211795330047607" lon="11.386427879333496">
        <ele>831</ele>
        <time>2003-12-08T11:02:06Z</time>
      </trkpt>
      <trkpt lat="44.211838161572814" lon="11.386363506317139">
        <ele>829</ele>
        <time>2003-12-08T11:02:07Z</time>
      </trkpt>
      <trkpt lat="44.212160110473633" lon="11.386256217956543">
        <ele>825</ele>
        <time>2003-12-08T11:02:11Z</time>
      </trkpt>
      <trkpt lat="44.212245941162109" lon="11.386234760284424">
        <ele>825</ele>
        <time>2003-12-08T11:02:12Z</time>
      </trkpt>
      <trkpt lat="44.212567806243896" lon="11.386106014251709">
        <ele>821</ele>
        <time>2003-12-08T11:02:16Z</time>
      </trkpt>
      <trkpt lat="44.212782382965088" lon="11.385955810546875">
        <ele>818</ele>
        <time>2003-12-08T11:02:19Z</time>
      </trkpt>
      <trkpt lat="44.213147163391113" lon="11.385934436693788">
        <ele>815</ele>
        <time>2003-12-08T11:02:23Z</time>
      </trkpt>
      <trkpt lat="44.213619232177734" lon="11.385869979858398">
        <ele>811</ele>
        <time>2003-12-08T11:02:29Z</time>
      </trkpt>
      <trkpt lat="44.213790893554687" lon="11.38582706451416">
        <ele>807</ele>
        <time>2003-12-08T11:02:31Z</time>
      </trkpt>
      <trkpt lat="44.213876724243164" lon="11.385805606842041">
        <ele>806</ele>
        <time>2003-12-08T11:02:32Z</time>
      </trkpt>
      <trkpt lat="44.214112758636475" lon="11.385655403137207">
        <ele>803</ele>
        <time>2003-12-08T11:02:36Z</time>
      </trkpt>
      <trkpt lat="44.214241504669189" lon="11.38533353805542">
        <ele>800</ele>
        <time>2003-12-08T11:02:39Z</time>
      </trkpt>
      <trkpt lat="44.214413166046143" lon="11.384861469268799">
        <ele>797</ele>
        <time>2003-12-08T11:02:43Z</time>
      </trkpt>
      <trkpt lat="44.214498996734619" lon="11.384775638580322">
        <ele>796</ele>
        <time>2003-12-08T11:02:44Z</time>
      </trkpt>
      <trkpt lat="44.21473503112793" lon="11.384518062695861">
        <ele>792</ele>
        <time>2003-12-08T11:02:47Z</time>
      </trkpt>
      <trkpt lat="44.214949607849121" lon="11.384282112121582">
        <ele>788</ele>
        <time>2003-12-08T11:02:50Z</time>
      </trkpt>
      <trkpt lat="44.215292930603027" lon="11.384196281433105">
        <ele>783</ele>
        <time>2003-12-08T11:02:56Z</time>
      </trkpt>
      <trkpt lat="44.215400218963623" lon="11.384131908416748">
        <ele>782</ele>
        <time>2003-12-08T11:02:58Z</time>
      </trkpt>
      <trkpt lat="44.215443134307861" lon="11.384003162384033">
        <ele>781</ele>
        <time>2003-12-08T11:03:00Z</time>
      </trkpt>
      <trkpt lat="44.215593338012695" lon="11.383509635925293">
        <ele>777</ele>
        <time>2003-12-08T11:03:05Z</time>
      </trkpt>
      <trkpt lat="44.215850830078125" lon="11.383059024810791">
        <ele>774</ele>
        <time>2003-12-08T11:03:10Z</time>
      </trkpt>
      <trkpt lat="44.216151237487793" lon="11.38282299041748">
        <ele>770</ele>
        <time>2003-12-08T11:03:14Z</time>
      </trkpt>
      <trkpt lat="44.21623706817627" lon="11.382694160565734">
        <ele>767</ele>
        <time>2003-12-08T11:03:17Z</time>
      </trkpt>
      <trkpt lat="44.216258525848389" lon="11.382672786712646">
        <ele>766</ele>
        <time>2003-12-08T11:03:18Z</time>
      </trkpt>
      <trkpt lat="44.216301441192627" lon="11.382608413696289">
        <ele>765</ele>
        <time>2003-12-08T11:03:25Z</time>
      </trkpt>
      <trkpt lat="44.216322898864746" lon="11.382694160565734">
        <ele>765</ele>
        <time>2003-12-08T11:03:34Z</time>
      </trkpt>
      <trkpt lat="44.216365814208984" lon="11.382715702056885">
        <ele>765</ele>
        <time>2003-12-08T11:03:37Z</time>
      </trkpt>
      <trkpt lat="44.216644763946533" lon="11.382436836138368">
        <ele>762</ele>
        <time>2003-12-08T11:03:49Z</time>
      </trkpt>
      <trkpt lat="44.216666221618652" lon="11.382393836975098">
        <ele>762</ele>
        <time>2003-12-08T11:03:50Z</time>
      </trkpt>
      <trkpt lat="44.216516017913818" lon="11.382222175598145">
        <ele>761</ele>
        <time>2003-12-08T11:03:51Z</time>
      </trkpt>
      <trkpt lat="44.216580390930176" lon="11.382050514221191">
        <ele>760</ele>
        <time>2003-12-08T11:03:56Z</time>
      </trkpt>
      <trkpt lat="44.216902339830995" lon="11.38209342956543">
        <ele>760</ele>
        <time>2003-12-08T11:04:11Z</time>
      </trkpt>
      <trkpt lat="44.216923713684082" lon="11.38209342956543">
        <ele>761</ele>
        <time>2003-12-08T11:05:07Z</time>
      </trkpt>
      <trkpt lat="44.217009460553527" lon="11.38209342956543">
        <ele>760</ele>
        <time>2003-12-08T11:05:11Z</time>
      </trkpt>
      <trkpt lat="44.217095375061035" lon="11.382114887237549">
        <ele>760</ele>
        <time>2003-12-08T11:05:14Z</time>
      </trkpt>
      <trkpt lat="44.217245578765869" lon="11.382114887237549">
        <ele>758</ele>
        <time>2003-12-08T11:05:17Z</time>
      </trkpt>
      <trkpt lat="44.21748161315918" lon="11.382179260253906">
        <ele>754</ele>
        <time>2003-12-08T11:05:21Z</time>
      </trkpt>
      <trkpt lat="44.217674732208252" lon="11.382157802581787">
        <ele>750</ele>
        <time>2003-12-08T11:05:25Z</time>
      </trkpt>
      <trkpt lat="44.217760562896729" lon="11.382136261090636">
        <ele>747</ele>
        <time>2003-12-08T11:05:27Z</time>
      </trkpt>
      <trkpt lat="44.217889308929443" lon="11.381986141204834">
        <ele>744</ele>
        <time>2003-12-08T11:05:30Z</time>
      </trkpt>
      <trkpt lat="44.218060970306396" lon="11.381685733795166">
        <ele>740</ele>
        <time>2003-12-08T11:05:34Z</time>
      </trkpt>
      <trkpt lat="44.218146800994873" lon="11.381535530090332">
        <ele>736</ele>
        <time>2003-12-08T11:05:36Z</time>
      </trkpt>
      <trkpt lat="44.218189716339111" lon="11.381492614746094">
        <ele>734</ele>
        <time>2003-12-08T11:05:37Z</time>
      </trkpt>
      <trkpt lat="44.218275463208556" lon="11.381299495697021">
        <ele>731</ele>
        <time>2003-12-08T11:05:40Z</time>
      </trkpt>
      <trkpt lat="44.218339920043945" lon="11.381213665008545">
        <ele>729</ele>
        <time>2003-12-08T11:05:42Z</time>
      </trkpt>
      <trkpt lat="44.218382835388184" lon="11.381299495697021">
        <ele>725</ele>
        <time>2003-12-08T11:05:46Z</time>
      </trkpt>
      <trkpt lat="44.218404293060303" lon="11.381385326385498">
        <ele>724</ele>
        <time>2003-12-08T11:05:47Z</time>
      </trkpt>
      <trkpt lat="44.218640327453613" lon="11.381556987762451">
        <ele>720</ele>
        <time>2003-12-08T11:05:51Z</time>
      </trkpt>
      <trkpt lat="44.218919277191162" lon="11.381642818450928">
        <ele>716</ele>
        <time>2003-12-08T11:05:54Z</time>
      </trkpt>
      <trkpt lat="44.219198226928711" lon="11.381750106811523">
        <ele>711</ele>
        <time>2003-12-08T11:05:57Z</time>
      </trkpt>
      <trkpt lat="44.219498634338379" lon="11.38187893666327">
        <ele>707</ele>
        <time>2003-12-08T11:06:01Z</time>
      </trkpt>
      <trkpt lat="44.219734668731689" lon="11.382029140368104">
        <ele>703</ele>
        <time>2003-12-08T11:06:05Z</time>
      </trkpt>
      <trkpt lat="44.219734668731689" lon="11.382029140368104">
        <ele>702</ele>
        <time>2003-12-08T11:06:06Z</time>
      </trkpt>
      <trkpt lat="44.219691837206483" lon="11.381642818450928">
        <ele>701</ele>
        <time>2003-12-08T11:06:19Z</time>
      </trkpt>
      <trkpt lat="44.219670295715332" lon="11.381492614746094">
        <ele>700</ele>
        <time>2003-12-08T11:06:21Z</time>
      </trkpt>
      <trkpt lat="44.21971321105957" lon="11.380870258435607">
        <ele>697</ele>
        <time>2003-12-08T11:06:27Z</time>
      </trkpt>
      <trkpt lat="44.219627380371094" lon="11.380290985107422">
        <ele>698</ele>
        <time>2003-12-08T11:06:37Z</time>
      </trkpt>
      <trkpt lat="44.219284141436219" lon="11.379754459485412">
        <ele>699</ele>
        <time>2003-12-08T11:06:51Z</time>
      </trkpt>
      <trkpt lat="44.219198226928711" lon="11.379561424255371">
        <ele>699</ele>
        <time>2003-12-08T11:06:54Z</time>
      </trkpt>
      <trkpt lat="44.219176769256592" lon="11.379282474517822">
        <ele>699</ele>
        <time>2003-12-08T11:06:57Z</time>
      </trkpt>
      <trkpt lat="44.219090938568115" lon="11.378896236419678">
        <ele>701</ele>
        <time>2003-12-08T11:07:02Z</time>
      </trkpt>
      <trkpt lat="44.218854904174805" lon="11.378359794616699">
        <ele>701</ele>
        <time>2003-12-08T11:07:13Z</time>
      </trkpt>
      <trkpt lat="44.218254089355469" lon="11.377737522125244">
        <ele>699</ele>
        <time>2003-12-08T11:07:30Z</time>
      </trkpt>
      <trkpt lat="44.218039512634277" lon="11.377394199371338">
        <ele>696</ele>
        <time>2003-12-08T11:07:37Z</time>
      </trkpt>
      <trkpt lat="44.217889308929443" lon="11.377158164978027">
        <ele>693</ele>
        <time>2003-12-08T11:07:41Z</time>
      </trkpt>
      <trkpt lat="44.217910766601563" lon="11.376879215240479">
        <ele>689</ele>
        <time>2003-12-08T11:07:45Z</time>
      </trkpt>
      <trkpt lat="44.217910766601563" lon="11.376729011535645">
        <ele>687</ele>
        <time>2003-12-08T11:07:47Z</time>
      </trkpt>
      <trkpt lat="44.217867935076356" lon="11.376578807830811">
        <ele>686</ele>
        <time>2003-12-08T11:07:56Z</time>
      </trkpt>
      <trkpt lat="44.217824935913086" lon="11.376535892486572">
        <ele>688</ele>
        <time>2003-12-08T11:08:07Z</time>
      </trkpt>
      <trkpt lat="44.217739105224609" lon="11.376042366027832">
        <ele>692</ele>
        <time>2003-12-08T11:08:26Z</time>
      </trkpt>
      <trkpt lat="44.217545986175537" lon="11.375806331634521">
        <ele>696</ele>
        <time>2003-12-08T11:08:37Z</time>
      </trkpt>
      <trkpt lat="44.217524528503418" lon="11.375806331634521">
        <ele>697</ele>
        <time>2003-12-08T11:08:39Z</time>
      </trkpt>
      <trkpt lat="44.217438697814941" lon="11.375849163159728">
        <ele>699</ele>
        <time>2003-12-08T11:08:43Z</time>
      </trkpt>
      <trkpt lat="44.217288494110107" lon="11.375849163159728">
        <ele>701</ele>
        <time>2003-12-08T11:08:58Z</time>
      </trkpt>
      <trkpt lat="44.217310035601258" lon="11.37529126368463">
        <ele>699</ele>
        <time>2003-12-08T11:09:15Z</time>
      </trkpt>
      <trkpt lat="44.217374324798584" lon="11.374948024749756">
        <ele>696</ele>
        <time>2003-12-08T11:09:22Z</time>
      </trkpt>
      <trkpt lat="44.217395782470703" lon="11.37488373555243">
        <ele>695</ele>
        <time>2003-12-08T11:09:23Z</time>
      </trkpt>
      <trkpt lat="44.217417240142822" lon="11.374669075012207">
        <ele>694</ele>
        <time>2003-12-08T11:09:26Z</time>
      </trkpt>
      <trkpt lat="44.217524528503418" lon="11.374411582946777">
        <ele>692</ele>
        <time>2003-12-08T11:09:29Z</time>
      </trkpt>
      <trkpt lat="44.217674732208252" lon="11.374175464734435">
        <ele>693</ele>
        <time>2003-12-08T11:09:34Z</time>
      </trkpt>
      <trkpt lat="44.217953681945801" lon="11.373939514160156">
        <ele>693</ele>
        <time>2003-12-08T11:09:43Z</time>
      </trkpt>
      <trkpt lat="44.218404293060303" lon="11.373703479766846">
        <ele>689</ele>
        <time>2003-12-08T11:09:55Z</time>
      </trkpt>
      <trkpt lat="44.218511581420898" lon="11.373682022094727">
        <ele>688</ele>
        <time>2003-12-08T11:09:58Z</time>
      </trkpt>
      <trkpt lat="44.218576038256288" lon="11.373682022094727">
        <ele>686</ele>
        <time>2003-12-08T11:10:00Z</time>
      </trkpt>
      <trkpt lat="44.218661785125732" lon="11.373703479766846">
        <ele>683</ele>
        <time>2003-12-08T11:10:03Z</time>
      </trkpt>
      <trkpt lat="44.21872615814209" lon="11.373703479766846">
        <ele>682</ele>
        <time>2003-12-08T11:10:05Z</time>
      </trkpt>
      <trkpt lat="44.218833362683654" lon="11.373403072357178">
        <ele>679</ele>
        <time>2003-12-08T11:10:15Z</time>
      </trkpt>
      <trkpt lat="44.218854904174805" lon="11.373274326324463">
        <ele>677</ele>
        <time>2003-12-08T11:10:18Z</time>
      </trkpt>
      <trkpt lat="44.218854904174805" lon="11.373210037127137">
        <ele>675</ele>
        <time>2003-12-08T11:10:20Z</time>
      </trkpt>
      <trkpt lat="44.218876361846924" lon="11.37310266494751">
        <ele>673</ele>
        <time>2003-12-08T11:10:23Z</time>
      </trkpt>
      <trkpt lat="44.218876361846924" lon="11.372995376586914">
        <ele>672</ele>
        <time>2003-12-08T11:10:26Z</time>
      </trkpt>
      <trkpt lat="44.218876361846924" lon="11.372888088226318">
        <ele>669</ele>
        <time>2003-12-08T11:10:29Z</time>
      </trkpt>
      <trkpt lat="44.218919277191162" lon="11.372673511505127">
        <ele>666</ele>
        <time>2003-12-08T11:10:46Z</time>
      </trkpt>
      <trkpt lat="44.218919277191162" lon="11.372630596160889">
        <ele>666</ele>
        <time>2003-12-08T11:10:49Z</time>
      </trkpt>
      <trkpt lat="44.218897819519043" lon="11.372544765472412">
        <ele>662</ele>
        <time>2003-12-08T11:10:53Z</time>
      </trkpt>
      <trkpt lat="44.218876361846924" lon="11.372523307800293">
        <ele>660</ele>
        <time>2003-12-08T11:10:55Z</time>
      </trkpt>
      <trkpt lat="44.218854904174805" lon="11.372480392456055">
        <ele>659</ele>
        <time>2003-12-08T11:10:57Z</time>
      </trkpt>
      <trkpt lat="44.218833362683654" lon="11.372437477111816">
        <ele>656</ele>
        <time>2003-12-08T11:11:00Z</time>
      </trkpt>
      <trkpt lat="44.218833362683654" lon="11.372416019439697">
        <ele>656</ele>
        <time>2003-12-08T11:11:01Z</time>
      </trkpt>
      <trkpt lat="44.218919277191162" lon="11.372308731079102">
        <ele>651</ele>
        <time>2003-12-08T11:11:06Z</time>
      </trkpt>
      <trkpt lat="44.218983734026551" lon="11.372201358899474">
        <ele>648</ele>
        <time>2003-12-08T11:11:09Z</time>
      </trkpt>
      <trkpt lat="44.219005107879639" lon="11.372072696685791">
        <ele>644</ele>
        <time>2003-12-08T11:11:12Z</time>
      </trkpt>
      <trkpt lat="44.219005107879639" lon="11.371986865997314">
        <ele>642</ele>
        <time>2003-12-08T11:11:14Z</time>
      </trkpt>
      <trkpt lat="44.218983734026551" lon="11.37179366312921">
        <ele>637</ele>
        <time>2003-12-08T11:11:19Z</time>
      </trkpt>
      <trkpt lat="44.218940734863281" lon="11.371729373931885">
        <ele>636</ele>
        <time>2003-12-08T11:11:21Z</time>
      </trkpt>
      <trkpt lat="44.218897819519043" lon="11.371665000915527">
        <ele>632</ele>
        <time>2003-12-08T11:11:24Z</time>
      </trkpt>
      <trkpt lat="44.218790531158447" lon="11.371643459424376">
        <ele>629</ele>
        <time>2003-12-08T11:11:27Z</time>
      </trkpt>
      <trkpt lat="44.218769073486328" lon="11.371643459424376">
        <ele>629</ele>
        <time>2003-12-08T11:11:28Z</time>
      </trkpt>
      <trkpt lat="44.218511581420898" lon="11.371750831604004">
        <ele>626</ele>
        <time>2003-12-08T11:11:34Z</time>
      </trkpt>
      <trkpt lat="44.218254089355469" lon="11.37183666229248">
        <ele>624</ele>
        <time>2003-12-08T11:11:40Z</time>
      </trkpt>
      <trkpt lat="44.218125259503722" lon="11.371879577636719">
        <ele>620</ele>
        <time>2003-12-08T11:11:43Z</time>
      </trkpt>
      <trkpt lat="44.218082427978516" lon="11.371901035308838">
        <ele>620</ele>
        <time>2003-12-08T11:11:44Z</time>
      </trkpt>
      <trkpt lat="44.21797513961792" lon="11.371944034472108">
        <ele>616</ele>
        <time>2003-12-08T11:11:47Z</time>
      </trkpt>
      <trkpt lat="44.217824935913086" lon="11.371986865997314">
        <ele>612</ele>
        <time>2003-12-08T11:11:51Z</time>
      </trkpt>
      <trkpt lat="44.217782020568848" lon="11.372029781341553">
        <ele>611</ele>
        <time>2003-12-08T11:11:53Z</time>
      </trkpt>
      <trkpt lat="44.217696189880371" lon="11.372094238176942">
        <ele>609</ele>
        <time>2003-12-08T11:12:04Z</time>
      </trkpt>
      <trkpt lat="44.217588901519775" lon="11.372137069702148">
        <ele>607</ele>
        <time>2003-12-08T11:12:10Z</time>
      </trkpt>
      <trkpt lat="44.217567360028625" lon="11.372287273406982">
        <ele>606</ele>
        <time>2003-12-08T11:12:26Z</time>
      </trkpt>
      <trkpt lat="44.217545986175537" lon="11.372265815734863">
        <ele>603</ele>
        <time>2003-12-08T11:12:43Z</time>
      </trkpt>
      <trkpt lat="44.217588901519775" lon="11.371922492980957">
        <ele>599</ele>
        <time>2003-12-08T11:12:47Z</time>
      </trkpt>
      <trkpt lat="44.217631816864014" lon="11.371772289276123">
        <ele>598</ele>
        <time>2003-12-08T11:12:49Z</time>
      </trkpt>
      <trkpt lat="44.217653274536133" lon="11.37160062789917">
        <ele>596</ele>
        <time>2003-12-08T11:12:51Z</time>
      </trkpt>
      <trkpt lat="44.217739105224609" lon="11.371514797210693">
        <ele>595</ele>
        <time>2003-12-08T11:12:54Z</time>
      </trkpt>
      <trkpt lat="44.217867935076356" lon="11.37138613499701">
        <ele>592</ele>
        <time>2003-12-08T11:12:59Z</time>
      </trkpt>
      <trkpt lat="44.21801813878119" lon="11.371300220489502">
        <ele>590</ele>
        <time>2003-12-08T11:13:08Z</time>
      </trkpt>
      <trkpt lat="44.218039512634277" lon="11.371278762817383">
        <ele>590</ele>
        <time>2003-12-08T11:13:11Z</time>
      </trkpt>
      <trkpt lat="44.21821117401123" lon="11.371235763654113">
        <ele>588</ele>
        <time>2003-12-08T11:13:20Z</time>
      </trkpt>
      <trkpt lat="44.218339920043945" lon="11.371171474456787">
        <ele>584</ele>
        <time>2003-12-08T11:13:27Z</time>
      </trkpt>
      <trkpt lat="44.218425834551454" lon="11.37110710144043">
        <ele>582</ele>
        <time>2003-12-08T11:13:32Z</time>
      </trkpt>
      <trkpt lat="44.218833362683654" lon="11.370828235521913">
        <ele>584</ele>
        <time>2003-12-08T11:14:22Z</time>
      </trkpt>
      <trkpt lat="44.21868315897882" lon="11.370656490325928">
        <ele>585</ele>
        <time>2003-12-08T11:14:30Z</time>
      </trkpt>
      <trkpt lat="44.218640327453613" lon="11.370420539751649">
        <ele>586</ele>
        <time>2003-12-08T11:14:38Z</time>
      </trkpt>
      <trkpt lat="44.218876361846924" lon="11.369991302490234">
        <ele>583</ele>
        <time>2003-12-08T11:14:54Z</time>
      </trkpt>
      <trkpt lat="44.219069480895996" lon="11.369884014129639">
        <ele>581</ele>
        <time>2003-12-08T11:15:04Z</time>
      </trkpt>
      <trkpt lat="44.219112396240234" lon="11.369819641113281">
        <ele>581</ele>
        <time>2003-12-08T11:15:07Z</time>
      </trkpt>
      <trkpt lat="44.219176769256592" lon="11.369798183441162">
        <ele>580</ele>
        <time>2003-12-08T11:15:11Z</time>
      </trkpt>
      <trkpt lat="44.21947717666626" lon="11.369776725769043">
        <ele>579</ele>
        <time>2003-12-08T11:15:19Z</time>
      </trkpt>
      <trkpt lat="44.219777584075928" lon="11.369712436571717">
        <ele>575</ele>
        <time>2003-12-08T11:15:26Z</time>
      </trkpt>
      <trkpt lat="44.219842040911317" lon="11.369712436571717">
        <ele>574</ele>
        <time>2003-12-08T11:15:27Z</time>
      </trkpt>
      <trkpt lat="44.220163822174072" lon="11.369583606719971">
        <ele>570</ele>
        <time>2003-12-08T11:15:32Z</time>
      </trkpt>
      <trkpt lat="44.220335483551025" lon="11.369497776031494">
        <ele>566</ele>
        <time>2003-12-08T11:15:34Z</time>
      </trkpt>
      <trkpt lat="44.220571517944336" lon="11.369411861523986">
        <ele>562</ele>
        <time>2003-12-08T11:15:37Z</time>
      </trkpt>
      <trkpt lat="44.220635890960693" lon="11.369369029998779">
        <ele>562</ele>
        <time>2003-12-08T11:15:38Z</time>
      </trkpt>
      <trkpt lat="44.220786094665527" lon="11.369304740801454">
        <ele>557</ele>
        <time>2003-12-08T11:15:41Z</time>
      </trkpt>
      <trkpt lat="44.220893383026123" lon="11.369261741638184">
        <ele>556</ele>
        <time>2003-12-08T11:15:44Z</time>
      </trkpt>
      <trkpt lat="44.220957839861512" lon="11.36909008026123">
        <ele>553</ele>
        <time>2003-12-08T11:15:48Z</time>
      </trkpt>
      <trkpt lat="44.221064960584044" lon="11.368296062573791">
        <ele>552</ele>
        <time>2003-12-08T11:16:04Z</time>
      </trkpt>
      <trkpt lat="44.221129417419434" lon="11.368081569671631">
        <ele>551</ele>
        <time>2003-12-08T11:16:08Z</time>
      </trkpt>
      <trkpt lat="44.221150875091553" lon="11.367073059082031">
        <ele>550</ele>
        <time>2003-12-08T11:16:27Z</time>
      </trkpt>
      <trkpt lat="44.221172332763672" lon="11.366837024688721">
        <ele>550</ele>
        <time>2003-12-08T11:16:34Z</time>
      </trkpt>
      <trkpt lat="44.221236705780029" lon="11.366794109344482">
        <ele>550</ele>
        <time>2003-12-08T11:16:46Z</time>
      </trkpt>
      <trkpt lat="44.221343994140625" lon="11.366751194000244">
        <ele>550</ele>
        <time>2003-12-08T11:17:30Z</time>
      </trkpt>
      <trkpt lat="44.22151573933661" lon="11.366536617279053">
        <ele>549</ele>
        <time>2003-12-08T11:17:35Z</time>
      </trkpt>
      <trkpt lat="44.221558570861816" lon="11.36610746383667">
        <ele>545</ele>
        <time>2003-12-08T11:17:44Z</time>
      </trkpt>
      <trkpt lat="44.22151573933661" lon="11.365678310394287">
        <ele>542</ele>
        <time>2003-12-08T11:17:51Z</time>
      </trkpt>
      <trkpt lat="44.22151573933661" lon="11.365592479705811">
        <ele>541</ele>
        <time>2003-12-08T11:17:52Z</time>
      </trkpt>
      <trkpt lat="44.221773063763976" lon="11.365056037902832">
        <ele>538</ele>
        <time>2003-12-08T11:17:59Z</time>
      </trkpt>
      <trkpt lat="44.221837520599365" lon="11.365013122558594">
        <ele>537</ele>
        <time>2003-12-08T11:18:00Z</time>
      </trkpt>
      <trkpt lat="44.222095012664795" lon="11.364820003509521">
        <ele>531</ele>
        <time>2003-12-08T11:18:04Z</time>
      </trkpt>
      <trkpt lat="44.222245216369629" lon="11.364691341295838">
        <ele>527</ele>
        <time>2003-12-08T11:18:07Z</time>
      </trkpt>
      <trkpt lat="44.222416877746582" lon="11.364433765411377">
        <ele>523</ele>
        <time>2003-12-08T11:18:11Z</time>
      </trkpt>
      <trkpt lat="44.222545623779297" lon="11.364240562543273">
        <ele>519</ele>
        <time>2003-12-08T11:18:14Z</time>
      </trkpt>
      <trkpt lat="44.222588539123535" lon="11.364176273345947">
        <ele>519</ele>
        <time>2003-12-08T11:18:15Z</time>
      </trkpt>
      <trkpt lat="44.222695827484131" lon="11.364090358838439">
        <ele>518</ele>
        <time>2003-12-08T11:18:17Z</time>
      </trkpt>
      <trkpt lat="44.222867488861084" lon="11.364026069641113">
        <ele>514</ele>
        <time>2003-12-08T11:18:20Z</time>
      </trkpt>
      <trkpt lat="44.223017692565918" lon="11.363940238952637">
        <ele>511</ele>
        <time>2003-12-08T11:18:23Z</time>
      </trkpt>
      <trkpt lat="44.223296558484435" lon="11.363811492919922">
        <ele>508</ele>
        <time>2003-12-08T11:18:28Z</time>
      </trkpt>
      <trkpt lat="44.223489761352539" lon="11.363661289215088">
        <ele>506</ele>
        <time>2003-12-08T11:18:31Z</time>
      </trkpt>
      <trkpt lat="44.223618507385254" lon="11.363532459363341">
        <ele>502</ele>
        <time>2003-12-08T11:18:33Z</time>
      </trkpt>
      <trkpt lat="44.22396183013916" lon="11.363275134935975">
        <ele>498</ele>
        <time>2003-12-08T11:18:38Z</time>
      </trkpt>
      <trkpt lat="44.224004661664367" lon="11.363232135772705">
        <ele>498</ele>
        <time>2003-12-08T11:18:39Z</time>
      </trkpt>
      <trkpt lat="44.224283695220947" lon="11.363017559051514">
        <ele>494</ele>
        <time>2003-12-08T11:18:43Z</time>
      </trkpt>
      <trkpt lat="44.224541187286377" lon="11.362888813018799">
        <ele>493</ele>
        <time>2003-12-08T11:18:46Z</time>
      </trkpt>
      <trkpt lat="44.224798679351807" lon="11.362760066986084">
        <ele>489</ele>
        <time>2003-12-08T11:18:49Z</time>
      </trkpt>
      <trkpt lat="44.224884510040283" lon="11.362717235460877">
        <ele>485</ele>
        <time>2003-12-08T11:18:51Z</time>
      </trkpt>
      <trkpt lat="44.224927425384521" lon="11.362695693969727">
        <ele>483</ele>
        <time>2003-12-08T11:18:53Z</time>
      </trkpt>
      <trkpt lat="44.22497034072876" lon="11.362674236297607">
        <ele>483</ele>
        <time>2003-12-08T11:19:03Z</time>
      </trkpt>
      <trkpt lat="44.225056171417236" lon="11.362631320953369">
        <ele>481</ele>
        <time>2003-12-08T11:19:05Z</time>
      </trkpt>
      <trkpt lat="44.225313663482666" lon="11.362459659576416">
        <ele>477</ele>
        <time>2003-12-08T11:19:10Z</time>
      </trkpt>
      <trkpt lat="44.2254638671875" lon="11.362330913543701">
        <ele>475</ele>
        <time>2003-12-08T11:19:13Z</time>
      </trkpt>
      <trkpt lat="44.225764274597168" lon="11.362094879150391">
        <ele>472</ele>
        <time>2003-12-08T11:19:18Z</time>
      </trkpt>
      <trkpt lat="44.226107597351074" lon="11.361901760101318">
        <ele>470</ele>
        <time>2003-12-08T11:19:23Z</time>
      </trkpt>
      <trkpt lat="44.226257801055908" lon="11.361837387084961">
        <ele>468</ele>
        <time>2003-12-08T11:19:25Z</time>
      </trkpt>
      <trkpt lat="44.226493835449219" lon="11.361665725708008">
        <ele>464</ele>
        <time>2003-12-08T11:19:30Z</time>
      </trkpt>
      <trkpt lat="44.22645092010498" lon="11.361236572265625">
        <ele>461</ele>
        <time>2003-12-08T11:19:35Z</time>
      </trkpt>
      <trkpt lat="44.226171970367432" lon="11.360957622528076">
        <ele>457</ele>
        <time>2003-12-08T11:19:39Z</time>
      </trkpt>
      <trkpt lat="44.226086139678955" lon="11.360914707183838">
        <ele>457</ele>
        <time>2003-12-08T11:19:40Z</time>
      </trkpt>
      <trkpt lat="44.225699901580811" lon="11.360764503479004">
        <ele>453</ele>
        <time>2003-12-08T11:19:44Z</time>
      </trkpt>
      <trkpt lat="44.2254638671875" lon="11.360678672790527">
        <ele>449</ele>
        <time>2003-12-08T11:19:47Z</time>
      </trkpt>
      <trkpt lat="44.225399494171143" lon="11.360657215118408">
        <ele>448</ele>
        <time>2003-12-08T11:19:48Z</time>
      </trkpt>
      <trkpt lat="44.225227832794189" lon="11.36035680770874">
        <ele>446</ele>
        <time>2003-12-08T11:19:55Z</time>
      </trkpt>
      <trkpt lat="44.225335121154785" lon="11.360206604003906">
        <ele>445</ele>
        <time>2003-12-08T11:19:57Z</time>
      </trkpt>
      <trkpt lat="44.225485324859619" lon="11.359949111938477">
        <ele>443</ele>
        <time>2003-12-08T11:20:00Z</time>
      </trkpt>
      <trkpt lat="44.22572135925293" lon="11.359713077545166">
        <ele>439</ele>
        <time>2003-12-08T11:20:03Z</time>
      </trkpt>
      <trkpt lat="44.22595739364624" lon="11.359498500823975">
        <ele>434</ele>
        <time>2003-12-08T11:20:06Z</time>
      </trkpt>
      <trkpt lat="44.226021766662598" lon="11.359434127807617">
        <ele>431</ele>
        <time>2003-12-08T11:20:07Z</time>
      </trkpt>
      <trkpt lat="44.22621488571167" lon="11.358790397644043">
        <ele>429</ele>
        <time>2003-12-08T11:20:10Z</time>
      </trkpt>
      <trkpt lat="44.226386463269591" lon="11.358790397644043">
        <ele>425</ele>
        <time>2003-12-08T11:20:13Z</time>
      </trkpt>
      <trkpt lat="44.2264723777771" lon="11.358790397644043">
        <ele>421</ele>
        <time>2003-12-08T11:20:16Z</time>
      </trkpt>
      <trkpt lat="44.226493835449219" lon="11.358790397644043">
        <ele>421</ele>
        <time>2003-12-08T11:20:17Z</time>
      </trkpt>
      <trkpt lat="44.226536834612489" lon="11.358962059020996">
        <ele>419</ele>
        <time>2003-12-08T11:20:23Z</time>
      </trkpt>
      <trkpt lat="44.226343631744385" lon="11.359047889709473">
        <ele>422</ele>
        <time>2003-12-08T11:20:31Z</time>
      </trkpt>
      <trkpt lat="44.226257801055908" lon="11.35911226272583">
        <ele>423</ele>
        <time>2003-12-08T11:20:34Z</time>
      </trkpt>
      <trkpt lat="44.226257801055908" lon="11.359219634905457">
        <ele>424</ele>
        <time>2003-12-08T11:20:38Z</time>
      </trkpt>
      <trkpt lat="44.226365089416504" lon="11.359326839447021">
        <ele>426</ele>
        <time>2003-12-08T11:20:44Z</time>
      </trkpt>
      <trkpt lat="44.226429462432861" lon="11.359369838610291">
        <ele>428</ele>
        <time>2003-12-08T11:20:48Z</time>
      </trkpt>
      <trkpt lat="44.226558208465576" lon="11.359455585479736">
        <ele>429</ele>
        <time>2003-12-08T11:20:57Z</time>
      </trkpt>
      <trkpt lat="44.227051734924316" lon="11.359498500823975">
        <ele>428</ele>
        <time>2003-12-08T11:21:18Z</time>
      </trkpt>
      <trkpt lat="44.227266311645508" lon="11.35960578918457">
        <ele>425</ele>
        <time>2003-12-08T11:21:27Z</time>
      </trkpt>
      <trkpt lat="44.227287769317627" lon="11.359627163037658">
        <ele>426</ele>
        <time>2003-12-08T11:21:28Z</time>
      </trkpt>
      <trkpt lat="44.227352058514953" lon="11.359691619873047">
        <ele>424</ele>
        <time>2003-12-08T11:21:30Z</time>
      </trkpt>
      <trkpt lat="44.227502262219787" lon="11.359884738922119">
        <ele>423</ele>
        <time>2003-12-08T11:21:40Z</time>
      </trkpt>
      <trkpt lat="44.227609634399414" lon="11.359970569610596">
        <ele>424</ele>
        <time>2003-12-08T11:21:52Z</time>
      </trkpt>
      <trkpt lat="44.227674007415771" lon="11.359992027282715">
        <ele>426</ele>
        <time>2003-12-08T11:21:58Z</time>
      </trkpt>
      <trkpt lat="44.227759838104248" lon="11.360034858807921">
        <ele>430</ele>
        <time>2003-12-08T11:22:19Z</time>
      </trkpt>
      <trkpt lat="44.227802837267518" lon="11.360056400299072">
        <ele>436</ele>
        <time>2003-12-08T11:22:39Z</time>
      </trkpt>
      <trkpt lat="44.227824211120605" lon="11.360056400299072">
        <ele>436</ele>
        <time>2003-12-08T11:22:40Z</time>
      </trkpt>
      <trkpt lat="44.227824211120605" lon="11.360056400299072">
        <ele>437</ele>
        <time>2003-12-08T11:22:44Z</time>
      </trkpt>
      <trkpt lat="44.227845668792725" lon="11.359992027282715">
        <ele>434</ele>
        <time>2003-12-08T11:23:04Z</time>
      </trkpt>
      <trkpt lat="44.227824211120605" lon="11.359949111938477">
        <ele>429</ele>
        <time>2003-12-08T11:23:13Z</time>
      </trkpt>
      <trkpt lat="44.227802837267518" lon="11.359906196594238">
        <ele>429</ele>
        <time>2003-12-08T11:23:17Z</time>
      </trkpt>
      <trkpt lat="44.227781295776367" lon="11.359798908233643">
        <ele>426</ele>
        <time>2003-12-08T11:23:22Z</time>
      </trkpt>
      <trkpt lat="44.227802837267518" lon="11.359541416168213">
        <ele>422</ele>
        <time>2003-12-08T11:23:31Z</time>
      </trkpt>
      <trkpt lat="44.227845668792725" lon="11.359455585479736">
        <ele>420</ele>
        <time>2003-12-08T11:23:35Z</time>
      </trkpt>
      <trkpt lat="44.227931499481201" lon="11.359412670135498">
        <ele>419</ele>
        <time>2003-12-08T11:23:53Z</time>
      </trkpt>
      <trkpt lat="44.227867126464844" lon="11.359369838610291">
        <ele>421</ele>
        <time>2003-12-08T11:23:59Z</time>
      </trkpt>
      <trkpt lat="44.227802837267518" lon="11.359326839447021">
        <ele>419</ele>
        <time>2003-12-08T11:24:09Z</time>
      </trkpt>
      <trkpt lat="44.227738380432129" lon="11.359305381774902">
        <ele>417</ele>
        <time>2003-12-08T11:24:16Z</time>
      </trkpt>
      <trkpt lat="44.227695465087891" lon="11.359283924102783">
        <ele>413</ele>
        <time>2003-12-08T11:24:21Z</time>
      </trkpt>
      <trkpt lat="44.227674007415771" lon="11.359198093414307">
        <ele>410</ele>
        <time>2003-12-08T11:24:31Z</time>
      </trkpt>
      <trkpt lat="44.227609634399414" lon="11.35911226272583">
        <ele>407</ele>
        <time>2003-12-08T11:24:42Z</time>
      </trkpt>
      <trkpt lat="44.227588176727295" lon="11.359047889709473">
        <ele>407</ele>
        <time>2003-12-08T11:25:04Z</time>
      </trkpt>
      <trkpt lat="44.227631092071533" lon="11.358983516693115">
        <ele>408</ele>
        <time>2003-12-08T11:25:23Z</time>
      </trkpt>
      <trkpt lat="44.228017330169678" lon="11.3588547706604">
        <ele>407</ele>
        <time>2003-12-08T11:25:35Z</time>
      </trkpt>
      <trkpt lat="44.228124618530273" lon="11.358897686004639">
        <ele>406</ele>
        <time>2003-12-08T11:25:37Z</time>
      </trkpt>
      <trkpt lat="44.228274822235107" lon="11.358940601348877">
        <ele>405</ele>
        <time>2003-12-08T11:25:40Z</time>
      </trkpt>
      <trkpt lat="44.229004383087158" lon="11.358790397644043">
        <ele>401</ele>
        <time>2003-12-08T11:25:52Z</time>
      </trkpt>
      <trkpt lat="44.229776859283447" lon="11.358983516693115">
        <ele>398</ele>
        <time>2003-12-08T11:26:03Z</time>
      </trkpt>
      <trkpt lat="44.230077266693115" lon="11.359176635742188">
        <ele>394</ele>
        <time>2003-12-08T11:26:07Z</time>
      </trkpt>
      <trkpt lat="44.230291759595275" lon="11.359498500823975">
        <ele>393</ele>
        <time>2003-12-08T11:26:11Z</time>
      </trkpt>
      <trkpt lat="44.23046350479126" lon="11.359755992889404">
        <ele>391</ele>
        <time>2003-12-08T11:26:14Z</time>
      </trkpt>
      <trkpt lat="44.23069953918457" lon="11.360077941790223">
        <ele>388</ele>
        <time>2003-12-08T11:26:18Z</time>
      </trkpt>
      <trkpt lat="44.230806827545166" lon="11.360249519348145">
        <ele>387</ele>
        <time>2003-12-08T11:26:20Z</time>
      </trkpt>
      <trkpt lat="44.231107234954834" lon="11.360507011413574">
        <ele>385</ele>
        <time>2003-12-08T11:26:24Z</time>
      </trkpt>
      <trkpt lat="44.231386184692383" lon="11.360442638397217">
        <ele>385</ele>
        <time>2001-12-23T10:59:28Z</time>
      </trkpt>
      <trkpt lat="44.231750965118408" lon="11.360399723052979">
        <ele>380</ele>
        <time>2001-12-23T10:59:32Z</time>
      </trkpt>
      <trkpt lat="44.232158660888672" lon="11.360571384429932">
        <ele>380</ele>
        <time>2001-12-23T10:59:37Z</time>
      </trkpt>
      <trkpt lat="44.232287406921387" lon="11.360678672790527">
        <ele>380</ele>
        <time>2001-12-23T10:59:39Z</time>
      </trkpt>
      <trkpt lat="44.233081340789795" lon="11.361536979675293">
        <ele>380</ele>
        <time>2001-12-23T10:59:54Z</time>
      </trkpt>
      <trkpt lat="44.234068393707275" lon="11.362137794494629">
        <ele>380</ele>
        <time>2001-12-23T11:00:12Z</time>
      </trkpt>
      <trkpt lat="44.234626293182373" lon="11.362416660413146">
        <ele>380</ele>
        <time>2001-12-23T11:00:27Z</time>
      </trkpt>
      <trkpt lat="44.235184192657471" lon="11.362674236297607">
        <ele>380</ele>
        <time>2001-12-23T11:00:44Z</time>
      </trkpt>
      <trkpt lat="44.235870838165283" lon="11.36310338973999">
        <ele>380</ele>
        <time>2001-12-23T11:01:06Z</time>
      </trkpt>
      <trkpt lat="44.236085414886475" lon="11.363296508789063">
        <ele>370</ele>
        <time>2003-12-08T11:35:56Z</time>
      </trkpt>
      <trkpt lat="44.236664772033691" lon="11.363575458526611">
        <ele>370</ele>
        <time>2003-12-08T11:36:13Z</time>
      </trkpt>
      <trkpt lat="44.237179839983582" lon="11.363811492919922">
        <ele>360</ele>
        <time>2003-12-08T11:36:24Z</time>
      </trkpt>
      <trkpt lat="44.237909317016602" lon="11.364305019378662">
        <ele>355</ele>
        <time>2003-12-08T11:36:35Z</time>
      </trkpt>
      <trkpt lat="44.238016605377197" lon="11.364412307739258">
        <ele>350</ele>
        <time>2003-12-08T11:36:37Z</time>
      </trkpt>
      <trkpt lat="44.23820972442627" lon="11.364519596099854">
        <ele>350</ele>
        <time>2003-12-08T11:36:40Z</time>
      </trkpt>
      <trkpt lat="44.238681793212891" lon="11.364648258313537">
        <ele>350</ele>
        <time>2003-12-08T11:36:47Z</time>
      </trkpt>
      <trkpt lat="44.239025115966797" lon="11.364712715148926">
        <ele>345</ele>
        <time>2003-12-08T11:36:52Z</time>
      </trkpt>
      <trkpt lat="44.239411437883973" lon="11.365056037902832">
        <ele>345</ele>
        <time>2003-12-08T11:36:59Z</time>
      </trkpt>
      <trkpt lat="44.23969030380249" lon="11.365399360656738">
        <ele>345</ele>
        <time>2003-12-08T11:37:05Z</time>
      </trkpt>
      <trkpt lat="44.239990711212158" lon="11.365571022033691">
        <ele>345</ele>
        <time>2003-12-08T11:37:10Z</time>
      </trkpt>
      <trkpt lat="44.24044132232666" lon="11.365785598754883">
        <ele>345</ele>
        <time>2003-12-08T11:37:16Z</time>
      </trkpt>
      <trkpt lat="44.240934764966369" lon="11.366021633148193">
        <ele>340</ele>
        <time>2003-12-08T11:37:22Z</time>
      </trkpt>
      <trkpt lat="44.241385459899902" lon="11.366021633148193">
        <ele>350</ele>
        <time>2003-12-08T11:37:27Z</time>
      </trkpt>
      <trkpt lat="44.241664409637451" lon="11.366386413574219">
        <ele>350</ele>
        <time>2003-12-08T11:37:32Z</time>
      </trkpt>
      <trkpt lat="44.241707324981689" lon="11.366794109344482">
        <ele>350</ele>
        <time>2003-12-08T11:37:35Z</time>
      </trkpt>
      <trkpt lat="44.241728782653809" lon="11.366922939196229">
        <ele>350</ele>
        <time>2003-12-08T11:37:36Z</time>
      </trkpt>
      <trkpt lat="44.241771697998047" lon="11.367180263623595">
        <ele>350</ele>
        <time>2003-12-08T11:37:38Z</time>
      </trkpt>
      <trkpt lat="44.242115020751953" lon="11.36760950088501">
        <ele>350</ele>
        <time>2003-12-08T11:37:43Z</time>
      </trkpt>
      <trkpt lat="44.242544174194336" lon="11.367909908294678">
        <ele>350</ele>
        <time>2003-12-08T11:37:48Z</time>
      </trkpt>
      <trkpt lat="44.242630004882812" lon="11.367974281311035">
        <ele>350</ele>
        <time>2003-12-08T11:37:49Z</time>
      </trkpt>
      <trkpt lat="44.242801666259766" lon="11.367974281311035">
        <ele>350</ele>
        <time>2003-12-08T11:37:51Z</time>
      </trkpt>
      <trkpt lat="44.242994785308838" lon="11.367974281311035">
        <ele>345</ele>
        <time>2003-12-08T11:37:53Z</time>
      </trkpt>
      <trkpt lat="44.243402481079102" lon="11.368296062573791">
        <ele>340</ele>
        <time>2003-12-08T11:37:58Z</time>
      </trkpt>
      <trkpt lat="44.243466937914491" lon="11.368381977081299">
        <ele>340</ele>
        <time>2003-12-08T11:37:59Z</time>
      </trkpt>
      <trkpt lat="44.243831634521484" lon="11.369132995605469">
        <ele>340</ele>
        <time>2003-12-08T11:38:06Z</time>
      </trkpt>
      <trkpt lat="44.244024837389588" lon="11.369519233703613">
        <ele>340</ele>
        <time>2003-12-08T11:38:10Z</time>
      </trkpt>
      <trkpt lat="44.244131958112121" lon="11.369733810424805">
        <ele>349</ele>
        <time>2003-12-08T11:38:13Z</time>
      </trkpt>
      <trkpt lat="44.244368076324463" lon="11.370291709899902">
        <ele>346</ele>
        <time>2003-12-08T11:38:21Z</time>
      </trkpt>
      <trkpt lat="44.244754314422607" lon="11.370871067047119">
        <ele>343</ele>
        <time>2003-12-08T11:38:29Z</time>
      </trkpt>
      <trkpt lat="44.245119094848633" lon="11.371815204620361">
        <ele>339</ele>
        <time>2003-12-08T11:38:39Z</time>
      </trkpt>
      <trkpt lat="44.245162010192871" lon="11.371901035308838">
        <ele>339</ele>
        <time>2003-12-08T11:38:40Z</time>
      </trkpt>
      <trkpt lat="44.245247840881348" lon="11.372072696685791">
        <ele>338</ele>
        <time>2003-12-08T11:38:42Z</time>
      </trkpt>
      <trkpt lat="44.245505332946777" lon="11.372351562604308">
        <ele>337</ele>
        <time>2003-12-08T11:38:47Z</time>
      </trkpt>
      <trkpt lat="44.245698535814881" lon="11.372501933947206">
        <ele>336</ele>
        <time>2003-12-08T11:38:50Z</time>
      </trkpt>
      <trkpt lat="44.245913028717041" lon="11.372673511505127">
        <ele>334</ele>
        <time>2003-12-08T11:38:53Z</time>
      </trkpt>
      <trkpt lat="44.24619197845459" lon="11.372931003570557">
        <ele>331</ele>
        <time>2003-12-08T11:38:57Z</time>
      </trkpt>
      <trkpt lat="44.246578216552734" lon="11.373231410980225">
        <ele>329</ele>
        <time>2003-12-08T11:39:02Z</time>
      </trkpt>
      <trkpt lat="44.246985912322998" lon="11.373553276062012">
        <ele>327</ele>
        <time>2003-12-08T11:39:07Z</time>
      </trkpt>
      <trkpt lat="44.247758388519287" lon="11.374218463897705">
        <ele>326</ele>
        <time>2003-12-08T11:39:18Z</time>
      </trkpt>
      <trkpt lat="44.248337661847472" lon="11.375312805175781">
        <ele>324</ele>
        <time>2003-12-08T11:39:31Z</time>
      </trkpt>
      <trkpt lat="44.248509407043457" lon="11.375441635027528">
        <ele>324</ele>
        <time>2003-12-08T11:39:34Z</time>
      </trkpt>
      <trkpt lat="44.249517917633057" lon="11.376020908355713">
        <ele>324</ele>
        <time>2003-12-08T11:39:52Z</time>
      </trkpt>
      <trkpt lat="44.250333309173584" lon="11.37608528137207">
        <ele>326</ele>
        <time>2003-12-08T11:40:09Z</time>
      </trkpt>
      <trkpt lat="44.251213073730469" lon="11.376149738207459">
        <ele>328</ele>
        <time>2003-12-08T11:40:29Z</time>
      </trkpt>
      <trkpt lat="44.251599311828613" lon="11.37608528137207">
        <ele>329</ele>
        <time>2003-12-08T11:40:38Z</time>
      </trkpt>
      <trkpt lat="44.251856803894043" lon="11.375999534502625">
        <ele>329</ele>
        <time>2003-12-08T11:40:44Z</time>
      </trkpt>
      <trkpt lat="44.251985466107726" lon="11.375999534502625">
        <ele>330</ele>
        <time>2003-12-08T11:40:47Z</time>
      </trkpt>
      <trkpt lat="44.252286041155457" lon="11.376278400421143">
        <ele>331</ele>
        <time>2003-12-08T11:40:54Z</time>
      </trkpt>
      <trkpt lat="44.252736568450928" lon="11.377029418945313">
        <ele>331</ele>
        <time>2003-12-08T11:41:12Z</time>
      </trkpt>
      <trkpt lat="44.253144264221191" lon="11.377243995666504">
        <ele>332</ele>
        <time>2003-12-08T11:41:24Z</time>
      </trkpt>
      <trkpt lat="44.254131317138672" lon="11.377243995666504">
        <ele>333</ele>
        <time>2003-12-08T11:41:44Z</time>
      </trkpt>
      <trkpt lat="44.254345893859863" lon="11.3773512840271">
        <ele>334</ele>
        <time>2003-12-08T11:41:48Z</time>
      </trkpt>
      <trkpt lat="44.255311489105225" lon="11.37784481048584">
        <ele>334</ele>
        <time>2003-12-08T11:42:07Z</time>
      </trkpt>
      <trkpt lat="44.256491661071777" lon="11.378509998321533">
        <ele>331</ele>
        <time>2003-12-08T11:42:27Z</time>
      </trkpt>
      <trkpt lat="44.256985187530518" lon="11.378917694091797">
        <ele>329</ele>
        <time>2003-12-08T11:42:34Z</time>
      </trkpt>
      <trkpt lat="44.257371425628662" lon="11.379218101501465">
        <ele>326</ele>
        <time>2003-12-08T11:42:39Z</time>
      </trkpt>
      <trkpt lat="44.25745734013617" lon="11.379261016845703">
        <ele>326</ele>
        <time>2003-12-08T11:42:40Z</time>
      </trkpt>
      <trkpt lat="44.257628917694092" lon="11.379368305206299">
        <ele>325</ele>
        <time>2003-12-08T11:42:42Z</time>
      </trkpt>
      <trkpt lat="44.257993698120117" lon="11.379518508911133">
        <ele>321</ele>
        <time>2003-12-08T11:42:46Z</time>
      </trkpt>
      <trkpt lat="44.258251190185547" lon="11.379647338762879">
        <ele>319</ele>
        <time>2003-12-08T11:42:49Z</time>
      </trkpt>
      <trkpt lat="44.258723258972168" lon="11.379625797271729">
        <ele>315</ele>
        <time>2003-12-08T11:42:54Z</time>
      </trkpt>
      <trkpt lat="44.258894920349121" lon="11.379497135058045">
        <ele>314</ele>
        <time>2003-12-08T11:42:56Z</time>
      </trkpt>
      <trkpt lat="44.259495735168457" lon="11.379325389862061">
        <ele>309</ele>
        <time>2003-12-08T11:43:02Z</time>
      </trkpt>
      <trkpt lat="44.259603023529053" lon="11.379346763715148">
        <ele>309</ele>
        <time>2003-12-08T11:43:03Z</time>
      </trkpt>
      <trkpt lat="44.259967803955078" lon="11.379647338762879">
        <ele>305</ele>
        <time>2003-12-08T11:43:07Z</time>
      </trkpt>
      <trkpt lat="44.260246837511659" lon="11.379883289337158">
        <ele>304</ele>
        <time>2003-12-08T11:43:10Z</time>
      </trkpt>
      <trkpt lat="44.260611534118652" lon="11.380205238237977">
        <ele>301</ele>
        <time>2003-12-08T11:43:14Z</time>
      </trkpt>
      <trkpt lat="44.261276721954346" lon="11.380548477172852">
        <ele>296</ele>
        <time>2003-12-08T11:43:21Z</time>
      </trkpt>
      <trkpt lat="44.261834621429443" lon="11.380763137713075">
        <ele>294</ele>
        <time>2003-12-08T11:43:27Z</time>
      </trkpt>
      <trkpt lat="44.262177860364318" lon="11.380891799926758">
        <ele>292</ele>
        <time>2003-12-08T11:43:31Z</time>
      </trkpt>
      <trkpt lat="44.262349605560303" lon="11.380956172943115">
        <ele>290</ele>
        <time>2003-12-08T11:43:33Z</time>
      </trkpt>
      <trkpt lat="44.262650012969971" lon="11.381170665845275">
        <ele>290</ele>
        <time>2003-12-08T11:43:37Z</time>
      </trkpt>
      <trkpt lat="44.262778759002686" lon="11.381321037188172">
        <ele>290</ele>
        <time>2003-12-08T11:43:39Z</time>
      </trkpt>
      <trkpt lat="44.263122081756592" lon="11.381578361615539">
        <ele>289</ele>
        <time>2003-12-08T11:43:44Z</time>
      </trkpt>
      <trkpt lat="44.263551235198975" lon="11.381685733795166">
        <ele>289</ele>
        <time>2003-12-08T11:43:50Z</time>
      </trkpt>
      <trkpt lat="44.263958930969238" lon="11.381535530090332">
        <ele>287</ele>
        <time>2003-12-08T11:43:56Z</time>
      </trkpt>
      <trkpt lat="44.264130592346191" lon="11.381363868713379">
        <ele>287</ele>
        <time>2003-12-08T11:43:59Z</time>
      </trkpt>
      <trkpt lat="44.264366626739502" lon="11.381235122680664">
        <ele>287</ele>
        <time>2003-12-08T11:44:03Z</time>
      </trkpt>
      <trkpt lat="44.265267765149474" lon="11.381256580352783">
        <ele>286</ele>
        <time>2003-12-08T11:44:17Z</time>
      </trkpt>
      <trkpt lat="44.265396595001221" lon="11.381256580352783">
        <ele>285</ele>
        <time>2003-12-08T11:44:19Z</time>
      </trkpt>
      <trkpt lat="44.266211986541748" lon="11.381406784057617">
        <ele>286</ele>
        <time>2003-12-08T11:44:32Z</time>
      </trkpt>
      <trkpt lat="44.266834259033203" lon="11.381771564483643">
        <ele>289</ele>
        <time>2003-12-08T11:44:49Z</time>
      </trkpt>
      <trkpt lat="44.267628192901611" lon="11.382114887237549">
        <ele>289</ele>
        <time>2003-12-08T11:45:09Z</time>
      </trkpt>
      <trkpt lat="44.267799938097596" lon="11.382157802581787">
        <ele>289</ele>
        <time>2003-12-08T11:45:12Z</time>
      </trkpt>
      <trkpt lat="44.268078804016113" lon="11.382393836975098">
        <ele>290</ele>
        <time>2003-12-08T11:45:18Z</time>
      </trkpt>
      <trkpt lat="44.268679618835449" lon="11.38308048248291">
        <ele>289</ele>
        <time>2003-12-08T11:45:31Z</time>
      </trkpt>
      <trkpt lat="44.269065940752625" lon="11.383724212646484">
        <ele>289</ele>
        <time>2003-12-08T11:45:40Z</time>
      </trkpt>
      <trkpt lat="44.26990270614624" lon="11.384067535400391">
        <ele>288</ele>
        <time>2003-12-08T11:45:54Z</time>
      </trkpt>
      <trkpt lat="44.270224571228027" lon="11.384153366088867">
        <ele>287</ele>
        <time>2003-12-08T11:45:59Z</time>
      </trkpt>
      <trkpt lat="44.271619319915771" lon="11.384561061859131">
        <ele>285</ele>
        <time>2003-12-08T11:46:21Z</time>
      </trkpt>
      <trkpt lat="44.271855438128114" lon="11.384561061859131">
        <ele>284</ele>
        <time>2003-12-08T11:46:24Z</time>
      </trkpt>
      <trkpt lat="44.271919727325439" lon="11.38458251953125">
        <ele>284</ele>
        <time>2003-12-08T11:46:25Z</time>
      </trkpt>
      <trkpt lat="44.272670662030578" lon="11.385097503662109">
        <ele>281</ele>
        <time>2003-12-08T11:46:36Z</time>
      </trkpt>
      <trkpt lat="44.272692203521729" lon="11.385183334350586">
        <ele>282</ele>
        <time>2003-12-08T11:46:37Z</time>
      </trkpt>
      <trkpt lat="44.272863864898682" lon="11.386277675628662">
        <ele>278</ele>
        <time>2003-12-08T11:46:47Z</time>
      </trkpt>
      <trkpt lat="44.272778034210205" lon="11.386642539873719">
        <ele>278</ele>
        <time>2003-12-08T11:46:50Z</time>
      </trkpt>
      <trkpt lat="44.272949695587158" lon="11.387114524841309">
        <ele>275</ele>
        <time>2003-12-08T11:46:55Z</time>
      </trkpt>
      <trkpt lat="44.273121440783143" lon="11.387114524841309">
        <ele>273</ele>
        <time>2003-12-08T11:46:57Z</time>
      </trkpt>
      <trkpt lat="44.273507595062256" lon="11.387135982513428">
        <ele>271</ele>
        <time>2003-12-08T11:47:01Z</time>
      </trkpt>
      <trkpt lat="44.273593425750732" lon="11.387178897857666">
        <ele>270</ele>
        <time>2003-12-08T11:47:02Z</time>
      </trkpt>
      <trkpt lat="44.27415132522583" lon="11.387693881988525">
        <ele>269</ele>
        <time>2003-12-08T11:47:10Z</time>
      </trkpt>
      <trkpt lat="44.274365901947021" lon="11.387994289398193">
        <ele>269</ele>
        <time>2003-12-08T11:47:14Z</time>
      </trkpt>
      <trkpt lat="44.274473190307617" lon="11.388380527496338">
        <ele>269</ele>
        <time>2003-12-08T11:47:18Z</time>
      </trkpt>
      <trkpt lat="44.274516105651855" lon="11.388552188873291">
        <ele>269</ele>
        <time>2003-12-08T11:47:20Z</time>
      </trkpt>
      <trkpt lat="44.274880886077881" lon="11.38887413777411">
        <ele>269</ele>
        <time>2003-12-08T11:47:27Z</time>
      </trkpt>
      <trkpt lat="44.274945259094238" lon="11.38883113861084">
        <ele>269</ele>
        <time>2003-12-08T11:47:28Z</time>
      </trkpt>
      <trkpt lat="44.275331497192383" lon="11.388552188873291">
        <ele>266</ele>
        <time>2003-12-08T11:47:35Z</time>
      </trkpt>
      <trkpt lat="44.27539587020874" lon="11.388509273529053">
        <ele>266</ele>
        <time>2003-12-08T11:47:36Z</time>
      </trkpt>
      <trkpt lat="44.276018058881164" lon="11.388552188873291">
        <ele>264</ele>
        <time>2003-12-08T11:47:44Z</time>
      </trkpt>
      <trkpt lat="44.277133941650391" lon="11.389432037249207">
        <ele>261</ele>
        <time>2003-12-08T11:48:00Z</time>
      </trkpt>
      <trkpt lat="44.277884960174561" lon="11.38981819152832">
        <ele>261</ele>
        <time>2003-12-08T11:48:14Z</time>
      </trkpt>
      <trkpt lat="44.279193878173828" lon="11.39033317565918">
        <ele>261</ele>
        <time>2003-12-08T11:48:40Z</time>
      </trkpt>
      <trkpt lat="44.279236793518066" lon="11.390354633331299">
        <ele>261</ele>
        <time>2003-12-08T11:48:41Z</time>
      </trkpt>
      <trkpt lat="44.28013801574707" lon="11.390354633331299">
        <ele>261</ele>
        <time>2003-12-08T11:48:59Z</time>
      </trkpt>
      <trkpt lat="44.281232440844178" lon="11.390633583068848">
        <ele>262</ele>
        <time>2003-12-08T11:49:21Z</time>
      </trkpt>
      <trkpt lat="44.282112121582031" lon="11.391234397888184">
        <ele>260</ele>
        <time>2003-12-08T11:49:37Z</time>
      </trkpt>
      <trkpt lat="44.282755935564637" lon="11.39183521270752">
        <ele>258</ele>
        <time>2003-12-08T11:49:48Z</time>
      </trkpt>
      <trkpt lat="44.283013259992003" lon="11.391899585723877">
        <ele>258</ele>
        <time>2003-12-08T11:49:53Z</time>
      </trkpt>
      <trkpt lat="44.283120632171631" lon="11.391899585723877">
        <ele>257</ele>
        <time>2003-12-08T11:49:55Z</time>
      </trkpt>
      <trkpt lat="44.284086227416992" lon="11.391899585723877">
        <ele>258</ele>
        <time>2003-12-08T11:50:11Z</time>
      </trkpt>
      <trkpt lat="44.284772872924805" lon="11.392178535461426">
        <ele>257</ele>
        <time>2003-12-08T11:50:25Z</time>
      </trkpt>
      <trkpt lat="44.284923076629639" lon="11.392285823822021">
        <ele>257</ele>
        <time>2003-12-08T11:50:28Z</time>
      </trkpt>
      <trkpt lat="44.285180568695068" lon="11.392457485198975">
        <ele>257</ele>
        <time>2003-12-08T11:50:33Z</time>
      </trkpt>
      <trkpt lat="44.285867214202881" lon="11.393401622772217">
        <ele>258</ele>
        <time>2003-12-08T11:50:50Z</time>
      </trkpt>
      <trkpt lat="44.28610316477716" lon="11.39380931854248">
        <ele>258</ele>
        <time>2003-12-08T11:50:57Z</time>
      </trkpt>
      <trkpt lat="44.287025928497314" lon="11.394431591033936">
        <ele>255</ele>
        <time>2003-12-08T11:51:15Z</time>
      </trkpt>
      <trkpt lat="44.287798404693604" lon="11.394474506378174">
        <ele>253</ele>
        <time>2003-12-08T11:51:26Z</time>
      </trkpt>
      <trkpt lat="44.288034439086914" lon="11.394474506378174">
        <ele>252</ele>
        <time>2003-12-08T11:51:29Z</time>
      </trkpt>
      <trkpt lat="44.289107322692871" lon="11.394753539934754">
        <ele>252</ele>
        <time>2003-12-08T11:51:43Z</time>
      </trkpt>
      <trkpt lat="44.290351867675781" lon="11.395010864362121">
        <ele>251</ele>
        <time>2003-12-08T11:52:00Z</time>
      </trkpt>
      <trkpt lat="44.291296005249023" lon="11.395354270935059">
        <ele>248</ele>
        <time>2003-12-08T11:52:12Z</time>
      </trkpt>
      <trkpt lat="44.291982734575868" lon="11.395676136016846">
        <ele>244</ele>
        <time>2003-12-08T11:52:20Z</time>
      </trkpt>
      <trkpt lat="44.292068481445313" lon="11.395719135180116">
        <ele>244</ele>
        <time>2003-12-08T11:52:21Z</time>
      </trkpt>
      <trkpt lat="44.292390262708068" lon="11.395890712738037">
        <ele>242</ele>
        <time>2003-12-08T11:52:25Z</time>
      </trkpt>
      <trkpt lat="44.29363489151001" lon="11.39653435908258">
        <ele>239</ele>
        <time>2003-12-08T11:52:40Z</time>
      </trkpt>
      <trkpt lat="44.29492243565619" lon="11.396877765655518">
        <ele>239</ele>
        <time>2003-12-08T11:52:56Z</time>
      </trkpt>
      <trkpt lat="44.29513692855835" lon="11.39707088470459">
        <ele>240</ele>
        <time>2003-12-08T11:53:00Z</time>
      </trkpt>
      <trkpt lat="44.295244216918945" lon="11.397521495819092">
        <ele>241</ele>
        <time>2003-12-08T11:53:08Z</time>
      </trkpt>
      <trkpt lat="44.295201301574707" lon="11.398251140490174">
        <ele>241</ele>
        <time>2003-12-08T11:53:19Z</time>
      </trkpt>
      <trkpt lat="44.295201301574707" lon="11.3983154296875">
        <ele>242</ele>
        <time>2003-12-08T11:53:23Z</time>
      </trkpt>
      <trkpt lat="44.295458793640137" lon="11.398401260375977">
        <ele>242</ele>
        <time>2003-12-08T11:53:27Z</time>
      </trkpt>
      <trkpt lat="44.296531677246094" lon="11.3983154296875">
        <ele>242</ele>
        <time>2003-12-08T11:53:49Z</time>
      </trkpt>
      <trkpt lat="44.297711765393615" lon="11.39857292175293">
        <ele>241</ele>
        <time>2003-12-08T11:54:07Z</time>
      </trkpt>
      <trkpt lat="44.298098087310791" lon="11.398594379425049">
        <ele>238</ele>
        <time>2003-12-08T11:54:13Z</time>
      </trkpt>
      <trkpt lat="44.298570239916444" lon="11.398358261212707">
        <ele>238</ele>
        <time>2003-12-08T11:54:20Z</time>
      </trkpt>
      <trkpt lat="44.298999309539795" lon="11.397993564605713">
        <ele>237</ele>
        <time>2003-12-08T11:54:27Z</time>
      </trkpt>
      <trkpt lat="44.299170970916748" lon="11.397907733917236">
        <ele>236</ele>
        <time>2003-12-08T11:54:29Z</time>
      </trkpt>
      <trkpt lat="44.299557209014893" lon="11.397800361737609">
        <ele>236</ele>
        <time>2003-12-08T11:54:34Z</time>
      </trkpt>
      <trkpt lat="44.300029277801514" lon="11.397929191589355">
        <ele>233</ele>
        <time>2003-12-08T11:54:40Z</time>
      </trkpt>
      <trkpt lat="44.301552772521973" lon="11.398444175720215">
        <ele>231</ele>
        <time>2003-12-08T11:55:00Z</time>
      </trkpt>
      <trkpt lat="44.302561283111572" lon="11.398787498474121">
        <ele>227</ele>
        <time>2003-12-08T11:55:14Z</time>
      </trkpt>
      <trkpt lat="44.303526878356934" lon="11.399066364392638">
        <ele>225</ele>
        <time>2003-12-08T11:55:28Z</time>
      </trkpt>
      <trkpt lat="44.304835796356201" lon="11.398980617523193">
        <ele>225</ele>
        <time>2003-12-08T11:55:49Z</time>
      </trkpt>
      <trkpt lat="44.306466579437256" lon="11.398873329162598">
        <ele>225</ele>
        <time>2003-12-08T11:56:15Z</time>
      </trkpt>
      <trkpt lat="44.307968616485596" lon="11.399087905883789">
        <ele>223</ele>
        <time>2003-12-08T11:56:37Z</time>
      </trkpt>
      <trkpt lat="44.308998584747314" lon="11.399409770965576">
        <ele>223</ele>
        <time>2003-12-08T11:56:55Z</time>
      </trkpt>
      <trkpt lat="44.309084415435791" lon="11.399495601654053">
        <ele>223</ele>
        <time>2003-12-08T11:56:57Z</time>
      </trkpt>
      <trkpt lat="44.310221672058105" lon="11.40031099319458">
        <ele>224</ele>
        <time>2003-12-08T11:57:20Z</time>
      </trkpt>
      <trkpt lat="44.310371875762939" lon="11.400353908538818">
        <ele>223</ele>
        <time>2003-12-08T11:57:23Z</time>
      </trkpt>
      <trkpt lat="44.311444759368896" lon="11.400482738390565">
        <ele>223</ele>
        <time>2003-12-08T11:57:43Z</time>
      </trkpt>
      <trkpt lat="44.311788082122803" lon="11.400461196899414">
        <ele>223</ele>
        <time>2003-12-08T11:57:49Z</time>
      </trkpt>
      <trkpt lat="44.311959659680724" lon="11.400482738390565">
        <ele>222</ele>
        <time>2003-12-08T11:57:52Z</time>
      </trkpt>
      <trkpt lat="44.312710762023926" lon="11.400825977325439">
        <ele>218</ele>
        <time>2003-12-08T11:58:04Z</time>
      </trkpt>
      <trkpt lat="44.31309700012207" lon="11.401083469390869">
        <ele>217</ele>
        <time>2003-12-08T11:58:10Z</time>
      </trkpt>
      <trkpt lat="44.313547611236572" lon="11.401727199554443">
        <ele>215</ele>
        <time>2003-12-08T11:58:19Z</time>
      </trkpt>
      <trkpt lat="44.313697814941406" lon="11.401941776275635">
        <ele>215</ele>
        <time>2003-12-08T11:58:22Z</time>
      </trkpt>
      <trkpt lat="44.314062595367432" lon="11.402220726013184">
        <ele>215</ele>
        <time>2003-12-08T11:58:28Z</time>
      </trkpt>
      <trkpt lat="44.314191341400146" lon="11.402285099029541">
        <ele>215</ele>
        <time>2003-12-08T11:58:30Z</time>
      </trkpt>
      <trkpt lat="44.31511402130127" lon="11.402285099029541">
        <ele>218</ele>
        <time>2003-12-08T11:58:44Z</time>
      </trkpt>
      <trkpt lat="44.315350139513612" lon="11.402456760406494">
        <ele>216</ele>
        <time>2003-12-08T11:58:49Z</time>
      </trkpt>
      <trkpt lat="44.316122531890869" lon="11.403357982635498">
        <ele>215</ele>
        <time>2003-12-08T11:59:06Z</time>
      </trkpt>
      <trkpt lat="44.316487312316895" lon="11.40355110168457">
        <ele>215</ele>
        <time>2003-12-08T11:59:13Z</time>
      </trkpt>
      <trkpt lat="44.317667484283447" lon="11.403250694274902">
        <ele>216</ele>
        <time>2003-12-08T11:59:31Z</time>
      </trkpt>
      <trkpt lat="44.318504333496094" lon="11.402993202209473">
        <ele>218</ele>
        <time>2003-12-08T11:59:48Z</time>
      </trkpt>
      <trkpt lat="44.319233894348145" lon="11.403164863586426">
        <ele>219</ele>
        <time>2003-12-08T12:00:04Z</time>
      </trkpt>
      <trkpt lat="44.319469928741455" lon="11.403272235766053">
        <ele>219</ele>
        <time>2003-12-08T12:00:09Z</time>
      </trkpt>
      <trkpt lat="44.319620132446289" lon="11.403486728668213">
        <ele>219</ele>
        <time>2003-12-08T12:00:13Z</time>
      </trkpt>
      <trkpt lat="44.319770336151123" lon="11.403980338945985">
        <ele>217</ele>
        <time>2003-12-08T12:00:20Z</time>
      </trkpt>
      <trkpt lat="44.320178031921387" lon="11.404967308044434">
        <ele>214</ele>
        <time>2003-12-08T12:00:33Z</time>
      </trkpt>
      <trkpt lat="44.320907592773438" lon="11.405675411224365">
        <ele>213</ele>
        <time>2003-12-08T12:00:45Z</time>
      </trkpt>
      <trkpt lat="44.321250915527344" lon="11.405739784240723">
        <ele>211</ele>
        <time>2003-12-08T12:00:53Z</time>
      </trkpt>
      <trkpt lat="44.321808815002441" lon="11.405696868896484">
        <ele>210</ele>
        <time>2003-12-08T12:00:57Z</time>
      </trkpt>
      <trkpt lat="44.322302341461182" lon="11.40550366602838">
        <ele>208</ele>
        <time>2003-12-08T12:01:03Z</time>
      </trkpt>
      <trkpt lat="44.322667121887207" lon="11.405417919158936">
        <ele>206</ele>
        <time>2003-12-08T12:01:07Z</time>
      </trkpt>
      <trkpt lat="44.32309627532959" lon="11.405353462323546">
        <ele>204</ele>
        <time>2003-12-08T12:01:12Z</time>
      </trkpt>
      <trkpt lat="44.323267936706543" lon="11.405246341601014">
        <ele>205</ele>
        <time>2003-12-08T12:01:15Z</time>
      </trkpt>
      <trkpt lat="44.323611259460449" lon="11.404924392700195">
        <ele>204</ele>
        <time>2003-12-08T12:01:22Z</time>
      </trkpt>
      <trkpt lat="44.323661802336574" lon="11.404849961400032">
        <ele>204</ele>
        <time>1989-12-31T00:00:00Z</time>
      </trkpt>
    </trkseg>
  </trk>

  <trk>
    <name>Track 002</name>
    <trkseg>
      <trkpt lat="44.21048641204834" lon="11.388230323791504">
        <ele>870</ele>
        <time>1989-12-31T00:00:00Z</time>
      </trkpt>
      <trkpt lat="44.210314834490418" lon="11.388230323791504">
        <ele>870</ele>
        <time>2003-12-08T10:44:07Z</time>
      </trkpt>
      <trkpt lat="44.210143089294434" lon="11.388230323791504">
        <ele>868</ele>
        <time>2003-12-08T10:59:32Z</time>
      </trkpt>
      <trkpt lat="44.209821224212646" lon="11.38808012008667">
        <ele>871</ele>
        <time>2003-12-08T10:59:27Z</time>
      </trkpt>
      <trkpt lat="44.209628105163574" lon="11.387994289398193">
        <ele>873</ele>
        <time>2003-12-08T10:59:24Z</time>
      </trkpt>
      <trkpt lat="44.209091663360596" lon="11.38782262802124">
        <ele>877</ele>
        <time>2003-12-08T10:59:16Z</time>
      </trkpt>
      <trkpt lat="44.208598136901855" lon="11.387951374053955">
        <ele>880</ele>
        <time>2003-12-08T10:59:08Z</time>
      </trkpt>
      <trkpt lat="44.208533763885498" lon="11.387994289398193">
        <ele>881</ele>
        <time>2003-12-08T10:59:06Z</time>
      </trkpt>
      <trkpt lat="44.208190441131592" lon="11.388230323791504">
        <ele>885</ele>
        <time>2003-12-08T10:59:01Z</time>
      </trkpt>
      <trkpt lat="44.208040237426758" lon="11.388316238299012">
        <ele>886</ele>
        <time>2003-12-08T10:58:59Z</time>
      </trkpt>
      <trkpt lat="44.207653999328613" lon="11.388573562726378">
        <ele>890</ele>
        <time>2003-12-08T10:58:54Z</time>
      </trkpt>
      <trkpt lat="44.20748233795166" lon="11.388680934906006">
        <ele>891</ele>
        <time>2003-12-08T10:58:52Z</time>
      </trkpt>
      <trkpt lat="44.207053184509277" lon="11.388788223266602">
        <ele>895</ele>
        <time>2003-12-08T10:58:47Z</time>
      </trkpt>
      <trkpt lat="44.206967437639832" lon="11.388809680938721">
        <ele>896</ele>
        <time>2003-12-08T10:58:46Z</time>
      </trkpt>
      <trkpt lat="44.206602573394775" lon="11.388745307922363">
        <ele>899</ele>
        <time>2003-12-08T10:58:42Z</time>
      </trkpt>
      <trkpt lat="44.206280708312988" lon="11.388595104217529">
        <ele>901</ele>
        <time>2003-12-08T10:58:38Z</time>
      </trkpt>
      <trkpt lat="44.206023216247559" lon="11.388423359021544">
        <ele>903</ele>
        <time>2003-12-08T10:58:34Z</time>
      </trkpt>
      <trkpt lat="44.205722808837891" lon="11.388230323791504">
        <ele>906</ele>
        <time>2003-12-08T10:58:29Z</time>
      </trkpt>
      <trkpt lat="44.205379486083984" lon="11.388187408447266">
        <ele>908</ele>
        <time>2003-12-08T10:58:23Z</time>
      </trkpt>
      <trkpt lat="44.205036163330078" lon="11.388423359021544">
        <ele>910</ele>
        <time>2003-12-08T10:58:16Z</time>
      </trkpt>
      <trkpt lat="44.204885959625244" lon="11.388616561889648">
        <ele>911</ele>
        <time>2003-12-08T10:58:12Z</time>
      </trkpt>
      <trkpt lat="44.204864501953125" lon="11.388680934906006">
        <ele>910</ele>
        <time>2003-12-08T10:58:11Z</time>
      </trkpt>
      <trkpt lat="44.204649925231934" lon="11.389131462201476">
        <ele>914</ele>
        <time>2003-12-08T10:58:03Z</time>
      </trkpt>
      <trkpt lat="44.20447826385498" lon="11.389346122741699">
        <ele>917</ele>
        <time>2003-12-08T10:57:57Z</time>
      </trkpt>
      <trkpt lat="44.204177940264344" lon="11.38928166590631">
        <ele>915</ele>
        <time>2003-12-08T10:57:41Z</time>
      </trkpt>
      <trkpt lat="44.20398473739624" lon="11.389045715332031">
        <ele>911</ele>
        <time>2003-12-08T10:57:27Z</time>
      </trkpt>
      <trkpt lat="44.20374870300293" lon="11.388766765594482">
        <ele>908</ele>
        <time>2003-12-08T10:57:10Z</time>
      </trkpt>
      <trkpt lat="44.203512668609619" lon="11.388487815856934">
        <ele>905</ele>
        <time>2003-12-08T10:56:52Z</time>
      </trkpt>
      <trkpt lat="44.203255176544189" lon="11.388251781463623">
        <ele>902</ele>
        <time>2003-12-08T10:56:35Z</time>
      </trkpt>
      <trkpt lat="44.203040599822998" lon="11.388058662414551">
        <ele>898</ele>
        <time>2003-12-08T10:56:21Z</time>
      </trkpt>
      <trkpt lat="44.202761733904481" lon="11.387887001037598">
        <ele>895</ele>
        <time>2003-12-08T10:56:03Z</time>
      </trkpt>
      <trkpt lat="44.202654361724854" lon="11.387844085693359">
        <ele>892</ele>
        <time>2003-12-08T10:55:57Z</time>
      </trkpt>
      <trkpt lat="44.202354038134217" lon="11.387736797332764">
        <ele>889</ele>
        <time>2003-12-08T10:55:40Z</time>
      </trkpt>
      <trkpt lat="44.202225208282471" lon="11.387715339660645">
        <ele>887</ele>
        <time>2003-12-08T10:55:34Z</time>
      </trkpt>
      <trkpt lat="44.201967716217041" lon="11.387672424316406">
        <ele>884</ele>
        <time>2003-12-08T10:55:21Z</time>
      </trkpt>
      <trkpt lat="44.201560020446777" lon="11.387629508972168">
        <ele>881</ele>
        <time>2003-12-08T10:55:09Z</time>
      </trkpt>
      <trkpt lat="44.201259613037109" lon="11.387243270874023">
        <ele>879</ele>
        <time>2003-12-08T10:54:57Z</time>
      </trkpt>
      <trkpt lat="44.200809001922607" lon="11.386728286743164">
        <ele>879</ele>
        <time>2003-12-08T10:54:47Z</time>
      </trkpt>
      <trkpt lat="44.200272560119629" lon="11.386749660596251">
        <ele>880</ele>
        <time>2003-12-08T10:54:37Z</time>
      </trkpt>
      <trkpt lat="44.199950695037842" lon="11.386749660596251">
        <ele>879</ele>
        <time>2003-12-08T10:54:31Z</time>
      </trkpt>
      <trkpt lat="44.199714660644531" lon="11.3863205909729">
        <ele>879</ele>
        <time>2003-12-08T10:54:24Z</time>
      </trkpt>
      <trkpt lat="44.199628829956055" lon="11.386041641235352">
        <ele>879</ele>
        <time>2003-12-08T10:54:20Z</time>
      </trkpt>
      <trkpt lat="44.199414337053895" lon="11.385312080383301">
        <ele>881</ele>
        <time>2003-12-08T10:54:10Z</time>
      </trkpt>
      <trkpt lat="44.199285507202148" lon="11.384754180908203">
        <ele>882</ele>
        <time>2003-12-08T10:54:02Z</time>
      </trkpt>
      <trkpt lat="44.198770523071289" lon="11.384046077728271">
        <ele>883</ele>
        <time>2003-12-08T10:53:46Z</time>
      </trkpt>
      <trkpt lat="44.198448741808534" lon="11.384024620056152">
        <ele>883</ele>
        <time>2003-12-08T10:53:38Z</time>
      </trkpt>
      <trkpt lat="44.197976589202881" lon="11.384131908416748">
        <ele>882</ele>
        <time>2003-12-08T10:53:25Z</time>
      </trkpt>
      <trkpt lat="44.197633266448975" lon="11.384367858991027">
        <ele>883</ele>
        <time>2003-12-08T10:53:12Z</time>
      </trkpt>
      <trkpt lat="44.19750452041626" lon="11.384711265563965">
        <ele>880</ele>
        <time>2003-12-08T10:52:56Z</time>
      </trkpt>
      <trkpt lat="44.197483062744141" lon="11.384732723236084">
        <ele>881</ele>
        <time>2003-12-08T10:52:06Z</time>
      </trkpt>
      <trkpt lat="44.197547435760498" lon="11.384818637743592">
        <ele>881</ele>
        <time>2003-12-08T10:51:54Z</time>
      </trkpt>
      <trkpt lat="44.197654724121094" lon="11.384689807891846">
        <ele>883</ele>
        <time>2003-12-08T10:51:46Z</time>
      </trkpt>
      <trkpt lat="44.197654724121094" lon="11.384453773498535">
        <ele>883</ele>
        <time>2003-12-08T10:51:38Z</time>
      </trkpt>
      <trkpt lat="44.197633266448975" lon="11.384367858991027">
        <ele>883</ele>
        <time>1989-12-31T00:00:00Z</time>
      </trkpt>
    </trkseg>
  </trk>

  <trk>
    <name>Track 003</name>
    <trkseg>
      <trkpt lat="44.21048641204834" lon="11.388230323791504">
        <ele>870</ele>
        <time>1989-12-31T00:00:00Z</time>
      </trkpt>
      <trkpt lat="44.210314834490418" lon="11.388230323791504">
        <ele>870</ele>
        <time>2003-12-08T10:44:07Z</time>
      </trkpt>
      <trkpt lat="44.210143089294434" lon="11.388230323791504">
        <ele>868</ele>
        <time>2003-12-08T10:59:32Z</time>
      </trkpt>
      <trkpt lat="44.209821224212646" lon="11.38808012008667">
        <ele>871</ele>
        <time>2003-12-08T10:59:27Z</time>
      </trkpt>
      <trkpt lat="44.209628105163574" lon="11.387994289398193">
        <ele>873</ele>
        <time>2003-12-08T10:59:24Z</time>
      </trkpt>
      <trkpt lat="44.209091663360596" lon="11.38782262802124">
        <ele>877</ele>
        <time>2003-12-08T10:59:16Z</time>
      </trkpt>
      <trkpt lat="44.208598136901855" lon="11.387951374053955">
        <ele>880</ele>
        <time>2003-12-08T10:59:08Z</time>
      </trkpt>
      <trkpt lat="44.208533763885498" lon="11.387994289398193">
        <ele>881</ele>
        <time>2003-12-08T10:59:06Z</time>
      </trkpt>
      <trkpt lat="44.208190441131592" lon="11.388230323791504">
        <ele>885</ele>
        <time>2003-12-08T10:59:01Z</time>
      </trkpt>
      <trkpt lat="44.208040237426758" lon="11.388316238299012">
        <ele>886</ele>
        <time>2003-12-08T10:58:59Z</time>
      </trkpt>
      <trkpt lat="44.207653999328613" lon="11.388573562726378">
        <ele>890</ele>
        <time>2003-12-08T10:58:54Z</time>
      </trkpt>
      <trkpt lat="44.20748233795166" lon="11.388680934906006">
        <ele>891</ele>
        <time>2003-12-08T10:58:52Z</time>
      </trkpt>
      <trkpt lat="44.207053184509277" lon="11.388788223266602">
        <ele>895</ele>
        <time>2003-12-08T10:58:47Z</time>
      </trkpt>
      <trkpt lat="44.206967437639832" lon="11.388809680938721">
        <ele>896</ele>
        <time>2003-12-08T10:58:46Z</time>
      </trkpt>
      <trkpt lat="44.206602573394775" lon="11.388745307922363">
        <ele>899</ele>
        <time>2003-12-08T10:58:42Z</time>
      </trkpt>
      <trkpt lat="44.206280708312988" lon="11.388595104217529">
        <ele>901</ele>
        <time>2003-12-08T10:58:38Z</time>
      </trkpt>
      <trkpt lat="44.206023216247559" lon="11.388423359021544">
        <ele>903</ele>
        <time>2003-12-08T10:58:34Z</time>
      </trkpt>
      <trkpt lat="44.205722808837891" lon="11.388230323791504">
        <ele>906</ele>
        <time>2003-12-08T10:58:29Z</time>
      </trkpt>
      <trkpt lat="44.205379486083984" lon="11.388187408447266">
        <ele>908</ele>
        <time>2003-12-08T10:58:23Z</time>
      </trkpt>
      <trkpt lat="44.205036163330078" lon="11.388423359021544">
        <ele>910</ele>
        <time>2003-12-08T10:58:16Z</time>
      </trkpt>
      <trkpt lat="44.204885959625244" lon="11.388616561889648">
        <ele>911</ele>
        <time>2003-12-08T10:58:12Z</time>
      </trkpt>
      <trkpt lat="44.204864501953125" lon="11.388680934906006">
        <ele>910</ele>
        <time>2003-12-08T10:58:11Z</time>
      </trkpt>
      <trkpt lat="44.204649925231934" lon="11.389131462201476">
        <ele>914</ele>
        <time>2003-12-08T10:58:03Z</time>
      </trkpt>
      <trkpt lat="44.20447826385498" lon="11.389346122741699">
        <ele>917</ele>
        <time>2003-12-08T10:57:57Z</time>
      </trkpt>
      <trkpt lat="44.204177940264344" lon="11.38928166590631">
        <ele>915</ele>
        <time>2003-12-08T10:57:41Z</time>
      </trkpt>
      <trkpt lat="44.20398473739624" lon="11.389045715332031">
        <ele>911</ele>
        <time>2003-12-08T10:57:27Z</time>
      </trkpt>
      <trkpt lat="44.20374870300293" lon="11.388766765594482">
        <ele>908</ele>
        <time>2003-12-08T10:57:10Z</time>
      </trkpt>
      <trkpt lat="44.203512668609619" lon="11.388487815856934">
        <ele>905</ele>
        <time>2003-12-08T10:56:52Z</time>
      </trkpt>
      <trkpt lat="44.203255176544189" lon="11.388251781463623">
        <ele>902</ele>
        <time>2003-12-08T10:56:35Z</time>
      </trkpt>
      <trkpt lat="44.203040599822998" lon="11.388058662414551">
        <ele>898</ele>
        <time>2003-12-08T10:56:21Z</time>
      </trkpt>
      <trkpt lat="44.202761733904481" lon="11.387887001037598">
        <ele>895</ele>
        <time>2003-12-08T10:56:03Z</time>
      </trkpt>
      <trkpt lat="44.202654361724854" lon="11.387844085693359">
        <ele>892</ele>
        <time>2003-12-08T10:55:57Z</time>
      </trkpt>
      <trkpt lat="44.202354038134217" lon="11.387736797332764">
        <ele>889</ele>
        <time>2003-12-08T10:55:40Z</time>
      </trkpt>
      <trkpt lat="44.202225208282471" lon="11.387715339660645">
        <ele>887</ele>
        <time>2003-12-08T10:55:34Z</time>
      </trkpt>
      <trkpt lat="44.201967716217041" lon="11.387672424316406">
        <ele>884</ele>
        <time>2003-12-08T10:55:21Z</time>
      </trkpt>
      <trkpt lat="44.201560020446777" lon="11.387629508972168">
        <ele>881</ele>
        <time>2003-12-08T10:55:09Z</time>
      </trkpt>
      <trkpt lat="44.201259613037109" lon="11.387243270874023">
        <ele>879</ele>
        <time>2003-12-08T10:54:57Z</time>
      </trkpt>
      <trkpt lat="44.200809001922607" lon="11.386728286743164">
        <ele>879</ele>
        <time>2003-12-08T10:54:47Z</time>
      </trkpt>
      <trkpt lat="44.200272560119629" lon="11.386749660596251">
        <ele>880</ele>
        <time>2003-12-08T10:54:37Z</time>
      </trkpt>
      <trkpt lat="44.199950695037842" lon="11.386749660596251">
        <ele>879</ele>
        <time>2003-12-08T10:54:31Z</time>
      </trkpt>
      <trkpt lat="44.199714660644531" lon="11.3863205909729">
        <ele>879</ele>
        <time>2003-12-08T10:54:24Z</time>
      </trkpt>
      <trkpt lat="44.199628829956055" lon="11.386041641235352">
        <ele>879</ele>
        <time>2003-12-08T10:54:20Z</time>
      </trkpt>
      <trkpt lat="44.199414337053895" lon="11.385312080383301">
        <ele>881</ele>
        <time>2003-12-08T10:54:10Z</time>
      </trkpt>
      <trkpt lat="44.199285507202148" lon="11.384754180908203">
        <ele>882</ele>
        <time>2003-12-08T10:54:02Z</time>
      </trkpt>
      <trkpt lat="44.198770523071289" lon="11.384046077728271">
        <ele>883</ele>
        <time>2003-12-08T10:53:46Z</time>
      </trkpt>
      <trkpt lat="44.198448741808534" lon="11.384024620056152">
        <ele>883</ele>
        <time>2003-12-08T10:53:38Z</time>
      </trkpt>
      <trkpt lat="44.197976589202881" lon="11.384131908416748">
        <ele>882</ele>
        <time>2003-12-08T10:53:25Z</time>
      </trkpt>
      <trkpt lat="44.197633266448975" lon="11.384367858991027">
        <ele>883</ele>
        <time>2003-12-08T10:53:12Z</time>
      </trkpt>
      <trkpt lat="44.19750452041626" lon="11.384711265563965">
        <ele>880</ele>
        <time>2003-12-08T10:52:56Z</time>
      </trkpt>
      <trkpt lat="44.197483062744141" lon="11.384732723236084">
        <ele>881</ele>
        <time>2003-12-08T10:52:06Z</time>
      </trkpt>
      <trkpt lat="44.197547435760498" lon="11.384818637743592">
        <ele>881</ele>
        <time>2003-12-08T10:51:54Z</time>
      </trkpt>
      <trkpt lat="44.197654724121094" lon="11.384689807891846">
        <ele>883</ele>
        <time>2003-12-08T10:51:46Z</time>
      </trkpt>
      <trkpt lat="44.197654724121094" lon="11.384453773498535">
        <ele>883</ele>
        <time>2003-12-08T10:51:38Z</time>
      </trkpt>
      <trkpt lat="44.197633266448975" lon="11.384367858991027">
        <ele>883</ele>
        <time>1989-12-31T00:00:00Z</time>
      </trkpt>
    </trkseg>
  </trk>

</gpx>
